<?xml version="1.0" encoding="UTF-8" standalone="no" ?><gpx xmlns="http://www.topografix.com/GPX/1/1" xmlns:gpxx="http://www.garmin.com/xmlschemas/WaypointExtension/v1" xmlns:gpxtrx="http://www.garmin.com/xmlschemas/GpxExtensions/v3" xmlns:gpxtpx="http://www.garmin.com/xmlschemas/TrackPointExtension/v1" creator="GPSMAP 62s" version="1.1" xmlns:xsi="http://www.w3.org/2001/XMLSchema-instance" xsi:schemaLocation="http://www.topografix.com/GPX/1/1 http://www.topografix.com/GPX/1/1/gpx.xsd http://www.garmin.com/xmlschemas/WaypointExtension/v1 http://www8.garmin.com/xmlschemas/WaypointExtensionv1.xsd http://www.garmin.com/xmlschemas/TrackPointExtension/v1 http://www.garmin.com/xmlschemas/TrackPointExtensionv1.xsd"><metadata><link href="http://www.garmin.com"><text>Garmin International</text></link><time>2011-06-16T15:11:18Z</time></metadata><trk><name>30-MAI-11 17:26:50</name><extensions><gpxtrx:TrackExtension><gpxtrx:DisplayColor>Black</gpxtrx:DisplayColor></gpxtrx:TrackExtension></extensions><trkseg><trkpt lat="50.362400" lon="6.454178"><ele>496.66</ele><time>2011-05-30T06:28:44Z</time></trkpt><trkpt lat="50.362408" lon="6.454183"><ele>495.22</ele><time>2011-05-30T06:29:20Z</time></trkpt><trkpt lat="50.362408" lon="6.454166"><ele>496.18</ele><time>2011-05-30T06:29:56Z</time></trkpt><trkpt lat="50.362408" lon="6.454166"><ele>497.14</ele><time>2011-05-30T06:30:10Z</time></trkpt><trkpt lat="50.362411" lon="6.454167"><ele>495.70</ele><time>2011-05-30T06:30:41Z</time></trkpt><trkpt lat="50.362411" lon="6.454167"><ele>494.74</ele><time>2011-05-30T06:30:55Z</time></trkpt><trkpt lat="50.362415" lon="6.454155"><ele>496.66</ele><time>2011-05-30T06:31:13Z</time></trkpt><trkpt lat="50.362415" lon="6.454155"><ele>495.22</ele><time>2011-05-30T06:31:45Z</time></trkpt><trkpt lat="50.362419" lon="6.454155"><ele>497.14</ele><time>2011-05-30T06:32:10Z</time></trkpt><trkpt lat="50.362419" lon="6.454155"><ele>497.14</ele><time>2011-05-30T06:32:21Z</time></trkpt><trkpt lat="50.362503" lon="6.454095"><ele>496.66</ele><time>2011-05-30T06:32:42Z</time></trkpt><trkpt lat="50.362427" lon="6.454175"><ele>497.14</ele><time>2011-05-30T06:33:08Z</time></trkpt><trkpt lat="50.362461" lon="6.454189"><ele>496.66</ele><time>2011-05-30T06:33:38Z</time></trkpt><trkpt lat="50.362434" lon="6.454141"><ele>496.66</ele><time>2011-05-30T06:34:01Z</time></trkpt><trkpt lat="50.361599" lon="6.454253"><ele>507.23</ele><time>2011-05-30T07:25:04Z</time></trkpt><trkpt lat="50.361691" lon="6.454408"><ele>506.75</ele><time>2011-05-30T07:25:08Z</time></trkpt><trkpt lat="50.361744" lon="6.454836"><ele>506.75</ele><time>2011-05-30T07:25:21Z</time></trkpt><trkpt lat="50.361782" lon="6.454851"><ele>506.75</ele><time>2011-05-30T07:25:31Z</time></trkpt><trkpt lat="50.361816" lon="6.454954"><ele>506.75</ele><time>2011-05-30T07:25:36Z</time></trkpt><trkpt lat="50.361908" lon="6.455650"><ele>505.79</ele><time>2011-05-30T07:25:51Z</time></trkpt><trkpt lat="50.361916" lon="6.456536"><ele>505.31</ele><time>2011-05-30T07:26:06Z</time></trkpt><trkpt lat="50.361786" lon="6.457605"><ele>505.31</ele><time>2011-05-30T07:26:24Z</time></trkpt><trkpt lat="50.361637" lon="6.458308"><ele>501.46</ele><time>2011-05-30T07:26:34Z</time></trkpt><trkpt lat="50.361626" lon="6.458386"><ele>501.46</ele><time>2011-05-30T07:26:35Z</time></trkpt><trkpt lat="50.361610" lon="6.458466"><ele>501.46</ele><time>2011-05-30T07:26:36Z</time></trkpt><trkpt lat="50.361591" lon="6.458544"><ele>501.46</ele><time>2011-05-30T07:26:37Z</time></trkpt><trkpt lat="50.361156" lon="6.459668"><ele>501.46</ele><time>2011-05-30T07:26:51Z</time></trkpt><trkpt lat="50.361126" lon="6.459731"><ele>501.46</ele><time>2011-05-30T07:26:52Z</time></trkpt><trkpt lat="50.360867" lon="6.460305"><ele>502.91</ele><time>2011-05-30T07:27:05Z</time></trkpt><trkpt lat="50.360500" lon="6.461072"><ele>504.83</ele><time>2011-05-30T07:27:23Z</time></trkpt><trkpt lat="50.360279" lon="6.461529"><ele>505.31</ele><time>2011-05-30T07:27:37Z</time></trkpt><trkpt lat="50.360020" lon="6.462027"><ele>504.83</ele><time>2011-05-30T07:27:49Z</time></trkpt><trkpt lat="50.359756" lon="6.462673"><ele>503.87</ele><time>2011-05-30T07:27:59Z</time></trkpt><trkpt lat="50.359318" lon="6.463676"><ele>502.91</ele><time>2011-05-30T07:28:15Z</time></trkpt><trkpt lat="50.359245" lon="6.463890"><ele>502.43</ele><time>2011-05-30T07:28:18Z</time></trkpt><trkpt lat="50.359184" lon="6.464031"><ele>501.95</ele><time>2011-05-30T07:28:20Z</time></trkpt><trkpt lat="50.359081" lon="6.464243"><ele>501.95</ele><time>2011-05-30T07:28:23Z</time></trkpt><trkpt lat="50.358631" lon="6.465271"><ele>501.46</ele><time>2011-05-30T07:28:37Z</time></trkpt><trkpt lat="50.358212" lon="6.466370"><ele>500.50</ele><time>2011-05-30T07:28:53Z</time></trkpt><trkpt lat="50.357891" lon="6.467454"><ele>499.54</ele><time>2011-05-30T07:29:09Z</time></trkpt><trkpt lat="50.357769" lon="6.467960"><ele>499.54</ele><time>2011-05-30T07:29:18Z</time></trkpt><trkpt lat="50.357754" lon="6.467984"><ele>499.06</ele><time>2011-05-30T07:29:19Z</time></trkpt><trkpt lat="50.357746" lon="6.468010"><ele>499.54</ele><time>2011-05-30T07:29:20Z</time></trkpt><trkpt lat="50.357738" lon="6.468035"><ele>499.54</ele><time>2011-05-30T07:29:21Z</time></trkpt><trkpt lat="50.357742" lon="6.468085"><ele>499.06</ele><time>2011-05-30T07:29:24Z</time></trkpt><trkpt lat="50.357746" lon="6.468104"><ele>499.06</ele><time>2011-05-30T07:29:25Z</time></trkpt><trkpt lat="50.357746" lon="6.468132"><ele>499.06</ele><time>2011-05-30T07:29:26Z</time></trkpt><trkpt lat="50.357750" lon="6.468231"><ele>499.54</ele><time>2011-05-30T07:29:29Z</time></trkpt><trkpt lat="50.357727" lon="6.468749"><ele>499.06</ele><time>2011-05-30T07:29:39Z</time></trkpt><trkpt lat="50.357712" lon="6.468964"><ele>499.06</ele><time>2011-05-30T07:29:42Z</time></trkpt><trkpt lat="50.357708" lon="6.469030"><ele>498.58</ele><time>2011-05-30T07:29:43Z</time></trkpt><trkpt lat="50.357708" lon="6.469098"><ele>498.58</ele><time>2011-05-30T07:29:44Z</time></trkpt><trkpt lat="50.357708" lon="6.469169"><ele>498.10</ele><time>2011-05-30T07:29:45Z</time></trkpt><trkpt lat="50.357700" lon="6.469241"><ele>498.10</ele><time>2011-05-30T07:29:46Z</time></trkpt><trkpt lat="50.357697" lon="6.469386"><ele>498.10</ele><time>2011-05-30T07:29:48Z</time></trkpt><trkpt lat="50.357647" lon="6.470446"><ele>497.62</ele><time>2011-05-30T07:30:02Z</time></trkpt><trkpt lat="50.357613" lon="6.471585"><ele>496.66</ele><time>2011-05-30T07:30:17Z</time></trkpt><trkpt lat="50.357616" lon="6.472637"><ele>496.18</ele><time>2011-05-30T07:30:32Z</time></trkpt><trkpt lat="50.357677" lon="6.473120"><ele>495.22</ele><time>2011-05-30T07:30:38Z</time></trkpt><trkpt lat="50.357742" lon="6.473363"><ele>494.74</ele><time>2011-05-30T07:30:41Z</time></trkpt><trkpt lat="50.357883" lon="6.473813"><ele>492.33</ele><time>2011-05-30T07:30:46Z</time></trkpt><trkpt lat="50.358040" lon="6.474179"><ele>490.89</ele><time>2011-05-30T07:30:50Z</time></trkpt><trkpt lat="50.358337" lon="6.474654"><ele>487.53</ele><time>2011-05-30T07:30:55Z</time></trkpt><trkpt lat="50.358654" lon="6.475245"><ele>484.64</ele><time>2011-05-30T07:31:00Z</time></trkpt><trkpt lat="50.359257" lon="6.476217"><ele>481.76</ele><time>2011-05-30T07:31:09Z</time></trkpt><trkpt lat="50.359516" lon="6.476659"><ele>479.35</ele><time>2011-05-30T07:31:13Z</time></trkpt><trkpt lat="50.359669" lon="6.477018"><ele>478.87</ele><time>2011-05-30T07:31:16Z</time></trkpt><trkpt lat="50.359802" lon="6.477396"><ele>479.84</ele><time>2011-05-30T07:31:21Z</time></trkpt><trkpt lat="50.359829" lon="6.477455"><ele>479.35</ele><time>2011-05-30T07:31:22Z</time></trkpt><trkpt lat="50.359859" lon="6.477499"><ele>478.87</ele><time>2011-05-30T07:31:23Z</time></trkpt><trkpt lat="50.359886" lon="6.477545"><ele>479.35</ele><time>2011-05-30T07:31:24Z</time></trkpt><trkpt lat="50.359913" lon="6.477597"><ele>479.84</ele><time>2011-05-30T07:31:25Z</time></trkpt><trkpt lat="50.359924" lon="6.477654"><ele>479.35</ele><time>2011-05-30T07:31:26Z</time></trkpt><trkpt lat="50.359921" lon="6.477707"><ele>479.35</ele><time>2011-05-30T07:31:27Z</time></trkpt><trkpt lat="50.359909" lon="6.477754"><ele>479.35</ele><time>2011-05-30T07:31:28Z</time></trkpt><trkpt lat="50.359856" lon="6.478380"><ele>482.24</ele><time>2011-05-30T07:31:44Z</time></trkpt><trkpt lat="50.359955" lon="6.478947"><ele>483.68</ele><time>2011-05-30T07:32:00Z</time></trkpt><trkpt lat="50.360043" lon="6.479415"><ele>485.12</ele><time>2011-05-30T07:32:16Z</time></trkpt><trkpt lat="50.360050" lon="6.479795"><ele>486.08</ele><time>2011-05-30T07:32:29Z</time></trkpt><trkpt lat="50.360096" lon="6.480262"><ele>488.01</ele><time>2011-05-30T07:32:44Z</time></trkpt><trkpt lat="50.360092" lon="6.480841"><ele>488.49</ele><time>2011-05-30T07:33:01Z</time></trkpt><trkpt lat="50.360043" lon="6.481413"><ele>489.93</ele><time>2011-05-30T07:33:17Z</time></trkpt><trkpt lat="50.359936" lon="6.482160"><ele>490.41</ele><time>2011-05-30T07:33:35Z</time></trkpt><trkpt lat="50.359798" lon="6.482962"><ele>491.85</ele><time>2011-05-30T07:33:53Z</time></trkpt><trkpt lat="50.359684" lon="6.483695"><ele>492.33</ele><time>2011-05-30T07:34:08Z</time></trkpt><trkpt lat="50.359554" lon="6.484397"><ele>492.81</ele><time>2011-05-30T07:34:22Z</time></trkpt><trkpt lat="50.359444" lon="6.485077"><ele>492.81</ele><time>2011-05-30T07:34:35Z</time></trkpt><trkpt lat="50.359249" lon="6.486073"><ele>490.41</ele><time>2011-05-30T07:34:48Z</time></trkpt><trkpt lat="50.359215" lon="6.486383"><ele>488.97</ele><time>2011-05-30T07:34:51Z</time></trkpt><trkpt lat="50.359192" lon="6.486607"><ele>488.01</ele><time>2011-05-30T07:34:53Z</time></trkpt><trkpt lat="50.359169" lon="6.486714"><ele>487.53</ele><time>2011-05-30T07:34:54Z</time></trkpt><trkpt lat="50.359135" lon="6.486819"><ele>487.05</ele><time>2011-05-30T07:34:55Z</time></trkpt><trkpt lat="50.358986" lon="6.487250"><ele>485.60</ele><time>2011-05-30T07:34:59Z</time></trkpt><trkpt lat="50.358963" lon="6.487364"><ele>485.60</ele><time>2011-05-30T07:35:00Z</time></trkpt><trkpt lat="50.358940" lon="6.487484"><ele>485.12</ele><time>2011-05-30T07:35:01Z</time></trkpt><trkpt lat="50.358925" lon="6.487604"><ele>484.64</ele><time>2011-05-30T07:35:02Z</time></trkpt><trkpt lat="50.358913" lon="6.487724"><ele>484.64</ele><time>2011-05-30T07:35:03Z</time></trkpt><trkpt lat="50.358730" lon="6.488929"><ele>485.60</ele><time>2011-05-30T07:35:15Z</time></trkpt><trkpt lat="50.358707" lon="6.488997"><ele>486.08</ele><time>2011-05-30T07:35:16Z</time></trkpt><trkpt lat="50.358505" lon="6.489554"><ele>487.05</ele><time>2011-05-30T07:35:25Z</time></trkpt><trkpt lat="50.358498" lon="6.489621"><ele>486.56</ele><time>2011-05-30T07:35:26Z</time></trkpt><trkpt lat="50.358376" lon="6.490376"><ele>484.64</ele><time>2011-05-30T07:35:35Z</time></trkpt><trkpt lat="50.358360" lon="6.490467"><ele>484.64</ele><time>2011-05-30T07:35:36Z</time></trkpt><trkpt lat="50.358276" lon="6.490968"><ele>484.64</ele><time>2011-05-30T07:35:42Z</time></trkpt><trkpt lat="50.358273" lon="6.491041"><ele>484.64</ele><time>2011-05-30T07:35:43Z</time></trkpt><trkpt lat="50.358273" lon="6.491117"><ele>484.64</ele><time>2011-05-30T07:35:44Z</time></trkpt><trkpt lat="50.358276" lon="6.492229"><ele>483.68</ele><time>2011-05-30T07:35:57Z</time></trkpt><trkpt lat="50.358288" lon="6.493611"><ele>482.72</ele><time>2011-05-30T07:36:12Z</time></trkpt><trkpt lat="50.358307" lon="6.494982"><ele>482.24</ele><time>2011-05-30T07:36:27Z</time></trkpt><trkpt lat="50.358326" lon="6.496176"><ele>482.72</ele><time>2011-05-30T07:36:42Z</time></trkpt><trkpt lat="50.358330" lon="6.496248"><ele>482.24</ele><time>2011-05-30T07:36:43Z</time></trkpt><trkpt lat="50.358448" lon="6.497382"><ele>481.76</ele><time>2011-05-30T07:36:57Z</time></trkpt><trkpt lat="50.358463" lon="6.497532"><ele>482.24</ele><time>2011-05-30T07:36:59Z</time></trkpt><trkpt lat="50.358555" lon="6.498070"><ele>481.76</ele><time>2011-05-30T07:37:06Z</time></trkpt><trkpt lat="50.358585" lon="6.498222"><ele>481.76</ele><time>2011-05-30T07:37:08Z</time></trkpt><trkpt lat="50.358665" lon="6.499478"><ele>480.32</ele><time>2011-05-30T07:37:23Z</time></trkpt><trkpt lat="50.358727" lon="6.500532"><ele>479.84</ele><time>2011-05-30T07:37:35Z</time></trkpt><trkpt lat="50.358856" lon="6.501880"><ele>477.43</ele><time>2011-05-30T07:37:49Z</time></trkpt><trkpt lat="50.359055" lon="6.502968"><ele>475.99</ele><time>2011-05-30T07:38:00Z</time></trkpt><trkpt lat="50.359097" lon="6.503172"><ele>475.51</ele><time>2011-05-30T07:38:02Z</time></trkpt><trkpt lat="50.359104" lon="6.503274"><ele>475.03</ele><time>2011-05-30T07:38:03Z</time></trkpt><trkpt lat="50.359112" lon="6.503378"><ele>475.51</ele><time>2011-05-30T07:38:04Z</time></trkpt><trkpt lat="50.359123" lon="6.503566"><ele>475.03</ele><time>2011-05-30T07:38:06Z</time></trkpt><trkpt lat="50.359142" lon="6.503654"><ele>474.55</ele><time>2011-05-30T07:38:07Z</time></trkpt><trkpt lat="50.359165" lon="6.503745"><ele>474.07</ele><time>2011-05-30T07:38:08Z</time></trkpt><trkpt lat="50.359230" lon="6.503933"><ele>473.11</ele><time>2011-05-30T07:38:10Z</time></trkpt><trkpt lat="50.359276" lon="6.504018"><ele>472.14</ele><time>2011-05-30T07:38:11Z</time></trkpt><trkpt lat="50.359329" lon="6.504100"><ele>471.66</ele><time>2011-05-30T07:38:12Z</time></trkpt><trkpt lat="50.359386" lon="6.504173"><ele>471.18</ele><time>2011-05-30T07:38:13Z</time></trkpt><trkpt lat="50.359455" lon="6.504237"><ele>470.70</ele><time>2011-05-30T07:38:14Z</time></trkpt><trkpt lat="50.359531" lon="6.504291"><ele>469.74</ele><time>2011-05-30T07:38:15Z</time></trkpt><trkpt lat="50.359600" lon="6.504347"><ele>469.74</ele><time>2011-05-30T07:38:16Z</time></trkpt><trkpt lat="50.359890" lon="6.504602"><ele>467.82</ele><time>2011-05-30T07:38:20Z</time></trkpt><trkpt lat="50.359966" lon="6.504657"><ele>467.82</ele><time>2011-05-30T07:38:21Z</time></trkpt><trkpt lat="50.360676" lon="6.505234"><ele>466.38</ele><time>2011-05-30T07:38:31Z</time></trkpt><trkpt lat="50.360954" lon="6.505344"><ele>465.90</ele><time>2011-05-30T07:38:35Z</time></trkpt><trkpt lat="50.361259" lon="6.505550"><ele>465.90</ele><time>2011-05-30T07:38:40Z</time></trkpt><trkpt lat="50.361309" lon="6.505609"><ele>465.42</ele><time>2011-05-30T07:38:41Z</time></trkpt><trkpt lat="50.361351" lon="6.505682"><ele>465.90</ele><time>2011-05-30T07:38:42Z</time></trkpt><trkpt lat="50.361370" lon="6.505768"><ele>465.90</ele><time>2011-05-30T07:38:43Z</time></trkpt><trkpt lat="50.361359" lon="6.505849"><ele>465.90</ele><time>2011-05-30T07:38:44Z</time></trkpt><trkpt lat="50.361324" lon="6.505920"><ele>465.42</ele><time>2011-05-30T07:38:45Z</time></trkpt><trkpt lat="50.361290" lon="6.505986"><ele>465.90</ele><time>2011-05-30T07:38:46Z</time></trkpt><trkpt lat="50.361248" lon="6.506038"><ele>465.90</ele><time>2011-05-30T07:38:47Z</time></trkpt><trkpt lat="50.361210" lon="6.506091"><ele>465.42</ele><time>2011-05-30T07:38:48Z</time></trkpt><trkpt lat="50.361176" lon="6.506147"><ele>465.42</ele><time>2011-05-30T07:38:49Z</time></trkpt><trkpt lat="50.361145" lon="6.506200"><ele>465.90</ele><time>2011-05-30T07:38:50Z</time></trkpt><trkpt lat="50.360828" lon="6.506840"><ele>465.90</ele><time>2011-05-30T07:39:04Z</time></trkpt><trkpt lat="50.360645" lon="6.507634"><ele>465.42</ele><time>2011-05-30T07:39:19Z</time></trkpt><trkpt lat="50.360645" lon="6.507634"><ele>465.42</ele><time>2011-05-30T07:39:46Z</time></trkpt><trkpt lat="50.360645" lon="6.507634"><ele>465.42</ele><time>2011-05-30T07:40:03Z</time></trkpt><trkpt lat="50.360645" lon="6.507634"><ele>465.42</ele><time>2011-05-30T07:40:15Z</time></trkpt><trkpt lat="50.360645" lon="6.507659"><ele>465.42</ele><time>2011-05-30T07:40:16Z</time></trkpt><trkpt lat="50.360641" lon="6.507687"><ele>465.90</ele><time>2011-05-30T07:40:17Z</time></trkpt><trkpt lat="50.360638" lon="6.507717"><ele>465.42</ele><time>2011-05-30T07:40:18Z</time></trkpt><trkpt lat="50.360638" lon="6.507751"><ele>465.42</ele><time>2011-05-30T07:40:19Z</time></trkpt><trkpt lat="50.360580" lon="6.508221"><ele>466.86</ele><time>2011-05-30T07:40:33Z</time></trkpt><trkpt lat="50.360588" lon="6.508678"><ele>467.82</ele><time>2011-05-30T07:40:47Z</time></trkpt><trkpt lat="50.360584" lon="6.509202"><ele>467.82</ele><time>2011-05-30T07:41:00Z</time></trkpt><trkpt lat="50.360508" lon="6.509973"><ele>468.30</ele><time>2011-05-30T07:41:14Z</time></trkpt><trkpt lat="50.360336" lon="6.510884"><ele>467.82</ele><time>2011-05-30T07:41:29Z</time></trkpt><trkpt lat="50.360149" lon="6.511563"><ele>464.93</ele><time>2011-05-30T07:41:38Z</time></trkpt><trkpt lat="50.360035" lon="6.511858"><ele>463.49</ele><time>2011-05-30T07:41:41Z</time></trkpt><trkpt lat="50.359806" lon="6.512341"><ele>462.05</ele><time>2011-05-30T07:41:46Z</time></trkpt><trkpt lat="50.359753" lon="6.512395"><ele>462.05</ele><time>2011-05-30T07:41:47Z</time></trkpt><trkpt lat="50.359699" lon="6.512438"><ele>462.53</ele><time>2011-05-30T07:41:48Z</time></trkpt><trkpt lat="50.359653" lon="6.512494"><ele>462.53</ele><time>2011-05-30T07:41:49Z</time></trkpt><trkpt lat="50.359615" lon="6.512555"><ele>462.05</ele><time>2011-05-30T07:41:50Z</time></trkpt><trkpt lat="50.359589" lon="6.512626"><ele>462.05</ele><time>2011-05-30T07:41:51Z</time></trkpt><trkpt lat="50.359566" lon="6.512702"><ele>462.05</ele><time>2011-05-30T07:41:52Z</time></trkpt><trkpt lat="50.359550" lon="6.512782"><ele>462.05</ele><time>2011-05-30T07:41:53Z</time></trkpt><trkpt lat="50.359539" lon="6.512866"><ele>461.57</ele><time>2011-05-30T07:41:54Z</time></trkpt><trkpt lat="50.359531" lon="6.512952"><ele>461.57</ele><time>2011-05-30T07:41:55Z</time></trkpt><trkpt lat="50.359531" lon="6.513041"><ele>461.57</ele><time>2011-05-30T07:41:56Z</time></trkpt><trkpt lat="50.359528" lon="6.513219"><ele>461.09</ele><time>2011-05-30T07:41:58Z</time></trkpt><trkpt lat="50.359512" lon="6.513306"><ele>461.09</ele><time>2011-05-30T07:41:59Z</time></trkpt><trkpt lat="50.359501" lon="6.513391"><ele>461.09</ele><time>2011-05-30T07:42:00Z</time></trkpt><trkpt lat="50.359497" lon="6.513478"><ele>461.09</ele><time>2011-05-30T07:42:01Z</time></trkpt><trkpt lat="50.359497" lon="6.513563"><ele>461.57</ele><time>2011-05-30T07:42:02Z</time></trkpt><trkpt lat="50.359436" lon="6.514440"><ele>460.13</ele><time>2011-05-30T07:42:13Z</time></trkpt><trkpt lat="50.359421" lon="6.514509"><ele>460.13</ele><time>2011-05-30T07:42:14Z</time></trkpt><trkpt lat="50.359348" lon="6.514764"><ele>460.13</ele><time>2011-05-30T07:42:18Z</time></trkpt><trkpt lat="50.359322" lon="6.514818"><ele>460.13</ele><time>2011-05-30T07:42:19Z</time></trkpt><trkpt lat="50.359104" lon="6.515156"><ele>459.65</ele><time>2011-05-30T07:42:26Z</time></trkpt><trkpt lat="50.358479" lon="6.515496"><ele>460.13</ele><time>2011-05-30T07:42:41Z</time></trkpt><trkpt lat="50.357971" lon="6.515562"><ele>460.13</ele><time>2011-05-30T07:42:52Z</time></trkpt><trkpt lat="50.357281" lon="6.515625"><ele>459.65</ele><time>2011-05-30T07:43:08Z</time></trkpt><trkpt lat="50.356731" lon="6.515697"><ele>462.05</ele><time>2011-05-30T07:43:26Z</time></trkpt><trkpt lat="50.356323" lon="6.516053"><ele>460.61</ele><time>2011-05-30T07:43:41Z</time></trkpt><trkpt lat="50.356140" lon="6.516297"><ele>459.17</ele><time>2011-05-30T07:43:46Z</time></trkpt><trkpt lat="50.355637" lon="6.516676"><ele>460.61</ele><time>2011-05-30T07:44:01Z</time></trkpt><trkpt lat="50.355309" lon="6.516726"><ele>462.53</ele><time>2011-05-30T07:44:17Z</time></trkpt><trkpt lat="50.355080" lon="6.516612"><ele>463.97</ele><time>2011-05-30T07:44:28Z</time></trkpt><trkpt lat="50.354870" lon="6.516805"><ele>464.93</ele><time>2011-05-30T07:44:42Z</time></trkpt><trkpt lat="50.354679" lon="6.516971"><ele>465.42</ele><time>2011-05-30T07:44:57Z</time></trkpt><trkpt lat="50.354416" lon="6.517225"><ele>466.38</ele><time>2011-05-30T07:45:11Z</time></trkpt><trkpt lat="50.354069" lon="6.517561"><ele>466.38</ele><time>2011-05-30T07:45:25Z</time></trkpt><trkpt lat="50.353725" lon="6.518164"><ele>465.42</ele><time>2011-05-30T07:45:40Z</time></trkpt><trkpt lat="50.353508" lon="6.519118"><ele>463.01</ele><time>2011-05-30T07:45:55Z</time></trkpt><trkpt lat="50.353214" lon="6.520086"><ele>462.05</ele><time>2011-05-30T07:46:06Z</time></trkpt><trkpt lat="50.352863" lon="6.520873"><ele>463.49</ele><time>2011-05-30T07:46:19Z</time></trkpt><trkpt lat="50.352562" lon="6.521448"><ele>463.97</ele><time>2011-05-30T07:46:34Z</time></trkpt><trkpt lat="50.352428" lon="6.521869"><ele>463.97</ele><time>2011-05-30T07:46:47Z</time></trkpt><trkpt lat="50.352119" lon="6.522267"><ele>464.93</ele><time>2011-05-30T07:46:59Z</time></trkpt><trkpt lat="50.352005" lon="6.522416"><ele>463.97</ele><time>2011-05-30T07:47:02Z</time></trkpt><trkpt lat="50.351845" lon="6.522792"><ele>463.97</ele><time>2011-05-30T07:47:08Z</time></trkpt><trkpt lat="50.351833" lon="6.522873"><ele>464.45</ele><time>2011-05-30T07:47:09Z</time></trkpt><trkpt lat="50.351826" lon="6.522953"><ele>464.45</ele><time>2011-05-30T07:47:10Z</time></trkpt><trkpt lat="50.351826" lon="6.523032"><ele>463.97</ele><time>2011-05-30T07:47:11Z</time></trkpt><trkpt lat="50.351833" lon="6.523107"><ele>463.97</ele><time>2011-05-30T07:47:12Z</time></trkpt><trkpt lat="50.351837" lon="6.523179"><ele>463.97</ele><time>2011-05-30T07:47:13Z</time></trkpt><trkpt lat="50.351837" lon="6.523247"><ele>463.49</ele><time>2011-05-30T07:47:14Z</time></trkpt><trkpt lat="50.351868" lon="6.523641"><ele>463.49</ele><time>2011-05-30T07:47:20Z</time></trkpt><trkpt lat="50.351898" lon="6.524241"><ele>463.49</ele><time>2011-05-30T07:47:31Z</time></trkpt><trkpt lat="50.351875" lon="6.524929"><ele>464.45</ele><time>2011-05-30T07:47:43Z</time></trkpt><trkpt lat="50.351849" lon="6.525654"><ele>464.45</ele><time>2011-05-30T07:47:56Z</time></trkpt><trkpt lat="50.351765" lon="6.526466"><ele>463.01</ele><time>2011-05-30T07:48:08Z</time></trkpt><trkpt lat="50.351688" lon="6.526737"><ele>463.01</ele><time>2011-05-30T07:48:12Z</time></trkpt><trkpt lat="50.351662" lon="6.526802"><ele>462.53</ele><time>2011-05-30T07:48:13Z</time></trkpt><trkpt lat="50.351482" lon="6.527132"><ele>463.01</ele><time>2011-05-30T07:48:19Z</time></trkpt><trkpt lat="50.351398" lon="6.527304"><ele>461.57</ele><time>2011-05-30T07:48:22Z</time></trkpt><trkpt lat="50.351345" lon="6.527405"><ele>461.57</ele><time>2011-05-30T07:48:24Z</time></trkpt><trkpt lat="50.351315" lon="6.527465"><ele>460.61</ele><time>2011-05-30T07:48:25Z</time></trkpt><trkpt lat="50.351238" lon="6.527667"><ele>459.65</ele><time>2011-05-30T07:48:28Z</time></trkpt><trkpt lat="50.351208" lon="6.527723"><ele>459.17</ele><time>2011-05-30T07:48:29Z</time></trkpt><trkpt lat="50.351185" lon="6.527773"><ele>459.17</ele><time>2011-05-30T07:48:30Z</time></trkpt><trkpt lat="50.351166" lon="6.527814"><ele>459.17</ele><time>2011-05-30T07:48:31Z</time></trkpt><trkpt lat="50.351147" lon="6.527850"><ele>459.17</ele><time>2011-05-30T07:48:32Z</time></trkpt><trkpt lat="50.351131" lon="6.527887"><ele>459.17</ele><time>2011-05-30T07:48:33Z</time></trkpt><trkpt lat="50.351128" lon="6.527930"><ele>458.69</ele><time>2011-05-30T07:48:34Z</time></trkpt><trkpt lat="50.351128" lon="6.527981"><ele>458.21</ele><time>2011-05-30T07:48:35Z</time></trkpt><trkpt lat="50.351215" lon="6.528568"><ele>456.28</ele><time>2011-05-30T07:48:46Z</time></trkpt><trkpt lat="50.350998" lon="6.529065"><ele>457.24</ele><time>2011-05-30T07:48:58Z</time></trkpt><trkpt lat="50.350750" lon="6.529191"><ele>459.17</ele><time>2011-05-30T07:49:11Z</time></trkpt><trkpt lat="50.350513" lon="6.529327"><ele>460.61</ele><time>2011-05-30T07:49:24Z</time></trkpt><trkpt lat="50.350456" lon="6.529364"><ele>460.61</ele><time>2011-05-30T07:49:27Z</time></trkpt><trkpt lat="50.350441" lon="6.529353"><ele>461.09</ele><time>2011-05-30T07:49:28Z</time></trkpt><trkpt lat="50.350384" lon="6.529022"><ele>461.57</ele><time>2011-05-30T07:49:41Z</time></trkpt><trkpt lat="50.350269" lon="6.528911"><ele>462.05</ele><time>2011-05-30T07:49:50Z</time></trkpt><trkpt lat="50.350266" lon="6.528892"><ele>461.57</ele><time>2011-05-30T07:49:51Z</time></trkpt><trkpt lat="50.350254" lon="6.528829"><ele>462.05</ele><time>2011-05-30T07:50:05Z</time></trkpt><trkpt lat="50.350254" lon="6.528830"><ele>462.53</ele><time>2011-05-30T07:50:39Z</time></trkpt><trkpt lat="50.350407" lon="6.529483"><ele>461.09</ele><time>2011-05-30T08:10:41Z</time></trkpt><trkpt lat="50.350384" lon="6.529510"><ele>461.57</ele><time>2011-05-30T08:10:42Z</time></trkpt><trkpt lat="50.349888" lon="6.529532"><ele>462.05</ele><time>2011-05-30T08:10:55Z</time></trkpt><trkpt lat="50.349529" lon="6.529593"><ele>460.13</ele><time>2011-05-30T08:11:02Z</time></trkpt><trkpt lat="50.349480" lon="6.529581"><ele>460.13</ele><time>2011-05-30T08:11:03Z</time></trkpt><trkpt lat="50.349434" lon="6.529557"><ele>461.57</ele><time>2011-05-30T08:11:04Z</time></trkpt><trkpt lat="50.349312" lon="6.529530"><ele>462.53</ele><time>2011-05-30T08:11:08Z</time></trkpt><trkpt lat="50.349312" lon="6.529554"><ele>463.01</ele><time>2011-05-30T08:11:09Z</time></trkpt><trkpt lat="50.349323" lon="6.529574"><ele>462.53</ele><time>2011-05-30T08:11:10Z</time></trkpt><trkpt lat="50.349342" lon="6.529589"><ele>462.05</ele><time>2011-05-30T08:11:11Z</time></trkpt><trkpt lat="50.349365" lon="6.529603"><ele>462.05</ele><time>2011-05-30T08:11:12Z</time></trkpt><trkpt lat="50.349457" lon="6.529756"><ele>461.09</ele><time>2011-05-30T08:11:16Z</time></trkpt><trkpt lat="50.349449" lon="6.529817"><ele>461.09</ele><time>2011-05-30T08:11:17Z</time></trkpt><trkpt lat="50.349422" lon="6.529875"><ele>460.13</ele><time>2011-05-30T08:11:18Z</time></trkpt><trkpt lat="50.349373" lon="6.529995"><ele>460.13</ele><time>2011-05-30T08:11:20Z</time></trkpt><trkpt lat="50.349358" lon="6.530064"><ele>460.13</ele><time>2011-05-30T08:11:21Z</time></trkpt><trkpt lat="50.349342" lon="6.530131"><ele>461.09</ele><time>2011-05-30T08:11:22Z</time></trkpt><trkpt lat="50.349327" lon="6.530195"><ele>460.61</ele><time>2011-05-30T08:11:23Z</time></trkpt><trkpt lat="50.349319" lon="6.530257"><ele>460.61</ele><time>2011-05-30T08:11:24Z</time></trkpt><trkpt lat="50.349312" lon="6.530321"><ele>460.61</ele><time>2011-05-30T08:11:25Z</time></trkpt><trkpt lat="50.349316" lon="6.530641"><ele>460.13</ele><time>2011-05-30T08:11:30Z</time></trkpt><trkpt lat="50.349327" lon="6.530705"><ele>460.13</ele><time>2011-05-30T08:11:31Z</time></trkpt><trkpt lat="50.349346" lon="6.530767"><ele>460.13</ele><time>2011-05-30T08:11:32Z</time></trkpt><trkpt lat="50.349449" lon="6.531088"><ele>459.65</ele><time>2011-05-30T08:11:38Z</time></trkpt><trkpt lat="50.349445" lon="6.531133"><ele>459.65</ele><time>2011-05-30T08:11:39Z</time></trkpt><trkpt lat="50.349434" lon="6.531170"><ele>459.65</ele><time>2011-05-30T08:11:40Z</time></trkpt><trkpt lat="50.349483" lon="6.531523"><ele>460.61</ele><time>2011-05-30T08:11:51Z</time></trkpt><trkpt lat="50.349564" lon="6.532084"><ele>461.57</ele><time>2011-05-30T08:12:06Z</time></trkpt><trkpt lat="50.349560" lon="6.532519"><ele>463.49</ele><time>2011-05-30T08:12:21Z</time></trkpt><trkpt lat="50.349556" lon="6.532894"><ele>464.93</ele><time>2011-05-30T08:12:36Z</time></trkpt><trkpt lat="50.349613" lon="6.533250"><ele>465.90</ele><time>2011-05-30T08:12:52Z</time></trkpt><trkpt lat="50.349781" lon="6.533533"><ele>467.82</ele><time>2011-05-30T08:13:08Z</time></trkpt><trkpt lat="50.349995" lon="6.533763"><ele>468.78</ele><time>2011-05-30T08:13:23Z</time></trkpt><trkpt lat="50.350342" lon="6.533965"><ele>466.86</ele><time>2011-05-30T08:13:37Z</time></trkpt><trkpt lat="50.350384" lon="6.533980"><ele>467.34</ele><time>2011-05-30T08:13:38Z</time></trkpt><trkpt lat="50.350426" lon="6.534005"><ele>467.34</ele><time>2011-05-30T08:13:39Z</time></trkpt><trkpt lat="50.350464" lon="6.534036"><ele>466.86</ele><time>2011-05-30T08:13:40Z</time></trkpt><trkpt lat="50.350502" lon="6.534073"><ele>466.86</ele><time>2011-05-30T08:13:41Z</time></trkpt><trkpt lat="50.350536" lon="6.534117"><ele>466.86</ele><time>2011-05-30T08:13:42Z</time></trkpt><trkpt lat="50.350567" lon="6.534167"><ele>466.38</ele><time>2011-05-30T08:13:43Z</time></trkpt><trkpt lat="50.350597" lon="6.534219"><ele>466.86</ele><time>2011-05-30T08:13:44Z</time></trkpt><trkpt lat="50.350903" lon="6.534767"><ele>466.38</ele><time>2011-05-30T08:13:56Z</time></trkpt><trkpt lat="50.350948" lon="6.534815"><ele>465.90</ele><time>2011-05-30T08:13:57Z</time></trkpt><trkpt lat="50.351097" lon="6.534951"><ele>464.93</ele><time>2011-05-30T08:14:00Z</time></trkpt><trkpt lat="50.351162" lon="6.534981"><ele>464.45</ele><time>2011-05-30T08:14:01Z</time></trkpt><trkpt lat="50.351227" lon="6.535000"><ele>463.97</ele><time>2011-05-30T08:14:02Z</time></trkpt><trkpt lat="50.351341" lon="6.535040"><ele>463.01</ele><time>2011-05-30T08:14:04Z</time></trkpt><trkpt lat="50.351387" lon="6.535097"><ele>462.53</ele><time>2011-05-30T08:14:05Z</time></trkpt><trkpt lat="50.351418" lon="6.535167"><ele>462.53</ele><time>2011-05-30T08:14:06Z</time></trkpt><trkpt lat="50.351448" lon="6.535230"><ele>463.01</ele><time>2011-05-30T08:14:07Z</time></trkpt><trkpt lat="50.351471" lon="6.535283"><ele>463.01</ele><time>2011-05-30T08:14:08Z</time></trkpt><trkpt lat="50.351696" lon="6.535835"><ele>463.97</ele><time>2011-05-30T08:14:22Z</time></trkpt><trkpt lat="50.351707" lon="6.535886"><ele>463.97</ele><time>2011-05-30T08:14:24Z</time></trkpt><trkpt lat="50.351704" lon="6.535933"><ele>463.97</ele><time>2011-05-30T08:14:26Z</time></trkpt><trkpt lat="50.351681" lon="6.536056"><ele>464.93</ele><time>2011-05-30T08:14:32Z</time></trkpt><trkpt lat="50.351685" lon="6.536073"><ele>464.93</ele><time>2011-05-30T08:14:33Z</time></trkpt><trkpt lat="50.351692" lon="6.536097"><ele>465.42</ele><time>2011-05-30T08:14:34Z</time></trkpt><trkpt lat="50.351692" lon="6.536122"><ele>465.42</ele><time>2011-05-30T08:14:35Z</time></trkpt><trkpt lat="50.351696" lon="6.536150"><ele>465.42</ele><time>2011-05-30T08:14:36Z</time></trkpt><trkpt lat="50.351673" lon="6.536462"><ele>466.38</ele><time>2011-05-30T08:14:50Z</time></trkpt><trkpt lat="50.351662" lon="6.536498"><ele>466.86</ele><time>2011-05-30T08:14:52Z</time></trkpt><trkpt lat="50.351658" lon="6.536516"><ele>467.34</ele><time>2011-05-30T08:14:53Z</time></trkpt><trkpt lat="50.351654" lon="6.536540"><ele>466.86</ele><time>2011-05-30T08:14:54Z</time></trkpt><trkpt lat="50.351650" lon="6.536569"><ele>466.86</ele><time>2011-05-30T08:14:55Z</time></trkpt><trkpt lat="50.351650" lon="6.536601"><ele>466.38</ele><time>2011-05-30T08:14:56Z</time></trkpt><trkpt lat="50.351654" lon="6.536635"><ele>466.86</ele><time>2011-05-30T08:14:57Z</time></trkpt><trkpt lat="50.351650" lon="6.536674"><ele>466.38</ele><time>2011-05-30T08:14:58Z</time></trkpt><trkpt lat="50.351521" lon="6.537459"><ele>466.38</ele><time>2011-05-30T08:15:13Z</time></trkpt><trkpt lat="50.351234" lon="6.538152"><ele>466.38</ele><time>2011-05-30T08:15:30Z</time></trkpt><trkpt lat="50.351166" lon="6.538356"><ele>465.90</ele><time>2011-05-30T08:15:34Z</time></trkpt><trkpt lat="50.351147" lon="6.538417"><ele>465.90</ele><time>2011-05-30T08:15:35Z</time></trkpt><trkpt lat="50.351013" lon="6.538991"><ele>462.53</ele><time>2011-05-30T08:15:42Z</time></trkpt><trkpt lat="50.350960" lon="6.539370"><ele>460.61</ele><time>2011-05-30T08:15:45Z</time></trkpt><trkpt lat="50.350857" lon="6.540189"><ele>459.65</ele><time>2011-05-30T08:15:52Z</time></trkpt><trkpt lat="50.350861" lon="6.540299"><ele>459.65</ele><time>2011-05-30T08:15:53Z</time></trkpt><trkpt lat="50.350945" lon="6.542044"><ele>457.72</ele><time>2011-05-30T08:16:10Z</time></trkpt><trkpt lat="50.350956" lon="6.542141"><ele>457.72</ele><time>2011-05-30T08:16:11Z</time></trkpt><trkpt lat="50.350964" lon="6.542240"><ele>457.24</ele><time>2011-05-30T08:16:12Z</time></trkpt><trkpt lat="50.351013" lon="6.543367"><ele>457.24</ele><time>2011-05-30T08:16:24Z</time></trkpt><trkpt lat="50.351208" lon="6.543222"><ele>453.40</ele><time>2011-05-30T08:29:30Z</time></trkpt><trkpt lat="50.351204" lon="6.543283"><ele>453.40</ele><time>2011-05-30T08:29:32Z</time></trkpt><trkpt lat="50.351089" lon="6.543814"><ele>452.92</ele><time>2011-05-30T08:29:47Z</time></trkpt><trkpt lat="50.351002" lon="6.544343"><ele>451.00</ele><time>2011-05-30T08:30:02Z</time></trkpt><trkpt lat="50.351223" lon="6.544708"><ele>449.07</ele><time>2011-05-30T08:30:12Z</time></trkpt><trkpt lat="50.351501" lon="6.544895"><ele>448.11</ele><time>2011-05-30T08:30:24Z</time></trkpt><trkpt lat="50.351883" lon="6.545025"><ele>446.67</ele><time>2011-05-30T08:30:37Z</time></trkpt><trkpt lat="50.352432" lon="6.545361"><ele>446.19</ele><time>2011-05-30T08:30:53Z</time></trkpt><trkpt lat="50.353081" lon="6.545749"><ele>446.19</ele><time>2011-05-30T08:31:12Z</time></trkpt><trkpt lat="50.353573" lon="6.545968"><ele>447.15</ele><time>2011-05-30T08:31:27Z</time></trkpt><trkpt lat="50.353836" lon="6.545994"><ele>449.07</ele><time>2011-05-30T08:31:40Z</time></trkpt><trkpt lat="50.353935" lon="6.546011"><ele>450.03</ele><time>2011-05-30T08:31:47Z</time></trkpt><trkpt lat="50.353954" lon="6.546101"><ele>450.52</ele><time>2011-05-30T08:31:51Z</time></trkpt><trkpt lat="50.353909" lon="6.546278"><ele>451.48</ele><time>2011-05-30T08:31:59Z</time></trkpt><trkpt lat="50.353928" lon="6.546618"><ele>453.88</ele><time>2011-05-30T08:32:17Z</time></trkpt><trkpt lat="50.353886" lon="6.546904"><ele>456.28</ele><time>2011-05-30T08:32:32Z</time></trkpt><trkpt lat="50.353836" lon="6.547194"><ele>458.69</ele><time>2011-05-30T08:32:48Z</time></trkpt><trkpt lat="50.353718" lon="6.547522"><ele>460.13</ele><time>2011-05-30T08:33:06Z</time></trkpt><trkpt lat="50.353634" lon="6.548022"><ele>460.61</ele><time>2011-05-30T08:33:22Z</time></trkpt><trkpt lat="50.353550" lon="6.548804"><ele>459.65</ele><time>2011-05-30T08:33:39Z</time></trkpt><trkpt lat="50.353451" lon="6.549589"><ele>458.69</ele><time>2011-05-30T08:33:55Z</time></trkpt><trkpt lat="50.353294" lon="6.550644"><ele>455.80</ele><time>2011-05-30T08:34:12Z</time></trkpt><trkpt lat="50.353275" lon="6.550729"><ele>455.32</ele><time>2011-05-30T08:34:13Z</time></trkpt><trkpt lat="50.353134" lon="6.551548"><ele>451.96</ele><time>2011-05-30T08:34:21Z</time></trkpt><trkpt lat="50.353004" lon="6.553408"><ele>449.07</ele><time>2011-05-30T08:34:39Z</time></trkpt><trkpt lat="50.352989" lon="6.554642"><ele>447.15</ele><time>2011-05-30T08:34:55Z</time></trkpt><trkpt lat="50.352970" lon="6.554920"><ele>445.71</ele><time>2011-05-30T08:34:58Z</time></trkpt><trkpt lat="50.352951" lon="6.555135"><ele>444.75</ele><time>2011-05-30T08:35:00Z</time></trkpt><trkpt lat="50.352917" lon="6.556534"><ele>443.31</ele><time>2011-05-30T08:35:13Z</time></trkpt><trkpt lat="50.352913" lon="6.557925"><ele>443.79</ele><time>2011-05-30T08:35:31Z</time></trkpt><trkpt lat="50.352859" lon="6.558932"><ele>442.82</ele><time>2011-05-30T08:35:46Z</time></trkpt><trkpt lat="50.352596" lon="6.560455"><ele>441.86</ele><time>2011-05-30T08:36:07Z</time></trkpt><trkpt lat="50.352245" lon="6.561654"><ele>439.94</ele><time>2011-05-30T08:36:24Z</time></trkpt><trkpt lat="50.351894" lon="6.562811"><ele>439.94</ele><time>2011-05-30T08:36:41Z</time></trkpt><trkpt lat="50.351665" lon="6.563040"><ele>438.98</ele><time>2011-05-30T08:36:50Z</time></trkpt><trkpt lat="50.351429" lon="6.563375"><ele>439.94</ele><time>2011-05-30T08:37:02Z</time></trkpt><trkpt lat="50.351200" lon="6.564062"><ele>439.46</ele><time>2011-05-30T08:37:16Z</time></trkpt><trkpt lat="50.351078" lon="6.564593"><ele>439.94</ele><time>2011-05-30T08:37:28Z</time></trkpt><trkpt lat="50.350735" lon="6.564683"><ele>440.42</ele><time>2011-05-30T08:37:39Z</time></trkpt><trkpt lat="50.350330" lon="6.564943"><ele>439.46</ele><time>2011-05-30T08:37:51Z</time></trkpt><trkpt lat="50.349983" lon="6.565313"><ele>438.98</ele><time>2011-05-30T08:38:03Z</time></trkpt><trkpt lat="50.349842" lon="6.566339"><ele>437.54</ele><time>2011-05-30T08:38:19Z</time></trkpt><trkpt lat="50.349823" lon="6.566466"><ele>437.54</ele><time>2011-05-30T08:38:21Z</time></trkpt><trkpt lat="50.349697" lon="6.567187"><ele>438.02</ele><time>2011-05-30T08:38:33Z</time></trkpt><trkpt lat="50.349670" lon="6.567240"><ele>437.54</ele><time>2011-05-30T08:38:34Z</time></trkpt><trkpt lat="50.349644" lon="6.567287"><ele>438.02</ele><time>2011-05-30T08:38:35Z</time></trkpt><trkpt lat="50.349617" lon="6.567335"><ele>437.54</ele><time>2011-05-30T08:38:36Z</time></trkpt><trkpt lat="50.349590" lon="6.567385"><ele>437.54</ele><time>2011-05-30T08:38:37Z</time></trkpt><trkpt lat="50.349567" lon="6.567437"><ele>437.54</ele><time>2011-05-30T08:38:38Z</time></trkpt><trkpt lat="50.349361" lon="6.567711"><ele>437.54</ele><time>2011-05-30T08:38:45Z</time></trkpt><trkpt lat="50.349327" lon="6.567738"><ele>438.02</ele><time>2011-05-30T08:38:46Z</time></trkpt><trkpt lat="50.348961" lon="6.568034"><ele>437.54</ele><time>2011-05-30T08:38:56Z</time></trkpt><trkpt lat="50.348934" lon="6.568075"><ele>437.54</ele><time>2011-05-30T08:38:57Z</time></trkpt><trkpt lat="50.348904" lon="6.568122"><ele>437.06</ele><time>2011-05-30T08:38:58Z</time></trkpt><trkpt lat="50.348820" lon="6.568270"><ele>437.06</ele><time>2011-05-30T08:39:01Z</time></trkpt><trkpt lat="50.348564" lon="6.568995"><ele>438.02</ele><time>2011-05-30T08:39:14Z</time></trkpt><trkpt lat="50.348267" lon="6.569774"><ele>437.54</ele><time>2011-05-30T08:39:29Z</time></trkpt><trkpt lat="50.347931" lon="6.570004"><ele>438.50</ele><time>2011-05-30T08:39:41Z</time></trkpt><trkpt lat="50.347649" lon="6.570260"><ele>440.42</ele><time>2011-05-30T08:39:57Z</time></trkpt><trkpt lat="50.347469" lon="6.570645"><ele>442.82</ele><time>2011-05-30T08:40:13Z</time></trkpt><trkpt lat="50.347347" lon="6.571023"><ele>443.79</ele><time>2011-05-30T08:40:27Z</time></trkpt><trkpt lat="50.347332" lon="6.571028"><ele>443.79</ele><time>2011-05-30T08:40:28Z</time></trkpt><trkpt lat="50.347313" lon="6.571027"><ele>444.27</ele><time>2011-05-30T08:40:29Z</time></trkpt><trkpt lat="50.347298" lon="6.571019"><ele>443.79</ele><time>2011-05-30T08:40:30Z</time></trkpt><trkpt lat="50.347279" lon="6.571003"><ele>444.27</ele><time>2011-05-30T08:40:31Z</time></trkpt><trkpt lat="50.347267" lon="6.570982"><ele>444.27</ele><time>2011-05-30T08:40:32Z</time></trkpt><trkpt lat="50.347252" lon="6.570953"><ele>444.75</ele><time>2011-05-30T08:40:33Z</time></trkpt><trkpt lat="50.347237" lon="6.570926"><ele>444.27</ele><time>2011-05-30T08:40:34Z</time></trkpt><trkpt lat="50.347218" lon="6.570903"><ele>444.27</ele><time>2011-05-30T08:40:35Z</time></trkpt><trkpt lat="50.347198" lon="6.570892"><ele>444.75</ele><time>2011-05-30T08:40:36Z</time></trkpt><trkpt lat="50.347176" lon="6.570885"><ele>444.27</ele><time>2011-05-30T08:40:37Z</time></trkpt><trkpt lat="50.347023" lon="6.571158"><ele>444.27</ele><time>2011-05-30T08:40:48Z</time></trkpt><trkpt lat="50.347279" lon="6.571513"><ele>443.31</ele><time>2011-05-30T08:40:58Z</time></trkpt><trkpt lat="50.347626" lon="6.571920"><ele>443.31</ele><time>2011-05-30T08:41:10Z</time></trkpt><trkpt lat="50.348236" lon="6.572540"><ele>443.79</ele><time>2011-05-30T08:41:28Z</time></trkpt><trkpt lat="50.348644" lon="6.572973"><ele>444.27</ele><time>2011-05-30T08:41:41Z</time></trkpt><trkpt lat="50.348793" lon="6.573153"><ele>442.82</ele><time>2011-05-30T08:41:45Z</time></trkpt><trkpt lat="50.348824" lon="6.573213"><ele>442.34</ele><time>2011-05-30T08:41:46Z</time></trkpt><trkpt lat="50.348850" lon="6.573282"><ele>442.34</ele><time>2011-05-30T08:41:47Z</time></trkpt><trkpt lat="50.348869" lon="6.573358"><ele>442.34</ele><time>2011-05-30T08:41:48Z</time></trkpt><trkpt lat="50.348885" lon="6.573434"><ele>442.34</ele><time>2011-05-30T08:41:49Z</time></trkpt><trkpt lat="50.348904" lon="6.573504"><ele>441.86</ele><time>2011-05-30T08:41:50Z</time></trkpt><trkpt lat="50.348930" lon="6.573555"><ele>442.82</ele><time>2011-05-30T08:41:51Z</time></trkpt><trkpt lat="50.348961" lon="6.573577"><ele>442.82</ele><time>2011-05-30T08:41:52Z</time></trkpt><trkpt lat="50.348995" lon="6.573589"><ele>442.34</ele><time>2011-05-30T08:41:53Z</time></trkpt><trkpt lat="50.349033" lon="6.573590"><ele>442.34</ele><time>2011-05-30T08:41:54Z</time></trkpt><trkpt lat="50.349068" lon="6.573595"><ele>442.34</ele><time>2011-05-30T08:41:55Z</time></trkpt><trkpt lat="50.349102" lon="6.573605"><ele>442.82</ele><time>2011-05-30T08:41:56Z</time></trkpt><trkpt lat="50.349136" lon="6.573624"><ele>442.82</ele><time>2011-05-30T08:41:57Z</time></trkpt><trkpt lat="50.349533" lon="6.573706"><ele>443.79</ele><time>2011-05-30T08:42:11Z</time></trkpt><trkpt lat="50.350079" lon="6.573580"><ele>442.82</ele><time>2011-05-30T08:42:26Z</time></trkpt><trkpt lat="50.350491" lon="6.573588"><ele>443.31</ele><time>2011-05-30T08:42:38Z</time></trkpt><trkpt lat="50.350807" lon="6.573541"><ele>444.75</ele><time>2011-05-30T08:42:52Z</time></trkpt><trkpt lat="50.351089" lon="6.573478"><ele>446.67</ele><time>2011-05-30T08:43:07Z</time></trkpt><trkpt lat="50.351368" lon="6.573437"><ele>448.11</ele><time>2011-05-30T08:43:23Z</time></trkpt><trkpt lat="50.351688" lon="6.573437"><ele>448.59</ele><time>2011-05-30T08:43:36Z</time></trkpt><trkpt lat="50.352058" lon="6.573407"><ele>449.07</ele><time>2011-05-30T08:43:51Z</time></trkpt><trkpt lat="50.352444" lon="6.573429"><ele>450.52</ele><time>2011-05-30T08:44:08Z</time></trkpt><trkpt lat="50.352463" lon="6.573448"><ele>450.52</ele><time>2011-05-30T08:44:09Z</time></trkpt><trkpt lat="50.352486" lon="6.573459"><ele>451.00</ele><time>2011-05-30T08:44:10Z</time></trkpt><trkpt lat="50.352505" lon="6.573462"><ele>451.00</ele><time>2011-05-30T08:44:11Z</time></trkpt><trkpt lat="50.352524" lon="6.573461"><ele>451.00</ele><time>2011-05-30T08:44:12Z</time></trkpt><trkpt lat="50.352821" lon="6.573472"><ele>451.96</ele><time>2011-05-30T08:44:25Z</time></trkpt><trkpt lat="50.353180" lon="6.573475"><ele>452.92</ele><time>2011-05-30T08:44:39Z</time></trkpt><trkpt lat="50.353504" lon="6.573351"><ele>454.36</ele><time>2011-05-30T08:44:54Z</time></trkpt><trkpt lat="50.353828" lon="6.573235"><ele>456.28</ele><time>2011-05-30T08:45:11Z</time></trkpt><trkpt lat="50.354084" lon="6.573216"><ele>457.72</ele><time>2011-05-30T08:45:25Z</time></trkpt><trkpt lat="50.354370" lon="6.573194"><ele>459.65</ele><time>2011-05-30T08:45:42Z</time></trkpt><trkpt lat="50.354389" lon="6.573191"><ele>459.17</ele><time>2011-05-30T08:45:43Z</time></trkpt><trkpt lat="50.354404" lon="6.573186"><ele>458.69</ele><time>2011-05-30T08:45:44Z</time></trkpt><trkpt lat="50.354424" lon="6.573183"><ele>458.69</ele><time>2011-05-30T08:45:45Z</time></trkpt><trkpt lat="50.354549" lon="6.573156"><ele>459.65</ele><time>2011-05-30T08:45:59Z</time></trkpt><trkpt lat="50.354473" lon="6.573146"><ele>457.72</ele><time>2011-05-30T08:46:09Z</time></trkpt><trkpt lat="50.353958" lon="6.573270"><ele>453.88</ele><time>2011-05-30T08:46:16Z</time></trkpt><trkpt lat="50.353916" lon="6.573277"><ele>453.88</ele><time>2011-05-30T08:46:17Z</time></trkpt><trkpt lat="50.352940" lon="6.573517"><ele>451.00</ele><time>2011-05-30T08:46:26Z</time></trkpt><trkpt lat="50.352123" lon="6.573474"><ele>449.07</ele><time>2011-05-30T08:46:33Z</time></trkpt><trkpt lat="50.351067" lon="6.573526"><ele>446.19</ele><time>2011-05-30T08:46:47Z</time></trkpt><trkpt lat="50.350803" lon="6.573568"><ele>444.75</ele><time>2011-05-30T08:46:52Z</time></trkpt><trkpt lat="50.350422" lon="6.573603"><ele>443.31</ele><time>2011-05-30T08:47:01Z</time></trkpt><trkpt lat="50.350380" lon="6.573600"><ele>443.31</ele><time>2011-05-30T08:47:02Z</time></trkpt><trkpt lat="50.350010" lon="6.573627"><ele>443.31</ele><time>2011-05-30T08:47:13Z</time></trkpt><trkpt lat="50.349499" lon="6.573692"><ele>443.31</ele><time>2011-05-30T08:47:29Z</time></trkpt><trkpt lat="50.349277" lon="6.573700"><ele>443.31</ele><time>2011-05-30T08:47:36Z</time></trkpt><trkpt lat="50.349247" lon="6.573676"><ele>443.31</ele><time>2011-05-30T08:47:37Z</time></trkpt><trkpt lat="50.349220" lon="6.573642"><ele>443.31</ele><time>2011-05-30T08:47:38Z</time></trkpt><trkpt lat="50.348923" lon="6.573368"><ele>442.82</ele><time>2011-05-30T08:47:48Z</time></trkpt><trkpt lat="50.348896" lon="6.573318"><ele>442.34</ele><time>2011-05-30T08:47:49Z</time></trkpt><trkpt lat="50.348553" lon="6.572822"><ele>443.79</ele><time>2011-05-30T08:48:02Z</time></trkpt><trkpt lat="50.347908" lon="6.572123"><ele>442.82</ele><time>2011-05-30T08:48:24Z</time></trkpt><trkpt lat="50.347343" lon="6.571519"><ele>443.31</ele><time>2011-05-30T08:48:42Z</time></trkpt><trkpt lat="50.347111" lon="6.571342"><ele>443.79</ele><time>2011-05-30T08:48:54Z</time></trkpt><trkpt lat="50.347103" lon="6.571338"><ele>444.27</ele><time>2011-05-30T08:48:55Z</time></trkpt><trkpt lat="50.347099" lon="6.571331"><ele>444.27</ele><time>2011-05-30T08:48:56Z</time></trkpt><trkpt lat="50.346985" lon="6.571282"><ele>444.27</ele><time>2011-05-30T08:49:09Z</time></trkpt><trkpt lat="50.346970" lon="6.571295"><ele>444.27</ele><time>2011-05-30T08:49:10Z</time></trkpt><trkpt lat="50.346954" lon="6.571311"><ele>444.75</ele><time>2011-05-30T08:49:11Z</time></trkpt><trkpt lat="50.346802" lon="6.571658"><ele>444.27</ele><time>2011-05-30T08:49:25Z</time></trkpt><trkpt lat="50.346630" lon="6.572103"><ele>443.79</ele><time>2011-05-30T08:49:40Z</time></trkpt><trkpt lat="50.346527" lon="6.572441"><ele>442.34</ele><time>2011-05-30T08:49:49Z</time></trkpt><trkpt lat="50.346531" lon="6.572455"><ele>441.86</ele><time>2011-05-30T08:49:50Z</time></trkpt><trkpt lat="50.346817" lon="6.572724"><ele>439.94</ele><time>2011-05-30T08:50:01Z</time></trkpt><trkpt lat="50.347092" lon="6.572933"><ele>438.02</ele><time>2011-05-30T08:50:09Z</time></trkpt><trkpt lat="50.347126" lon="6.572958"><ele>437.54</ele><time>2011-05-30T08:50:10Z</time></trkpt><trkpt lat="50.347607" lon="6.573165"><ele>435.61</ele><time>2011-05-30T08:50:24Z</time></trkpt><trkpt lat="50.347652" lon="6.573225"><ele>436.10</ele><time>2011-05-30T08:50:28Z</time></trkpt><trkpt lat="50.347645" lon="6.573253"><ele>436.10</ele><time>2011-05-30T08:50:29Z</time></trkpt><trkpt lat="50.347637" lon="6.573288"><ele>436.58</ele><time>2011-05-30T08:50:30Z</time></trkpt><trkpt lat="50.347633" lon="6.573333"><ele>436.58</ele><time>2011-05-30T08:50:31Z</time></trkpt><trkpt lat="50.347637" lon="6.573366"><ele>436.58</ele><time>2011-05-30T08:50:32Z</time></trkpt><trkpt lat="50.347797" lon="6.573768"><ele>436.10</ele><time>2011-05-30T08:50:46Z</time></trkpt><trkpt lat="50.347710" lon="6.573996"><ele>436.10</ele><time>2011-05-30T08:50:50Z</time></trkpt><trkpt lat="50.347569" lon="6.574296"><ele>435.61</ele><time>2011-05-30T08:50:55Z</time></trkpt><trkpt lat="50.347397" lon="6.574691"><ele>435.61</ele><time>2011-05-30T08:51:02Z</time></trkpt><trkpt lat="50.346905" lon="6.575881"><ele>435.61</ele><time>2011-05-30T08:51:22Z</time></trkpt><trkpt lat="50.346394" lon="6.577066"><ele>435.61</ele><time>2011-05-30T08:51:42Z</time></trkpt><trkpt lat="50.345867" lon="6.578288"><ele>435.61</ele><time>2011-05-30T08:52:03Z</time></trkpt><trkpt lat="50.345451" lon="6.579173"><ele>435.61</ele><time>2011-05-30T08:52:20Z</time></trkpt><trkpt lat="50.345417" lon="6.579213"><ele>435.13</ele><time>2011-05-30T08:52:21Z</time></trkpt><trkpt lat="50.345387" lon="6.579263"><ele>435.13</ele><time>2011-05-30T08:52:22Z</time></trkpt><trkpt lat="50.345337" lon="6.579388"><ele>434.17</ele><time>2011-05-30T08:52:24Z</time></trkpt><trkpt lat="50.345310" lon="6.579467"><ele>433.69</ele><time>2011-05-30T08:52:25Z</time></trkpt><trkpt lat="50.345284" lon="6.579546"><ele>433.69</ele><time>2011-05-30T08:52:26Z</time></trkpt><trkpt lat="50.345253" lon="6.579613"><ele>433.69</ele><time>2011-05-30T08:52:27Z</time></trkpt><trkpt lat="50.345219" lon="6.579657"><ele>433.69</ele><time>2011-05-30T08:52:28Z</time></trkpt><trkpt lat="50.345181" lon="6.579681"><ele>434.17</ele><time>2011-05-30T08:52:29Z</time></trkpt><trkpt lat="50.345146" lon="6.579689"><ele>434.65</ele><time>2011-05-30T08:52:30Z</time></trkpt><trkpt lat="50.345108" lon="6.579688"><ele>434.65</ele><time>2011-05-30T08:52:31Z</time></trkpt><trkpt lat="50.345074" lon="6.579681"><ele>434.65</ele><time>2011-05-30T08:52:32Z</time></trkpt><trkpt lat="50.345043" lon="6.579682"><ele>434.65</ele><time>2011-05-30T08:52:33Z</time></trkpt><trkpt lat="50.345016" lon="6.579693"><ele>434.65</ele><time>2011-05-30T08:52:34Z</time></trkpt><trkpt lat="50.344994" lon="6.579714"><ele>434.65</ele><time>2011-05-30T08:52:35Z</time></trkpt><trkpt lat="50.344971" lon="6.579740"><ele>434.65</ele><time>2011-05-30T08:52:36Z</time></trkpt><trkpt lat="50.344944" lon="6.579772"><ele>434.17</ele><time>2011-05-30T08:52:37Z</time></trkpt><trkpt lat="50.344921" lon="6.579807"><ele>433.69</ele><time>2011-05-30T08:52:38Z</time></trkpt><trkpt lat="50.344898" lon="6.579846"><ele>434.17</ele><time>2011-05-30T08:52:39Z</time></trkpt><trkpt lat="50.344875" lon="6.579886"><ele>434.17</ele><time>2011-05-30T08:52:40Z</time></trkpt><trkpt lat="50.344425" lon="6.580627"><ele>433.69</ele><time>2011-05-30T08:52:56Z</time></trkpt><trkpt lat="50.344395" lon="6.580675"><ele>433.21</ele><time>2011-05-30T08:52:57Z</time></trkpt><trkpt lat="50.344368" lon="6.580729"><ele>433.21</ele><time>2011-05-30T08:52:58Z</time></trkpt><trkpt lat="50.343891" lon="6.581642"><ele>431.77</ele><time>2011-05-30T08:53:14Z</time></trkpt><trkpt lat="50.343361" lon="6.582609"><ele>431.29</ele><time>2011-05-30T08:53:32Z</time></trkpt><trkpt lat="50.342842" lon="6.583630"><ele>430.81</ele><time>2011-05-30T08:53:51Z</time></trkpt><trkpt lat="50.342239" lon="6.584581"><ele>430.81</ele><time>2011-05-30T08:54:12Z</time></trkpt><trkpt lat="50.342049" lon="6.584905"><ele>430.33</ele><time>2011-05-30T08:54:19Z</time></trkpt><trkpt lat="50.342018" lon="6.584946"><ele>430.81</ele><time>2011-05-30T08:54:20Z</time></trkpt><trkpt lat="50.341694" lon="6.585440"><ele>430.81</ele><time>2011-05-30T08:54:31Z</time></trkpt><trkpt lat="50.341305" lon="6.585983"><ele>430.81</ele><time>2011-05-30T08:54:44Z</time></trkpt><trkpt lat="50.341080" lon="6.586298"><ele>430.33</ele><time>2011-05-30T08:54:51Z</time></trkpt><trkpt lat="50.340649" lon="6.587020"><ele>431.29</ele><time>2011-05-30T08:55:07Z</time></trkpt><trkpt lat="50.340405" lon="6.587340"><ele>430.81</ele><time>2011-05-30T08:55:19Z</time></trkpt><trkpt lat="50.340389" lon="6.587354"><ele>430.33</ele><time>2011-05-30T08:55:20Z</time></trkpt><trkpt lat="50.340374" lon="6.587360"><ele>430.33</ele><time>2011-05-30T08:55:21Z</time></trkpt><trkpt lat="50.340328" lon="6.587348"><ele>430.33</ele><time>2011-05-30T08:55:36Z</time></trkpt><trkpt lat="50.340328" lon="6.587348"><ele>431.29</ele><time>2011-05-30T08:55:42Z</time></trkpt><trkpt lat="50.339863" lon="6.587764"><ele>430.81</ele><time>2011-05-30T09:05:27Z</time></trkpt><trkpt lat="50.339588" lon="6.587613"><ele>429.37</ele><time>2011-05-30T09:05:34Z</time></trkpt><trkpt lat="50.339447" lon="6.587665"><ele>431.29</ele><time>2011-05-30T09:05:38Z</time></trkpt><trkpt lat="50.339077" lon="6.588199"><ele>432.25</ele><time>2011-05-30T09:05:53Z</time></trkpt><trkpt lat="50.338882" lon="6.588956"><ele>432.25</ele><time>2011-05-30T09:06:06Z</time></trkpt><trkpt lat="50.338844" lon="6.589071"><ele>431.77</ele><time>2011-05-30T09:06:08Z</time></trkpt><trkpt lat="50.338795" lon="6.589178"><ele>431.29</ele><time>2011-05-30T09:06:10Z</time></trkpt><trkpt lat="50.338760" lon="6.589230"><ele>431.29</ele><time>2011-05-30T09:06:11Z</time></trkpt><trkpt lat="50.338726" lon="6.589282"><ele>431.29</ele><time>2011-05-30T09:06:12Z</time></trkpt><trkpt lat="50.338684" lon="6.589327"><ele>430.81</ele><time>2011-05-30T09:06:13Z</time></trkpt><trkpt lat="50.338642" lon="6.589368"><ele>430.81</ele><time>2011-05-30T09:06:14Z</time></trkpt><trkpt lat="50.338367" lon="6.589668"><ele>430.81</ele><time>2011-05-30T09:06:21Z</time></trkpt><trkpt lat="50.338341" lon="6.589725"><ele>430.33</ele><time>2011-05-30T09:06:22Z</time></trkpt><trkpt lat="50.338318" lon="6.589785"><ele>430.33</ele><time>2011-05-30T09:06:23Z</time></trkpt><trkpt lat="50.338306" lon="6.589848"><ele>430.33</ele><time>2011-05-30T09:06:24Z</time></trkpt><trkpt lat="50.338303" lon="6.589913"><ele>429.85</ele><time>2011-05-30T09:06:25Z</time></trkpt><trkpt lat="50.338306" lon="6.589983"><ele>429.85</ele><time>2011-05-30T09:06:26Z</time></trkpt><trkpt lat="50.338318" lon="6.590052"><ele>429.85</ele><time>2011-05-30T09:06:27Z</time></trkpt><trkpt lat="50.338329" lon="6.590117"><ele>430.33</ele><time>2011-05-30T09:06:28Z</time></trkpt><trkpt lat="50.338337" lon="6.590225"><ele>429.85</ele><time>2011-05-30T09:06:30Z</time></trkpt><trkpt lat="50.338322" lon="6.590261"><ele>430.33</ele><time>2011-05-30T09:06:31Z</time></trkpt><trkpt lat="50.337929" lon="6.590779"><ele>429.85</ele><time>2011-05-30T09:06:42Z</time></trkpt><trkpt lat="50.337543" lon="6.591255"><ele>429.85</ele><time>2011-05-30T09:06:53Z</time></trkpt><trkpt lat="50.337505" lon="6.591253"><ele>429.85</ele><time>2011-05-30T09:06:54Z</time></trkpt><trkpt lat="50.337109" lon="6.591213"><ele>431.77</ele><time>2011-05-30T09:07:08Z</time></trkpt><trkpt lat="50.336666" lon="6.591077"><ele>433.69</ele><time>2011-05-30T09:07:27Z</time></trkpt><trkpt lat="50.336567" lon="6.591015"><ele>434.65</ele><time>2011-05-30T09:07:43Z</time></trkpt><trkpt lat="50.336559" lon="6.590989"><ele>434.17</ele><time>2011-05-30T09:07:55Z</time></trkpt><trkpt lat="50.336548" lon="6.590972"><ele>434.17</ele><time>2011-05-30T09:07:56Z</time></trkpt><trkpt lat="50.336533" lon="6.590962"><ele>434.65</ele><time>2011-05-30T09:07:57Z</time></trkpt><trkpt lat="50.336514" lon="6.590960"><ele>434.17</ele><time>2011-05-30T09:07:58Z</time></trkpt><trkpt lat="50.336494" lon="6.590958"><ele>434.65</ele><time>2011-05-30T09:07:59Z</time></trkpt><trkpt lat="50.336475" lon="6.590957"><ele>434.17</ele><time>2011-05-30T09:08:00Z</time></trkpt><trkpt lat="50.336456" lon="6.590957"><ele>434.17</ele><time>2011-05-30T09:08:01Z</time></trkpt><trkpt lat="50.336437" lon="6.590953"><ele>434.17</ele><time>2011-05-30T09:08:02Z</time></trkpt><trkpt lat="50.336418" lon="6.590950"><ele>434.65</ele><time>2011-05-30T09:08:03Z</time></trkpt><trkpt lat="50.336182" lon="6.590701"><ele>436.10</ele><time>2011-05-30T09:08:18Z</time></trkpt><trkpt lat="50.335896" lon="6.590699"><ele>436.58</ele><time>2011-05-30T09:08:31Z</time></trkpt><trkpt lat="50.335686" lon="6.590957"><ele>438.02</ele><time>2011-05-30T09:08:45Z</time></trkpt><trkpt lat="50.335674" lon="6.590972"><ele>438.02</ele><time>2011-05-30T09:08:46Z</time></trkpt><trkpt lat="50.335667" lon="6.590984"><ele>438.02</ele><time>2011-05-30T09:08:47Z</time></trkpt><trkpt lat="50.335663" lon="6.591002"><ele>438.50</ele><time>2011-05-30T09:08:48Z</time></trkpt><trkpt lat="50.335667" lon="6.591024"><ele>438.50</ele><time>2011-05-30T09:08:49Z</time></trkpt><trkpt lat="50.335667" lon="6.591053"><ele>438.50</ele><time>2011-05-30T09:08:50Z</time></trkpt><trkpt lat="50.335667" lon="6.591081"><ele>438.02</ele><time>2011-05-30T09:08:51Z</time></trkpt><trkpt lat="50.335663" lon="6.591104"><ele>438.98</ele><time>2011-05-30T09:08:52Z</time></trkpt><trkpt lat="50.335651" lon="6.591125"><ele>438.98</ele><time>2011-05-30T09:08:53Z</time></trkpt><trkpt lat="50.335590" lon="6.591552"><ele>440.42</ele><time>2011-05-30T09:09:10Z</time></trkpt><trkpt lat="50.335564" lon="6.591812"><ele>439.94</ele><time>2011-05-30T09:09:20Z</time></trkpt><trkpt lat="50.335567" lon="6.591916"><ele>441.38</ele><time>2011-05-30T09:09:24Z</time></trkpt><trkpt lat="50.335545" lon="6.592176"><ele>443.79</ele><time>2011-05-30T09:09:35Z</time></trkpt><trkpt lat="50.335541" lon="6.592200"><ele>443.79</ele><time>2011-05-30T09:09:36Z</time></trkpt><trkpt lat="50.335541" lon="6.592224"><ele>443.79</ele><time>2011-05-30T09:09:37Z</time></trkpt><trkpt lat="50.335518" lon="6.592546"><ele>444.75</ele><time>2011-05-30T09:09:51Z</time></trkpt><trkpt lat="50.335472" lon="6.592951"><ele>446.67</ele><time>2011-05-30T09:10:08Z</time></trkpt><trkpt lat="50.335392" lon="6.593269"><ele>448.11</ele><time>2011-05-30T09:10:24Z</time></trkpt><trkpt lat="50.335186" lon="6.593728"><ele>449.07</ele><time>2011-05-30T09:10:43Z</time></trkpt><trkpt lat="50.334988" lon="6.594179"><ele>450.03</ele><time>2011-05-30T09:11:00Z</time></trkpt><trkpt lat="50.334759" lon="6.594698"><ele>449.55</ele><time>2011-05-30T09:11:15Z</time></trkpt><trkpt lat="50.334522" lon="6.595428"><ele>448.59</ele><time>2011-05-30T09:11:29Z</time></trkpt><trkpt lat="50.334358" lon="6.596396"><ele>450.03</ele><time>2011-05-30T09:11:45Z</time></trkpt><trkpt lat="50.334148" lon="6.596860"><ele>450.52</ele><time>2011-05-30T09:11:58Z</time></trkpt><trkpt lat="50.333794" lon="6.597334"><ele>452.44</ele><time>2011-05-30T09:12:16Z</time></trkpt><trkpt lat="50.333481" lon="6.597779"><ele>454.36</ele><time>2011-05-30T09:12:33Z</time></trkpt><trkpt lat="50.333332" lon="6.597965"><ele>452.44</ele><time>2011-05-30T09:12:40Z</time></trkpt><trkpt lat="50.332901" lon="6.598395"><ele>452.92</ele><time>2011-05-30T09:12:56Z</time></trkpt><trkpt lat="50.332504" lon="6.598687"><ele>450.03</ele><time>2011-05-30T09:13:04Z</time></trkpt><trkpt lat="50.331741" lon="6.599207"><ele>450.52</ele><time>2011-05-30T09:13:17Z</time></trkpt><trkpt lat="50.331612" lon="6.599260"><ele>450.52</ele><time>2011-05-30T09:13:20Z</time></trkpt><trkpt lat="50.331429" lon="6.599294"><ele>450.03</ele><time>2011-05-30T09:13:24Z</time></trkpt><trkpt lat="50.330612" lon="6.599245"><ele>447.63</ele><time>2011-05-30T09:13:40Z</time></trkpt><trkpt lat="50.329792" lon="6.599192"><ele>448.59</ele><time>2011-05-30T09:13:56Z</time></trkpt><trkpt lat="50.329189" lon="6.599151"><ele>449.55</ele><time>2011-05-30T09:14:15Z</time></trkpt><trkpt lat="50.328945" lon="6.599199"><ele>449.55</ele><time>2011-05-30T09:14:23Z</time></trkpt><trkpt lat="50.328922" lon="6.599247"><ele>449.07</ele><time>2011-05-30T09:14:24Z</time></trkpt><trkpt lat="50.328896" lon="6.599317"><ele>448.11</ele><time>2011-05-30T09:14:25Z</time></trkpt><trkpt lat="50.328876" lon="6.599406"><ele>447.63</ele><time>2011-05-30T09:14:26Z</time></trkpt><trkpt lat="50.328865" lon="6.599515"><ele>446.67</ele><time>2011-05-30T09:14:27Z</time></trkpt><trkpt lat="50.328846" lon="6.599639"><ele>445.71</ele><time>2011-05-30T09:14:28Z</time></trkpt><trkpt lat="50.328815" lon="6.599767"><ele>444.75</ele><time>2011-05-30T09:14:29Z</time></trkpt><trkpt lat="50.328785" lon="6.599900"><ele>444.27</ele><time>2011-05-30T09:14:30Z</time></trkpt><trkpt lat="50.328754" lon="6.600047"><ele>441.86</ele><time>2011-05-30T09:14:31Z</time></trkpt><trkpt lat="50.328732" lon="6.600201"><ele>441.86</ele><time>2011-05-30T09:14:32Z</time></trkpt><trkpt lat="50.328709" lon="6.600486"><ele>439.46</ele><time>2011-05-30T09:14:34Z</time></trkpt><trkpt lat="50.328705" lon="6.600625"><ele>438.50</ele><time>2011-05-30T09:14:35Z</time></trkpt><trkpt lat="50.328712" lon="6.601025"><ele>435.61</ele><time>2011-05-30T09:14:38Z</time></trkpt><trkpt lat="50.328724" lon="6.601398"><ele>432.25</ele><time>2011-05-30T09:14:41Z</time></trkpt><trkpt lat="50.328709" lon="6.601497"><ele>431.29</ele><time>2011-05-30T09:14:42Z</time></trkpt><trkpt lat="50.328690" lon="6.601582"><ele>431.29</ele><time>2011-05-30T09:14:43Z</time></trkpt><trkpt lat="50.328663" lon="6.601761"><ele>430.81</ele><time>2011-05-30T09:14:45Z</time></trkpt><trkpt lat="50.328659" lon="6.601868"><ele>429.85</ele><time>2011-05-30T09:14:46Z</time></trkpt><trkpt lat="50.328671" lon="6.601983"><ele>428.40</ele><time>2011-05-30T09:14:47Z</time></trkpt><trkpt lat="50.328686" lon="6.602103"><ele>427.44</ele><time>2011-05-30T09:14:48Z</time></trkpt><trkpt lat="50.328709" lon="6.602221"><ele>426.48</ele><time>2011-05-30T09:14:49Z</time></trkpt><trkpt lat="50.328720" lon="6.602330"><ele>426.00</ele><time>2011-05-30T09:14:50Z</time></trkpt><trkpt lat="50.328716" lon="6.602427"><ele>424.56</ele><time>2011-05-30T09:14:51Z</time></trkpt><trkpt lat="50.328693" lon="6.602506"><ele>424.08</ele><time>2011-05-30T09:14:52Z</time></trkpt><trkpt lat="50.328400" lon="6.603070"><ele>422.16</ele><time>2011-05-30T09:15:00Z</time></trkpt><trkpt lat="50.328365" lon="6.603139"><ele>422.64</ele><time>2011-05-30T09:15:01Z</time></trkpt><trkpt lat="50.328339" lon="6.603196"><ele>422.64</ele><time>2011-05-30T09:15:02Z</time></trkpt><trkpt lat="50.328136" lon="6.603536"><ele>426.00</ele><time>2011-05-30T09:15:13Z</time></trkpt><trkpt lat="50.328129" lon="6.603555"><ele>426.00</ele><time>2011-05-30T09:15:14Z</time></trkpt><trkpt lat="50.328117" lon="6.603573"><ele>426.00</ele><time>2011-05-30T09:15:15Z</time></trkpt><trkpt lat="50.328106" lon="6.603590"><ele>426.00</ele><time>2011-05-30T09:15:16Z</time></trkpt><trkpt lat="50.328098" lon="6.603609"><ele>426.96</ele><time>2011-05-30T09:15:17Z</time></trkpt><trkpt lat="50.328091" lon="6.603629"><ele>427.44</ele><time>2011-05-30T09:15:18Z</time></trkpt><trkpt lat="50.328087" lon="6.603649"><ele>427.44</ele><time>2011-05-30T09:15:19Z</time></trkpt><trkpt lat="50.328079" lon="6.603668"><ele>427.44</ele><time>2011-05-30T09:15:20Z</time></trkpt><trkpt lat="50.328075" lon="6.603685"><ele>427.92</ele><time>2011-05-30T09:15:21Z</time></trkpt><trkpt lat="50.328068" lon="6.603703"><ele>427.92</ele><time>2011-05-30T09:15:22Z</time></trkpt><trkpt lat="50.328060" lon="6.603719"><ele>427.92</ele><time>2011-05-30T09:15:23Z</time></trkpt><trkpt lat="50.328053" lon="6.603734"><ele>427.92</ele><time>2011-05-30T09:15:24Z</time></trkpt><trkpt lat="50.328049" lon="6.603752"><ele>428.40</ele><time>2011-05-30T09:15:25Z</time></trkpt><trkpt lat="50.328037" lon="6.603770"><ele>428.40</ele><time>2011-05-30T09:15:26Z</time></trkpt><trkpt lat="50.327919" lon="6.604000"><ele>430.81</ele><time>2011-05-30T09:15:41Z</time></trkpt><trkpt lat="50.327785" lon="6.604210"><ele>433.69</ele><time>2011-05-30T09:15:56Z</time></trkpt><trkpt lat="50.327686" lon="6.604444"><ele>436.10</ele><time>2011-05-30T09:16:09Z</time></trkpt><trkpt lat="50.327602" lon="6.604628"><ele>438.02</ele><time>2011-05-30T09:16:19Z</time></trkpt><trkpt lat="50.327534" lon="6.604857"><ele>438.50</ele><time>2011-05-30T09:16:31Z</time></trkpt><trkpt lat="50.327515" lon="6.604892"><ele>438.98</ele><time>2011-05-30T09:16:33Z</time></trkpt><trkpt lat="50.327427" lon="6.605143"><ele>439.94</ele><time>2011-05-30T09:16:46Z</time></trkpt><trkpt lat="50.327305" lon="6.605453"><ele>438.02</ele><time>2011-05-30T09:16:57Z</time></trkpt><trkpt lat="50.327084" lon="6.605995"><ele>437.54</ele><time>2011-05-30T09:17:09Z</time></trkpt><trkpt lat="50.326996" lon="6.606153"><ele>437.54</ele><time>2011-05-30T09:17:12Z</time></trkpt><trkpt lat="50.326546" lon="6.606966"><ele>435.13</ele><time>2011-05-30T09:17:26Z</time></trkpt><trkpt lat="50.326210" lon="6.607500"><ele>433.69</ele><time>2011-05-30T09:17:36Z</time></trkpt><trkpt lat="50.326088" lon="6.607650"><ele>433.21</ele><time>2011-05-30T09:17:39Z</time></trkpt><trkpt lat="50.325386" lon="6.608337"><ele>431.29</ele><time>2011-05-30T09:17:52Z</time></trkpt><trkpt lat="50.324955" lon="6.608950"><ele>428.40</ele><time>2011-05-30T09:18:00Z</time></trkpt><trkpt lat="50.324841" lon="6.609127"><ele>426.96</ele><time>2011-05-30T09:18:02Z</time></trkpt><trkpt lat="50.324772" lon="6.609206"><ele>426.00</ele><time>2011-05-30T09:18:03Z</time></trkpt><trkpt lat="50.324615" lon="6.609370"><ele>423.60</ele><time>2011-05-30T09:18:05Z</time></trkpt><trkpt lat="50.324535" lon="6.609472"><ele>422.16</ele><time>2011-05-30T09:18:06Z</time></trkpt><trkpt lat="50.324451" lon="6.609578"><ele>421.68</ele><time>2011-05-30T09:18:07Z</time></trkpt><trkpt lat="50.324364" lon="6.609673"><ele>420.23</ele><time>2011-05-30T09:18:08Z</time></trkpt><trkpt lat="50.324268" lon="6.609756"><ele>420.23</ele><time>2011-05-30T09:18:09Z</time></trkpt><trkpt lat="50.324169" lon="6.609826"><ele>418.79</ele><time>2011-05-30T09:18:10Z</time></trkpt><trkpt lat="50.324066" lon="6.609885"><ele>418.79</ele><time>2011-05-30T09:18:11Z</time></trkpt><trkpt lat="50.322872" lon="6.610579"><ele>417.35</ele><time>2011-05-30T09:18:24Z</time></trkpt><trkpt lat="50.321873" lon="6.611127"><ele>416.87</ele><time>2011-05-30T09:18:39Z</time></trkpt><trkpt lat="50.321468" lon="6.611420"><ele>416.87</ele><time>2011-05-30T09:18:47Z</time></trkpt><trkpt lat="50.321064" lon="6.611770"><ele>417.35</ele><time>2011-05-30T09:18:56Z</time></trkpt><trkpt lat="50.320469" lon="6.612371"><ele>416.87</ele><time>2011-05-30T09:19:10Z</time></trkpt><trkpt lat="50.320000" lon="6.612818"><ele>416.39</ele><time>2011-05-30T09:19:22Z</time></trkpt><trkpt lat="50.319443" lon="6.613365"><ele>416.39</ele><time>2011-05-30T09:19:37Z</time></trkpt><trkpt lat="50.318775" lon="6.614014"><ele>416.39</ele><time>2011-05-30T09:19:56Z</time></trkpt><trkpt lat="50.318359" lon="6.614431"><ele>416.39</ele><time>2011-05-30T09:20:10Z</time></trkpt><trkpt lat="50.318008" lon="6.614857"><ele>416.87</ele><time>2011-05-30T09:20:22Z</time></trkpt><trkpt lat="50.317600" lon="6.615246"><ele>417.35</ele><time>2011-05-30T09:20:37Z</time></trkpt><trkpt lat="50.317242" lon="6.615548"><ele>419.75</ele><time>2011-05-30T09:20:56Z</time></trkpt><trkpt lat="50.317001" lon="6.615965"><ele>421.68</ele><time>2011-05-30T09:21:14Z</time></trkpt><trkpt lat="50.317142" lon="6.616423"><ele>423.12</ele><time>2011-05-30T09:21:29Z</time></trkpt><trkpt lat="50.317379" lon="6.616822"><ele>422.16</ele><time>2011-05-30T09:21:40Z</time></trkpt><trkpt lat="50.317417" lon="6.616843"><ele>421.68</ele><time>2011-05-30T09:21:41Z</time></trkpt><trkpt lat="50.317459" lon="6.616858"><ele>422.16</ele><time>2011-05-30T09:21:42Z</time></trkpt><trkpt lat="50.317505" lon="6.616862"><ele>421.68</ele><time>2011-05-30T09:21:43Z</time></trkpt><trkpt lat="50.317551" lon="6.616858"><ele>421.19</ele><time>2011-05-30T09:21:44Z</time></trkpt><trkpt lat="50.317600" lon="6.616839"><ele>420.71</ele><time>2011-05-30T09:21:45Z</time></trkpt><trkpt lat="50.317650" lon="6.616806"><ele>420.71</ele><time>2011-05-30T09:21:46Z</time></trkpt><trkpt lat="50.317696" lon="6.616765"><ele>420.71</ele><time>2011-05-30T09:21:47Z</time></trkpt><trkpt lat="50.317749" lon="6.616724"><ele>420.23</ele><time>2011-05-30T09:21:48Z</time></trkpt><trkpt lat="50.318115" lon="6.616441"><ele>418.31</ele><time>2011-05-30T09:21:54Z</time></trkpt><trkpt lat="50.318188" lon="6.616411"><ele>417.35</ele><time>2011-05-30T09:21:55Z</time></trkpt><trkpt lat="50.318264" lon="6.616393"><ele>417.35</ele><time>2011-05-30T09:21:56Z</time></trkpt><trkpt lat="50.318340" lon="6.616388"><ele>416.87</ele><time>2011-05-30T09:21:57Z</time></trkpt><trkpt lat="50.318420" lon="6.616395"><ele>416.87</ele><time>2011-05-30T09:21:58Z</time></trkpt><trkpt lat="50.318501" lon="6.616416"><ele>417.35</ele><time>2011-05-30T09:21:59Z</time></trkpt><trkpt lat="50.318577" lon="6.616458"><ele>416.87</ele><time>2011-05-30T09:22:00Z</time></trkpt><trkpt lat="50.318649" lon="6.616514"><ele>416.87</ele><time>2011-05-30T09:22:01Z</time></trkpt><trkpt lat="50.318718" lon="6.616580"><ele>416.39</ele><time>2011-05-30T09:22:02Z</time></trkpt><trkpt lat="50.318779" lon="6.616653"><ele>415.91</ele><time>2011-05-30T09:22:03Z</time></trkpt><trkpt lat="50.318836" lon="6.616734"><ele>415.91</ele><time>2011-05-30T09:22:04Z</time></trkpt><trkpt lat="50.318890" lon="6.616823"><ele>415.91</ele><time>2011-05-30T09:22:05Z</time></trkpt><trkpt lat="50.319546" lon="6.617745"><ele>414.47</ele><time>2011-05-30T09:22:18Z</time></trkpt><trkpt lat="50.319584" lon="6.617804"><ele>415.91</ele><time>2011-05-30T09:22:19Z</time></trkpt><trkpt lat="50.319618" lon="6.617870"><ele>414.95</ele><time>2011-05-30T09:22:20Z</time></trkpt><trkpt lat="50.320168" lon="6.618987"><ele>415.91</ele><time>2011-05-30T09:22:38Z</time></trkpt><trkpt lat="50.320198" lon="6.619036"><ele>416.39</ele><time>2011-05-30T09:22:39Z</time></trkpt><trkpt lat="50.320229" lon="6.619083"><ele>416.39</ele><time>2011-05-30T09:22:40Z</time></trkpt><trkpt lat="50.320255" lon="6.619138"><ele>416.39</ele><time>2011-05-30T09:22:41Z</time></trkpt><trkpt lat="50.320282" lon="6.619195"><ele>416.39</ele><time>2011-05-30T09:22:42Z</time></trkpt><trkpt lat="50.320305" lon="6.619254"><ele>416.39</ele><time>2011-05-30T09:22:43Z</time></trkpt><trkpt lat="50.320332" lon="6.619308"><ele>416.39</ele><time>2011-05-30T09:22:44Z</time></trkpt><trkpt lat="50.320362" lon="6.619353"><ele>416.39</ele><time>2011-05-30T09:22:45Z</time></trkpt><trkpt lat="50.320389" lon="6.619393"><ele>416.39</ele><time>2011-05-30T09:22:46Z</time></trkpt><trkpt lat="50.320400" lon="6.619433"><ele>416.39</ele><time>2011-05-30T09:22:47Z</time></trkpt><trkpt lat="50.320404" lon="6.619465"><ele>416.39</ele><time>2011-05-30T09:22:48Z</time></trkpt><trkpt lat="50.320396" lon="6.619519"><ele>416.39</ele><time>2011-05-30T09:22:50Z</time></trkpt><trkpt lat="50.320381" lon="6.619548"><ele>416.39</ele><time>2011-05-30T09:22:51Z</time></trkpt><trkpt lat="50.320232" lon="6.619732"><ele>415.91</ele><time>2011-05-30T09:22:56Z</time></trkpt><trkpt lat="50.319592" lon="6.620539"><ele>414.95</ele><time>2011-05-30T09:23:11Z</time></trkpt><trkpt lat="50.318958" lon="6.621342"><ele>414.47</ele><time>2011-05-30T09:23:29Z</time></trkpt><trkpt lat="50.318890" lon="6.621437"><ele>414.47</ele><time>2011-05-30T09:23:31Z</time></trkpt><trkpt lat="50.318214" lon="6.622334"><ele>413.98</ele><time>2011-05-30T09:23:49Z</time></trkpt><trkpt lat="50.317402" lon="6.623391"><ele>413.50</ele><time>2011-05-30T09:24:10Z</time></trkpt><trkpt lat="50.316727" lon="6.624213"><ele>413.02</ele><time>2011-05-30T09:24:29Z</time></trkpt><trkpt lat="50.316143" lon="6.624588"><ele>412.54</ele><time>2011-05-30T09:24:43Z</time></trkpt><trkpt lat="50.316059" lon="6.624632"><ele>412.54</ele><time>2011-05-30T09:24:45Z</time></trkpt><trkpt lat="50.315140" lon="6.625220"><ele>410.62</ele><time>2011-05-30T09:25:07Z</time></trkpt><trkpt lat="50.314388" lon="6.625692"><ele>410.62</ele><time>2011-05-30T09:25:25Z</time></trkpt><trkpt lat="50.314018" lon="6.625916"><ele>410.62</ele><time>2011-05-30T09:25:34Z</time></trkpt><trkpt lat="50.313168" lon="6.626446"><ele>409.66</ele><time>2011-05-30T09:25:55Z</time></trkpt><trkpt lat="50.312283" lon="6.627009"><ele>409.66</ele><time>2011-05-30T09:26:16Z</time></trkpt><trkpt lat="50.312241" lon="6.627029"><ele>409.66</ele><time>2011-05-30T09:26:17Z</time></trkpt><trkpt lat="50.312199" lon="6.627047"><ele>409.18</ele><time>2011-05-30T09:26:18Z</time></trkpt><trkpt lat="50.312149" lon="6.627058"><ele>409.18</ele><time>2011-05-30T09:26:19Z</time></trkpt><trkpt lat="50.312103" lon="6.627066"><ele>408.70</ele><time>2011-05-30T09:26:20Z</time></trkpt><trkpt lat="50.312054" lon="6.627068"><ele>408.22</ele><time>2011-05-30T09:26:21Z</time></trkpt><trkpt lat="50.312008" lon="6.627067"><ele>408.70</ele><time>2011-05-30T09:26:22Z</time></trkpt><trkpt lat="50.311787" lon="6.627078"><ele>407.74</ele><time>2011-05-30T09:26:27Z</time></trkpt><trkpt lat="50.311752" lon="6.627097"><ele>408.22</ele><time>2011-05-30T09:26:28Z</time></trkpt><trkpt lat="50.311733" lon="6.627132"><ele>408.22</ele><time>2011-05-30T09:26:29Z</time></trkpt><trkpt lat="50.311718" lon="6.627169"><ele>408.22</ele><time>2011-05-30T09:26:30Z</time></trkpt><trkpt lat="50.311699" lon="6.627202"><ele>408.70</ele><time>2011-05-30T09:26:31Z</time></trkpt><trkpt lat="50.311695" lon="6.627238"><ele>408.70</ele><time>2011-05-30T09:26:32Z</time></trkpt><trkpt lat="50.311691" lon="6.627285"><ele>409.18</ele><time>2011-05-30T09:26:33Z</time></trkpt><trkpt lat="50.311699" lon="6.627343"><ele>409.18</ele><time>2011-05-30T09:26:34Z</time></trkpt><trkpt lat="50.311703" lon="6.627394"><ele>409.18</ele><time>2011-05-30T09:26:35Z</time></trkpt><trkpt lat="50.311718" lon="6.627447"><ele>409.18</ele><time>2011-05-30T09:26:36Z</time></trkpt><trkpt lat="50.311733" lon="6.627492"><ele>408.70</ele><time>2011-05-30T09:26:37Z</time></trkpt><trkpt lat="50.311756" lon="6.628340"><ele>409.18</ele><time>2011-05-30T09:26:53Z</time></trkpt><trkpt lat="50.311737" lon="6.629167"><ele>408.70</ele><time>2011-05-30T09:27:06Z</time></trkpt><trkpt lat="50.311722" lon="6.629227"><ele>408.70</ele><time>2011-05-30T09:27:07Z</time></trkpt><trkpt lat="50.311699" lon="6.629282"><ele>408.70</ele><time>2011-05-30T09:27:08Z</time></trkpt><trkpt lat="50.311672" lon="6.629327"><ele>408.70</ele><time>2011-05-30T09:27:09Z</time></trkpt><trkpt lat="50.311638" lon="6.629372"><ele>408.70</ele><time>2011-05-30T09:27:10Z</time></trkpt><trkpt lat="50.311592" lon="6.629401"><ele>408.22</ele><time>2011-05-30T09:27:11Z</time></trkpt><trkpt lat="50.311546" lon="6.629433"><ele>408.22</ele><time>2011-05-30T09:27:12Z</time></trkpt><trkpt lat="50.310757" lon="6.630130"><ele>407.74</ele><time>2011-05-30T09:27:32Z</time></trkpt><trkpt lat="50.310452" lon="6.630413"><ele>407.74</ele><time>2011-05-30T09:27:40Z</time></trkpt><trkpt lat="50.310413" lon="6.630455"><ele>407.26</ele><time>2011-05-30T09:27:41Z</time></trkpt><trkpt lat="50.310379" lon="6.630491"><ele>407.26</ele><time>2011-05-30T09:27:42Z</time></trkpt><trkpt lat="50.309601" lon="6.631180"><ele>406.29</ele><time>2011-05-30T09:28:03Z</time></trkpt><trkpt lat="50.308849" lon="6.631853"><ele>406.29</ele><time>2011-05-30T09:28:22Z</time></trkpt><trkpt lat="50.308044" lon="6.632574"><ele>406.29</ele><time>2011-05-30T09:28:43Z</time></trkpt><trkpt lat="50.307461" lon="6.633142"><ele>405.33</ele><time>2011-05-30T09:28:58Z</time></trkpt><trkpt lat="50.307430" lon="6.633193"><ele>405.81</ele><time>2011-05-30T09:28:59Z</time></trkpt><trkpt lat="50.307407" lon="6.633251"><ele>405.81</ele><time>2011-05-30T09:29:00Z</time></trkpt><trkpt lat="50.307396" lon="6.633316"><ele>405.81</ele><time>2011-05-30T09:29:01Z</time></trkpt><trkpt lat="50.307392" lon="6.633383"><ele>405.81</ele><time>2011-05-30T09:29:02Z</time></trkpt><trkpt lat="50.307392" lon="6.633452"><ele>405.81</ele><time>2011-05-30T09:29:03Z</time></trkpt><trkpt lat="50.307381" lon="6.634846"><ele>406.29</ele><time>2011-05-30T09:29:23Z</time></trkpt><trkpt lat="50.307449" lon="6.635833"><ele>407.74</ele><time>2011-05-30T09:29:41Z</time></trkpt><trkpt lat="50.307304" lon="6.636181"><ele>407.74</ele><time>2011-05-30T09:29:51Z</time></trkpt><trkpt lat="50.306683" lon="6.636501"><ele>407.74</ele><time>2011-05-30T09:30:10Z</time></trkpt><trkpt lat="50.305988" lon="6.636769"><ele>408.22</ele><time>2011-05-30T09:30:30Z</time></trkpt><trkpt lat="50.305332" lon="6.637042"><ele>409.18</ele><time>2011-05-30T09:30:50Z</time></trkpt><trkpt lat="50.304932" lon="6.637426"><ele>410.14</ele><time>2011-05-30T09:31:05Z</time></trkpt><trkpt lat="50.304661" lon="6.637743"><ele>411.10</ele><time>2011-05-30T09:31:18Z</time></trkpt><trkpt lat="50.304428" lon="6.637617"><ele>410.62</ele><time>2011-05-30T09:31:27Z</time></trkpt><trkpt lat="50.303902" lon="6.637137"><ele>408.70</ele><time>2011-05-30T09:31:42Z</time></trkpt><trkpt lat="50.303482" lon="6.637087"><ele>406.29</ele><time>2011-05-30T09:31:54Z</time></trkpt><trkpt lat="50.303005" lon="6.637075"><ele>407.74</ele><time>2011-05-30T09:32:07Z</time></trkpt><trkpt lat="50.302738" lon="6.637186"><ele>409.18</ele><time>2011-05-30T09:32:21Z</time></trkpt><trkpt lat="50.302505" lon="6.637221"><ele>410.14</ele><time>2011-05-30T09:32:36Z</time></trkpt><trkpt lat="50.302479" lon="6.637239"><ele>410.62</ele><time>2011-05-30T09:32:38Z</time></trkpt><trkpt lat="50.302467" lon="6.637242"><ele>410.62</ele><time>2011-05-30T09:32:39Z</time></trkpt><trkpt lat="50.302460" lon="6.637247"><ele>411.10</ele><time>2011-05-30T09:32:40Z</time></trkpt><trkpt lat="50.302444" lon="6.637248"><ele>410.62</ele><time>2011-05-30T09:32:41Z</time></trkpt><trkpt lat="50.302433" lon="6.637248"><ele>410.62</ele><time>2011-05-30T09:32:42Z</time></trkpt><trkpt lat="50.302204" lon="6.637206"><ele>412.06</ele><time>2011-05-30T09:32:57Z</time></trkpt><trkpt lat="50.301998" lon="6.637208"><ele>413.50</ele><time>2011-05-30T09:33:11Z</time></trkpt><trkpt lat="50.301781" lon="6.637218"><ele>413.98</ele><time>2011-05-30T09:33:24Z</time></trkpt><trkpt lat="50.301540" lon="6.637227"><ele>415.91</ele><time>2011-05-30T09:33:38Z</time></trkpt><trkpt lat="50.301266" lon="6.637233"><ele>416.39</ele><time>2011-05-30T09:33:55Z</time></trkpt><trkpt lat="50.301075" lon="6.637253"><ele>416.87</ele><time>2011-05-30T09:34:09Z</time></trkpt><trkpt lat="50.300961" lon="6.637303"><ele>417.35</ele><time>2011-05-30T09:34:23Z</time></trkpt><trkpt lat="50.300728" lon="6.637431"><ele>416.39</ele><time>2011-05-30T09:34:35Z</time></trkpt><trkpt lat="50.300232" lon="6.637737"><ele>413.50</ele><time>2011-05-30T09:34:47Z</time></trkpt><trkpt lat="50.299889" lon="6.637804"><ele>411.58</ele><time>2011-05-30T09:34:53Z</time></trkpt><trkpt lat="50.299828" lon="6.637794"><ele>412.06</ele><time>2011-05-30T09:34:54Z</time></trkpt><trkpt lat="50.299610" lon="6.637708"><ele>410.14</ele><time>2011-05-30T09:34:57Z</time></trkpt><trkpt lat="50.299290" lon="6.637572"><ele>408.22</ele><time>2011-05-30T09:35:01Z</time></trkpt><trkpt lat="50.299030" lon="6.637462"><ele>406.77</ele><time>2011-05-30T09:35:04Z</time></trkpt><trkpt lat="50.298946" lon="6.637453"><ele>406.29</ele><time>2011-05-30T09:35:05Z</time></trkpt><trkpt lat="50.298710" lon="6.637473"><ele>406.29</ele><time>2011-05-30T09:35:08Z</time></trkpt><trkpt lat="50.298637" lon="6.637497"><ele>406.29</ele><time>2011-05-30T09:35:09Z</time></trkpt><trkpt lat="50.298519" lon="6.637544"><ele>407.26</ele><time>2011-05-30T09:35:11Z</time></trkpt><trkpt lat="50.297970" lon="6.637783"><ele>409.66</ele><time>2011-05-30T09:35:24Z</time></trkpt><trkpt lat="50.297558" lon="6.637884"><ele>410.14</ele><time>2011-05-30T09:35:38Z</time></trkpt><trkpt lat="50.297543" lon="6.637891"><ele>409.66</ele><time>2011-05-30T09:35:39Z</time></trkpt><trkpt lat="50.297203" lon="6.637974"><ele>411.10</ele><time>2011-05-30T09:35:52Z</time></trkpt><trkpt lat="50.296928" lon="6.638019"><ele>410.62</ele><time>2011-05-30T09:35:59Z</time></trkpt><trkpt lat="50.296753" lon="6.638021"><ele>410.14</ele><time>2011-05-30T09:36:03Z</time></trkpt><trkpt lat="50.296707" lon="6.638029"><ele>410.14</ele><time>2011-05-30T09:36:04Z</time></trkpt><trkpt lat="50.296528" lon="6.638069"><ele>410.14</ele><time>2011-05-30T09:36:08Z</time></trkpt><trkpt lat="50.296486" lon="6.638083"><ele>410.14</ele><time>2011-05-30T09:36:09Z</time></trkpt><trkpt lat="50.295849" lon="6.638370"><ele>410.14</ele><time>2011-05-30T09:36:24Z</time></trkpt><trkpt lat="50.295372" lon="6.638776"><ele>410.62</ele><time>2011-05-30T09:36:38Z</time></trkpt><trkpt lat="50.295204" lon="6.638958"><ele>410.62</ele><time>2011-05-30T09:36:43Z</time></trkpt><trkpt lat="50.294601" lon="6.639451"><ele>407.74</ele><time>2011-05-30T09:36:55Z</time></trkpt><trkpt lat="50.293713" lon="6.639887"><ele>407.26</ele><time>2011-05-30T09:37:08Z</time></trkpt><trkpt lat="50.293282" lon="6.640036"><ele>409.66</ele><time>2011-05-30T09:37:19Z</time></trkpt><trkpt lat="50.292969" lon="6.640150"><ele>411.58</ele><time>2011-05-30T09:37:34Z</time></trkpt><trkpt lat="50.292908" lon="6.640176"><ele>412.54</ele><time>2011-05-30T09:37:37Z</time></trkpt><trkpt lat="50.292656" lon="6.640271"><ele>413.50</ele><time>2011-05-30T09:37:51Z</time></trkpt><trkpt lat="50.292427" lon="6.640350"><ele>414.47</ele><time>2011-05-30T09:38:05Z</time></trkpt><trkpt lat="50.292221" lon="6.640414"><ele>417.35</ele><time>2011-05-30T09:38:19Z</time></trkpt><trkpt lat="50.291931" lon="6.640511"><ele>418.31</ele><time>2011-05-30T09:38:39Z</time></trkpt><trkpt lat="50.291634" lon="6.640620"><ele>419.27</ele><time>2011-05-30T09:38:55Z</time></trkpt><trkpt lat="50.291210" lon="6.640777"><ele>418.31</ele><time>2011-05-30T09:39:09Z</time></trkpt><trkpt lat="50.290802" lon="6.641419"><ele>417.83</ele><time>2011-05-30T09:39:25Z</time></trkpt><trkpt lat="50.290367" lon="6.642278"><ele>418.31</ele><time>2011-05-30T09:39:43Z</time></trkpt><trkpt lat="50.289986" lon="6.643005"><ele>420.23</ele><time>2011-05-30T09:40:00Z</time></trkpt><trkpt lat="50.289772" lon="6.643661"><ele>419.27</ele><time>2011-05-30T09:40:14Z</time></trkpt><trkpt lat="50.289886" lon="6.644176"><ele>416.39</ele><time>2011-05-30T09:40:21Z</time></trkpt><trkpt lat="50.289921" lon="6.644262"><ele>415.91</ele><time>2011-05-30T09:40:22Z</time></trkpt><trkpt lat="50.290066" lon="6.644964"><ele>412.54</ele><time>2011-05-30T09:40:27Z</time></trkpt><trkpt lat="50.290089" lon="6.645112"><ele>412.54</ele><time>2011-05-30T09:40:28Z</time></trkpt><trkpt lat="50.290100" lon="6.645247"><ele>412.06</ele><time>2011-05-30T09:40:29Z</time></trkpt><trkpt lat="50.290085" lon="6.645360"><ele>412.06</ele><time>2011-05-30T09:40:30Z</time></trkpt><trkpt lat="50.290043" lon="6.645455"><ele>411.58</ele><time>2011-05-30T09:40:31Z</time></trkpt><trkpt lat="50.289986" lon="6.645525"><ele>411.58</ele><time>2011-05-30T09:40:32Z</time></trkpt><trkpt lat="50.289921" lon="6.645583"><ele>411.58</ele><time>2011-05-30T09:40:33Z</time></trkpt><trkpt lat="50.289852" lon="6.645638"><ele>411.10</ele><time>2011-05-30T09:40:34Z</time></trkpt><trkpt lat="50.289730" lon="6.645751"><ele>411.10</ele><time>2011-05-30T09:40:36Z</time></trkpt><trkpt lat="50.289680" lon="6.645827"><ele>411.58</ele><time>2011-05-30T09:40:37Z</time></trkpt><trkpt lat="50.289600" lon="6.645973"><ele>413.02</ele><time>2011-05-30T09:40:39Z</time></trkpt><trkpt lat="50.289574" lon="6.646023"><ele>413.98</ele><time>2011-05-30T09:40:40Z</time></trkpt><trkpt lat="50.289551" lon="6.646056"><ele>414.47</ele><time>2011-05-30T09:40:41Z</time></trkpt><trkpt lat="50.289532" lon="6.646070"><ele>414.95</ele><time>2011-05-30T09:40:42Z</time></trkpt><trkpt lat="50.289513" lon="6.646070"><ele>415.43</ele><time>2011-05-30T09:40:43Z</time></trkpt><trkpt lat="50.289497" lon="6.646067"><ele>415.91</ele><time>2011-05-30T09:40:44Z</time></trkpt><trkpt lat="50.289421" lon="6.646024"><ele>417.35</ele><time>2011-05-30T09:40:49Z</time></trkpt><trkpt lat="50.289181" lon="6.646017"><ele>419.75</ele><time>2011-05-30T09:41:05Z</time></trkpt><trkpt lat="50.289196" lon="6.646435"><ele>420.71</ele><time>2011-05-30T09:41:21Z</time></trkpt><trkpt lat="50.289227" lon="6.646899"><ele>422.64</ele><time>2011-05-30T09:41:36Z</time></trkpt><trkpt lat="50.289207" lon="6.646926"><ele>422.16</ele><time>2011-05-30T09:41:37Z</time></trkpt><trkpt lat="50.289188" lon="6.646952"><ele>422.16</ele><time>2011-05-30T09:41:38Z</time></trkpt><trkpt lat="50.289169" lon="6.646967"><ele>422.16</ele><time>2011-05-30T09:41:39Z</time></trkpt><trkpt lat="50.289146" lon="6.646979"><ele>422.16</ele><time>2011-05-30T09:41:40Z</time></trkpt><trkpt lat="50.288719" lon="6.647008"><ele>423.12</ele><time>2011-05-30T09:41:57Z</time></trkpt><trkpt lat="50.288216" lon="6.647017"><ele>421.19</ele><time>2011-05-30T09:42:09Z</time></trkpt><trkpt lat="50.287312" lon="6.647048"><ele>420.23</ele><time>2011-05-30T09:42:26Z</time></trkpt><trkpt lat="50.286751" lon="6.647034"><ele>421.68</ele><time>2011-05-30T09:42:41Z</time></trkpt><trkpt lat="50.286114" lon="6.647049"><ele>421.19</ele><time>2011-05-30T09:42:59Z</time></trkpt><trkpt lat="50.285378" lon="6.647047"><ele>421.68</ele><time>2011-05-30T09:43:21Z</time></trkpt><trkpt lat="50.284672" lon="6.647057"><ele>422.16</ele><time>2011-05-30T09:43:42Z</time></trkpt><trkpt lat="50.283806" lon="6.647093"><ele>420.71</ele><time>2011-05-30T09:44:04Z</time></trkpt><trkpt lat="50.282978" lon="6.647142"><ele>418.79</ele><time>2011-05-30T09:44:21Z</time></trkpt><trkpt lat="50.281853" lon="6.647189"><ele>415.91</ele><time>2011-05-30T09:44:41Z</time></trkpt><trkpt lat="50.281368" lon="6.647236"><ele>413.98</ele><time>2011-05-30T09:44:49Z</time></trkpt><trkpt lat="50.281303" lon="6.647270"><ele>413.50</ele><time>2011-05-30T09:44:50Z</time></trkpt><trkpt lat="50.281235" lon="6.647314"><ele>413.50</ele><time>2011-05-30T09:44:51Z</time></trkpt><trkpt lat="50.280781" lon="6.647634"><ele>409.66</ele><time>2011-05-30T09:44:57Z</time></trkpt><trkpt lat="50.280033" lon="6.647849"><ele>410.62</ele><time>2011-05-30T09:45:06Z</time></trkpt><trkpt lat="50.279552" lon="6.647843"><ele>413.02</ele><time>2011-05-30T09:45:17Z</time></trkpt><trkpt lat="50.279240" lon="6.647916"><ele>414.47</ele><time>2011-05-30T09:45:31Z</time></trkpt><trkpt lat="50.278908" lon="6.648198"><ele>415.43</ele><time>2011-05-30T09:45:48Z</time></trkpt><trkpt lat="50.278515" lon="6.648520"><ele>415.91</ele><time>2011-05-30T09:46:06Z</time></trkpt><trkpt lat="50.278008" lon="6.648953"><ele>415.91</ele><time>2011-05-30T09:46:25Z</time></trkpt><trkpt lat="50.277676" lon="6.649194"><ele>415.43</ele><time>2011-05-30T09:46:38Z</time></trkpt><trkpt lat="50.277130" lon="6.649643"><ele>415.43</ele><time>2011-05-30T09:46:55Z</time></trkpt><trkpt lat="50.276951" lon="6.650026"><ele>415.91</ele><time>2011-05-30T09:47:05Z</time></trkpt><trkpt lat="50.276787" lon="6.650749"><ele>416.87</ele><time>2011-05-30T09:47:22Z</time></trkpt><trkpt lat="50.276562" lon="6.651656"><ele>418.31</ele><time>2011-05-30T09:47:43Z</time></trkpt><trkpt lat="50.276371" lon="6.652449"><ele>418.79</ele><time>2011-05-30T09:48:01Z</time></trkpt><trkpt lat="50.276146" lon="6.653045"><ele>419.75</ele><time>2011-05-30T09:48:16Z</time></trkpt><trkpt lat="50.275837" lon="6.653489"><ele>420.71</ele><time>2011-05-30T09:48:30Z</time></trkpt><trkpt lat="50.275314" lon="6.653434"><ele>421.19</ele><time>2011-05-30T09:48:46Z</time></trkpt><trkpt lat="50.275097" lon="6.653461"><ele>420.23</ele><time>2011-05-30T09:48:52Z</time></trkpt><trkpt lat="50.275013" lon="6.653512"><ele>419.27</ele><time>2011-05-30T09:48:54Z</time></trkpt><trkpt lat="50.274967" lon="6.653554"><ele>419.27</ele><time>2011-05-30T09:48:55Z</time></trkpt><trkpt lat="50.274757" lon="6.653786"><ele>417.35</ele><time>2011-05-30T09:48:59Z</time></trkpt><trkpt lat="50.274704" lon="6.653868"><ele>416.87</ele><time>2011-05-30T09:49:00Z</time></trkpt><trkpt lat="50.274544" lon="6.654130"><ele>415.43</ele><time>2011-05-30T09:49:03Z</time></trkpt><trkpt lat="50.274445" lon="6.654337"><ele>414.47</ele><time>2011-05-30T09:49:05Z</time></trkpt><trkpt lat="50.274345" lon="6.654572"><ele>413.02</ele><time>2011-05-30T09:49:07Z</time></trkpt><trkpt lat="50.274288" lon="6.654682"><ele>412.54</ele><time>2011-05-30T09:49:08Z</time></trkpt><trkpt lat="50.274216" lon="6.654783"><ele>412.54</ele><time>2011-05-30T09:49:09Z</time></trkpt><trkpt lat="50.274136" lon="6.654861"><ele>411.58</ele><time>2011-05-30T09:49:10Z</time></trkpt><trkpt lat="50.274040" lon="6.654910"><ele>410.62</ele><time>2011-05-30T09:49:11Z</time></trkpt><trkpt lat="50.273941" lon="6.654922"><ele>409.18</ele><time>2011-05-30T09:49:12Z</time></trkpt><trkpt lat="50.273842" lon="6.654905"><ele>408.22</ele><time>2011-05-30T09:49:13Z</time></trkpt><trkpt lat="50.273746" lon="6.654876"><ele>406.77</ele><time>2011-05-30T09:49:14Z</time></trkpt><trkpt lat="50.273663" lon="6.654851"><ele>406.77</ele><time>2011-05-30T09:49:15Z</time></trkpt><trkpt lat="50.273590" lon="6.654841"><ele>406.29</ele><time>2011-05-30T09:49:16Z</time></trkpt><trkpt lat="50.273521" lon="6.654860"><ele>405.33</ele><time>2011-05-30T09:49:17Z</time></trkpt><trkpt lat="50.273468" lon="6.654916"><ele>404.85</ele><time>2011-05-30T09:49:18Z</time></trkpt><trkpt lat="50.273434" lon="6.655005"><ele>404.37</ele><time>2011-05-30T09:49:19Z</time></trkpt><trkpt lat="50.273426" lon="6.655117"><ele>403.41</ele><time>2011-05-30T09:49:20Z</time></trkpt><trkpt lat="50.273438" lon="6.655241"><ele>402.45</ele><time>2011-05-30T09:49:21Z</time></trkpt><trkpt lat="50.273460" lon="6.655372"><ele>401.97</ele><time>2011-05-30T09:49:22Z</time></trkpt><trkpt lat="50.273491" lon="6.655507"><ele>400.53</ele><time>2011-05-30T09:49:23Z</time></trkpt><trkpt lat="50.273533" lon="6.655638"><ele>399.57</ele><time>2011-05-30T09:49:24Z</time></trkpt><trkpt lat="50.273586" lon="6.655763"><ele>399.57</ele><time>2011-05-30T09:49:25Z</time></trkpt><trkpt lat="50.273685" lon="6.656007"><ele>398.12</ele><time>2011-05-30T09:49:27Z</time></trkpt><trkpt lat="50.273705" lon="6.656132"><ele>397.16</ele><time>2011-05-30T09:49:28Z</time></trkpt><trkpt lat="50.273705" lon="6.656260"><ele>396.20</ele><time>2011-05-30T09:49:29Z</time></trkpt><trkpt lat="50.273685" lon="6.656388"><ele>396.20</ele><time>2011-05-30T09:49:30Z</time></trkpt><trkpt lat="50.273663" lon="6.656507"><ele>396.20</ele><time>2011-05-30T09:49:31Z</time></trkpt><trkpt lat="50.273582" lon="6.656909"><ele>395.72</ele><time>2011-05-30T09:49:38Z</time></trkpt><trkpt lat="50.273487" lon="6.657529"><ele>396.20</ele><time>2011-05-30T09:49:52Z</time></trkpt><trkpt lat="50.273438" lon="6.657878"><ele>396.20</ele><time>2011-05-30T09:50:01Z</time></trkpt><trkpt lat="50.273418" lon="6.657901"><ele>396.20</ele><time>2011-05-30T09:50:02Z</time></trkpt><trkpt lat="50.273396" lon="6.657926"><ele>396.68</ele><time>2011-05-30T09:50:03Z</time></trkpt><trkpt lat="50.273071" lon="6.657958"><ele>397.16</ele><time>2011-05-30T09:50:15Z</time></trkpt><trkpt lat="50.272667" lon="6.657932"><ele>397.64</ele><time>2011-05-30T09:50:30Z</time></trkpt><trkpt lat="50.272442" lon="6.657640"><ele>397.16</ele><time>2011-05-30T09:50:38Z</time></trkpt><trkpt lat="50.272125" lon="6.657207"><ele>395.72</ele><time>2011-05-30T09:50:47Z</time></trkpt><trkpt lat="50.272095" lon="6.657141"><ele>395.24</ele><time>2011-05-30T09:50:48Z</time></trkpt><trkpt lat="50.271889" lon="6.656800"><ele>393.80</ele><time>2011-05-30T09:50:53Z</time></trkpt><trkpt lat="50.271526" lon="6.656413"><ele>392.84</ele><time>2011-05-30T09:51:00Z</time></trkpt><trkpt lat="50.271431" lon="6.656295"><ele>392.84</ele><time>2011-05-30T09:51:02Z</time></trkpt><trkpt lat="50.271378" lon="6.656257"><ele>392.84</ele><time>2011-05-30T09:51:03Z</time></trkpt><trkpt lat="50.270897" lon="6.656033"><ele>393.80</ele><time>2011-05-30T09:51:14Z</time></trkpt><trkpt lat="50.270580" lon="6.655925"><ele>392.84</ele><time>2011-05-30T09:51:20Z</time></trkpt><trkpt lat="50.270523" lon="6.655931"><ele>392.36</ele><time>2011-05-30T09:51:21Z</time></trkpt><trkpt lat="50.270470" lon="6.655945"><ele>392.84</ele><time>2011-05-30T09:51:22Z</time></trkpt><trkpt lat="50.270412" lon="6.655967"><ele>392.36</ele><time>2011-05-30T09:51:23Z</time></trkpt><trkpt lat="50.270359" lon="6.655994"><ele>391.87</ele><time>2011-05-30T09:51:24Z</time></trkpt><trkpt lat="50.270309" lon="6.656033"><ele>392.36</ele><time>2011-05-30T09:51:25Z</time></trkpt><trkpt lat="50.270264" lon="6.656077"><ele>391.87</ele><time>2011-05-30T09:51:26Z</time></trkpt><trkpt lat="50.270218" lon="6.656127"><ele>392.36</ele><time>2011-05-30T09:51:27Z</time></trkpt><trkpt lat="50.270172" lon="6.656180"><ele>391.87</ele><time>2011-05-30T09:51:28Z</time></trkpt><trkpt lat="50.269615" lon="6.657028"><ele>391.39</ele><time>2011-05-30T09:51:41Z</time></trkpt><trkpt lat="50.269306" lon="6.657562"><ele>388.51</ele><time>2011-05-30T09:51:49Z</time></trkpt><trkpt lat="50.269226" lon="6.657671"><ele>388.51</ele><time>2011-05-30T09:51:51Z</time></trkpt><trkpt lat="50.269184" lon="6.657715"><ele>388.51</ele><time>2011-05-30T09:51:52Z</time></trkpt><trkpt lat="50.268555" lon="6.658201"><ele>388.03</ele><time>2011-05-30T09:52:08Z</time></trkpt><trkpt lat="50.268246" lon="6.658267"><ele>389.47</ele><time>2011-05-30T09:52:16Z</time></trkpt><trkpt lat="50.267529" lon="6.658083"><ele>388.99</ele><time>2011-05-30T09:52:34Z</time></trkpt><trkpt lat="50.267303" lon="6.658135"><ele>389.47</ele><time>2011-05-30T09:52:40Z</time></trkpt><trkpt lat="50.266525" lon="6.658610"><ele>388.51</ele><time>2011-05-30T09:52:59Z</time></trkpt><trkpt lat="50.266479" lon="6.658642"><ele>388.03</ele><time>2011-05-30T09:53:00Z</time></trkpt><trkpt lat="50.266342" lon="6.658725"><ele>388.03</ele><time>2011-05-30T09:53:03Z</time></trkpt><trkpt lat="50.266296" lon="6.658765"><ele>387.55</ele><time>2011-05-30T09:53:04Z</time></trkpt><trkpt lat="50.265987" lon="6.659036"><ele>387.55</ele><time>2011-05-30T09:53:11Z</time></trkpt><trkpt lat="50.265949" lon="6.659077"><ele>387.55</ele><time>2011-05-30T09:53:12Z</time></trkpt><trkpt lat="50.265873" lon="6.659160"><ele>387.55</ele><time>2011-05-30T09:53:14Z</time></trkpt><trkpt lat="50.265617" lon="6.659478"><ele>388.03</ele><time>2011-05-30T09:53:21Z</time></trkpt><trkpt lat="50.265274" lon="6.660147"><ele>388.51</ele><time>2011-05-30T09:53:35Z</time></trkpt><trkpt lat="50.264957" lon="6.660215"><ele>389.47</ele><time>2011-05-30T09:53:44Z</time></trkpt><trkpt lat="50.264427" lon="6.660271"><ele>389.47</ele><time>2011-05-30T09:53:58Z</time></trkpt><trkpt lat="50.264309" lon="6.660321"><ele>388.99</ele><time>2011-05-30T09:54:01Z</time></trkpt><trkpt lat="50.264271" lon="6.660349"><ele>388.99</ele><time>2011-05-30T09:54:02Z</time></trkpt><trkpt lat="50.264236" lon="6.660382"><ele>388.99</ele><time>2011-05-30T09:54:03Z</time></trkpt><trkpt lat="50.264202" lon="6.660418"><ele>388.51</ele><time>2011-05-30T09:54:04Z</time></trkpt><trkpt lat="50.264172" lon="6.660456"><ele>388.51</ele><time>2011-05-30T09:54:05Z</time></trkpt><trkpt lat="50.263653" lon="6.661051"><ele>390.43</ele><time>2011-05-30T09:54:23Z</time></trkpt><trkpt lat="50.263180" lon="6.661431"><ele>388.51</ele><time>2011-05-30T09:54:37Z</time></trkpt><trkpt lat="50.262844" lon="6.661740"><ele>388.51</ele><time>2011-05-30T09:54:48Z</time></trkpt><trkpt lat="50.262585" lon="6.661903"><ele>390.91</ele><time>2011-05-30T09:55:01Z</time></trkpt><trkpt lat="50.262390" lon="6.662175"><ele>392.36</ele><time>2011-05-30T09:55:15Z</time></trkpt><trkpt lat="50.261925" lon="6.661739"><ele>389.95</ele><time>2011-05-30T09:55:26Z</time></trkpt><trkpt lat="50.261402" lon="6.661338"><ele>389.47</ele><time>2011-05-30T09:55:37Z</time></trkpt><trkpt lat="50.261364" lon="6.661322"><ele>390.43</ele><time>2011-05-30T09:55:38Z</time></trkpt><trkpt lat="50.261330" lon="6.661313"><ele>389.95</ele><time>2011-05-30T09:55:39Z</time></trkpt><trkpt lat="50.261292" lon="6.661314"><ele>389.95</ele><time>2011-05-30T09:55:40Z</time></trkpt><trkpt lat="50.261261" lon="6.661321"><ele>389.95</ele><time>2011-05-30T09:55:41Z</time></trkpt><trkpt lat="50.261234" lon="6.661337"><ele>389.95</ele><time>2011-05-30T09:55:42Z</time></trkpt><trkpt lat="50.261211" lon="6.661355"><ele>390.43</ele><time>2011-05-30T09:55:43Z</time></trkpt><trkpt lat="50.261192" lon="6.661377"><ele>390.43</ele><time>2011-05-30T09:55:44Z</time></trkpt><trkpt lat="50.261169" lon="6.661403"><ele>390.43</ele><time>2011-05-30T09:55:45Z</time></trkpt><trkpt lat="50.260876" lon="6.661488"><ele>389.95</ele><time>2011-05-30T09:55:56Z</time></trkpt><trkpt lat="50.260834" lon="6.661445"><ele>389.47</ele><time>2011-05-30T09:55:57Z</time></trkpt><trkpt lat="50.260792" lon="6.661387"><ele>388.99</ele><time>2011-05-30T09:55:58Z</time></trkpt><trkpt lat="50.260761" lon="6.661306"><ele>388.51</ele><time>2011-05-30T09:55:59Z</time></trkpt><trkpt lat="50.260742" lon="6.661205"><ele>387.55</ele><time>2011-05-30T09:56:00Z</time></trkpt><trkpt lat="50.260727" lon="6.661088"><ele>386.11</ele><time>2011-05-30T09:56:01Z</time></trkpt><trkpt lat="50.260727" lon="6.660961"><ele>385.63</ele><time>2011-05-30T09:56:02Z</time></trkpt><trkpt lat="50.260731" lon="6.660827"><ele>385.63</ele><time>2011-05-30T09:56:03Z</time></trkpt><trkpt lat="50.260754" lon="6.659831"><ele>382.74</ele><time>2011-05-30T09:56:10Z</time></trkpt><trkpt lat="50.260746" lon="6.659414"><ele>382.26</ele><time>2011-05-30T09:56:13Z</time></trkpt><trkpt lat="50.260757" lon="6.659280"><ele>382.26</ele><time>2011-05-30T09:56:14Z</time></trkpt><trkpt lat="50.260780" lon="6.659162"><ele>382.74</ele><time>2011-05-30T09:56:15Z</time></trkpt><trkpt lat="50.260822" lon="6.659070"><ele>382.74</ele><time>2011-05-30T09:56:16Z</time></trkpt><trkpt lat="50.260876" lon="6.659002"><ele>382.74</ele><time>2011-05-30T09:56:17Z</time></trkpt><trkpt lat="50.260933" lon="6.658946"><ele>383.22</ele><time>2011-05-30T09:56:18Z</time></trkpt><trkpt lat="50.261280" lon="6.658550"><ele>385.15</ele><time>2011-05-30T09:56:28Z</time></trkpt><trkpt lat="50.261555" lon="6.658225"><ele>386.59</ele><time>2011-05-30T09:56:40Z</time></trkpt><trkpt lat="50.261570" lon="6.658186"><ele>386.59</ele><time>2011-05-30T09:56:41Z</time></trkpt><trkpt lat="50.261574" lon="6.658149"><ele>386.59</ele><time>2011-05-30T09:56:42Z</time></trkpt><trkpt lat="50.261566" lon="6.658115"><ele>386.59</ele><time>2011-05-30T09:56:43Z</time></trkpt><trkpt lat="50.261551" lon="6.658082"><ele>387.07</ele><time>2011-05-30T09:56:44Z</time></trkpt><trkpt lat="50.261539" lon="6.658049"><ele>387.07</ele><time>2011-05-30T09:56:45Z</time></trkpt><trkpt lat="50.261257" lon="6.657448"><ele>388.51</ele><time>2011-05-30T09:57:03Z</time></trkpt><trkpt lat="50.260998" lon="6.656887"><ele>388.99</ele><time>2011-05-30T09:57:21Z</time></trkpt><trkpt lat="50.260712" lon="6.656538"><ele>389.47</ele><time>2011-05-30T09:57:34Z</time></trkpt><trkpt lat="50.260563" lon="6.656562"><ele>388.51</ele><time>2011-05-30T09:57:38Z</time></trkpt><trkpt lat="50.260525" lon="6.656593"><ele>388.03</ele><time>2011-05-30T09:57:39Z</time></trkpt><trkpt lat="50.259785" lon="6.657231"><ele>387.07</ele><time>2011-05-30T09:57:57Z</time></trkpt><trkpt lat="50.259083" lon="6.657579"><ele>388.03</ele><time>2011-05-30T09:58:15Z</time></trkpt><trkpt lat="50.258659" lon="6.657698"><ele>389.95</ele><time>2011-05-30T09:58:31Z</time></trkpt><trkpt lat="50.258251" lon="6.657747"><ele>391.39</ele><time>2011-05-30T09:58:49Z</time></trkpt><trkpt lat="50.258003" lon="6.657977"><ele>391.39</ele><time>2011-05-30T09:59:01Z</time></trkpt><trkpt lat="50.257988" lon="6.657969"><ele>391.39</ele><time>2011-05-30T09:59:02Z</time></trkpt><trkpt lat="50.257946" lon="6.657972"><ele>390.91</ele><time>2011-05-30T09:59:13Z</time></trkpt><trkpt lat="50.257946" lon="6.657970"><ele>391.39</ele><time>2011-05-30T09:59:48Z</time></trkpt><trkpt lat="50.257946" lon="6.657970"><ele>391.39</ele><time>2011-05-30T10:00:01Z</time></trkpt><trkpt lat="50.257092" lon="6.660040"><ele>382.74</ele><time>2011-05-30T10:22:42Z</time></trkpt><trkpt lat="50.256996" lon="6.660156"><ele>382.26</ele><time>2011-05-30T10:22:44Z</time></trkpt><trkpt lat="50.256718" lon="6.660607"><ele>378.42</ele><time>2011-05-30T10:22:50Z</time></trkpt><trkpt lat="50.256577" lon="6.660825"><ele>375.05</ele><time>2011-05-30T10:22:53Z</time></trkpt><trkpt lat="50.255913" lon="6.661885"><ele>372.65</ele><time>2011-05-30T10:23:09Z</time></trkpt><trkpt lat="50.255577" lon="6.662422"><ele>372.17</ele><time>2011-05-30T10:23:19Z</time></trkpt><trkpt lat="50.255070" lon="6.663217"><ele>372.17</ele><time>2011-05-30T10:23:37Z</time></trkpt><trkpt lat="50.254478" lon="6.664146"><ele>371.69</ele><time>2011-05-30T10:23:57Z</time></trkpt><trkpt lat="50.254353" lon="6.664311"><ele>372.17</ele><time>2011-05-30T10:24:01Z</time></trkpt><trkpt lat="50.254314" lon="6.664342"><ele>372.17</ele><time>2011-05-30T10:24:02Z</time></trkpt><trkpt lat="50.254276" lon="6.664367"><ele>372.17</ele><time>2011-05-30T10:24:03Z</time></trkpt><trkpt lat="50.254234" lon="6.664384"><ele>372.65</ele><time>2011-05-30T10:24:04Z</time></trkpt><trkpt lat="50.254196" lon="6.664396"><ele>372.65</ele><time>2011-05-30T10:24:05Z</time></trkpt><trkpt lat="50.253685" lon="6.664378"><ele>373.61</ele><time>2011-05-30T10:24:20Z</time></trkpt><trkpt lat="50.253197" lon="6.664047"><ele>374.57</ele><time>2011-05-30T10:24:38Z</time></trkpt><trkpt lat="50.252724" lon="6.664103"><ele>375.53</ele><time>2011-05-30T10:24:54Z</time></trkpt><trkpt lat="50.252350" lon="6.664088"><ele>376.97</ele><time>2011-05-30T10:25:10Z</time></trkpt><trkpt lat="50.252010" lon="6.664018"><ele>378.90</ele><time>2011-05-30T10:25:29Z</time></trkpt><trkpt lat="50.251862" lon="6.664251"><ele>380.82</ele><time>2011-05-30T10:25:45Z</time></trkpt><trkpt lat="50.251762" lon="6.664561"><ele>383.22</ele><time>2011-05-30T10:26:02Z</time></trkpt><trkpt lat="50.251629" lon="6.664749"><ele>384.66</ele><time>2011-05-30T10:26:16Z</time></trkpt><trkpt lat="50.251610" lon="6.664795"><ele>384.66</ele><time>2011-05-30T10:26:19Z</time></trkpt><trkpt lat="50.251614" lon="6.664815"><ele>384.66</ele><time>2011-05-30T10:26:20Z</time></trkpt><trkpt lat="50.251614" lon="6.664835"><ele>384.66</ele><time>2011-05-30T10:26:21Z</time></trkpt><trkpt lat="50.251617" lon="6.664857"><ele>384.66</ele><time>2011-05-30T10:26:22Z</time></trkpt><trkpt lat="50.251621" lon="6.664881"><ele>384.66</ele><time>2011-05-30T10:26:23Z</time></trkpt><trkpt lat="50.251625" lon="6.664909"><ele>384.66</ele><time>2011-05-30T10:26:24Z</time></trkpt><trkpt lat="50.251625" lon="6.664943"><ele>384.66</ele><time>2011-05-30T10:26:25Z</time></trkpt><trkpt lat="50.251625" lon="6.665342"><ele>384.18</ele><time>2011-05-30T10:26:33Z</time></trkpt><trkpt lat="50.251534" lon="6.665702"><ele>382.26</ele><time>2011-05-30T10:26:38Z</time></trkpt><trkpt lat="50.251492" lon="6.665787"><ele>381.30</ele><time>2011-05-30T10:26:39Z</time></trkpt><trkpt lat="50.251457" lon="6.665868"><ele>381.30</ele><time>2011-05-30T10:26:40Z</time></trkpt><trkpt lat="50.251419" lon="6.665961"><ele>380.82</ele><time>2011-05-30T10:26:41Z</time></trkpt><trkpt lat="50.251389" lon="6.666058"><ele>381.30</ele><time>2011-05-30T10:26:42Z</time></trkpt><trkpt lat="50.251366" lon="6.666160"><ele>380.82</ele><time>2011-05-30T10:26:43Z</time></trkpt><trkpt lat="50.251354" lon="6.666266"><ele>380.82</ele><time>2011-05-30T10:26:44Z</time></trkpt><trkpt lat="50.251350" lon="6.666376"><ele>380.34</ele><time>2011-05-30T10:26:45Z</time></trkpt><trkpt lat="50.251354" lon="6.666487"><ele>380.82</ele><time>2011-05-30T10:26:46Z</time></trkpt><trkpt lat="50.251366" lon="6.666598"><ele>380.34</ele><time>2011-05-30T10:26:47Z</time></trkpt><trkpt lat="50.251385" lon="6.666707"><ele>379.86</ele><time>2011-05-30T10:26:48Z</time></trkpt><trkpt lat="50.251411" lon="6.666815"><ele>379.86</ele><time>2011-05-30T10:26:49Z</time></trkpt><trkpt lat="50.251450" lon="6.667034"><ele>378.90</ele><time>2011-05-30T10:26:51Z</time></trkpt><trkpt lat="50.251545" lon="6.667811"><ele>378.42</ele><time>2011-05-30T10:26:58Z</time></trkpt><trkpt lat="50.251553" lon="6.667922"><ele>378.42</ele><time>2011-05-30T10:26:59Z</time></trkpt><trkpt lat="50.251549" lon="6.668031"><ele>377.94</ele><time>2011-05-30T10:27:00Z</time></trkpt><trkpt lat="50.251476" lon="6.669225"><ele>377.45</ele><time>2011-05-30T10:27:12Z</time></trkpt><trkpt lat="50.251415" lon="6.669590"><ele>376.49</ele><time>2011-05-30T10:27:16Z</time></trkpt><trkpt lat="50.251358" lon="6.669813"><ele>376.49</ele><time>2011-05-30T10:27:18Z</time></trkpt><trkpt lat="50.251316" lon="6.669917"><ele>376.01</ele><time>2011-05-30T10:27:19Z</time></trkpt><trkpt lat="50.251266" lon="6.670004"><ele>376.49</ele><time>2011-05-30T10:27:20Z</time></trkpt><trkpt lat="50.250671" lon="6.670928"><ele>375.53</ele><time>2011-05-30T10:27:33Z</time></trkpt><trkpt lat="50.250622" lon="6.670964"><ele>376.01</ele><time>2011-05-30T10:27:34Z</time></trkpt><trkpt lat="50.249939" lon="6.671355"><ele>374.57</ele><time>2011-05-30T10:27:47Z</time></trkpt><trkpt lat="50.249100" lon="6.671655"><ele>375.05</ele><time>2011-05-30T10:28:03Z</time></trkpt><trkpt lat="50.248466" lon="6.671965"><ele>371.69</ele><time>2011-05-30T10:28:13Z</time></trkpt><trkpt lat="50.248325" lon="6.672059"><ele>371.69</ele><time>2011-05-30T10:28:15Z</time></trkpt><trkpt lat="50.247574" lon="6.672669"><ele>372.65</ele><time>2011-05-30T10:28:28Z</time></trkpt><trkpt lat="50.247288" lon="6.672922"><ele>374.57</ele><time>2011-05-30T10:28:40Z</time></trkpt><trkpt lat="50.247089" lon="6.673080"><ele>376.49</ele><time>2011-05-30T10:28:53Z</time></trkpt><trkpt lat="50.247009" lon="6.673258"><ele>377.45</ele><time>2011-05-30T10:29:03Z</time></trkpt><trkpt lat="50.246998" lon="6.673272"><ele>378.90</ele><time>2011-05-30T10:29:04Z</time></trkpt><trkpt lat="50.246994" lon="6.673290"><ele>377.94</ele><time>2011-05-30T10:29:05Z</time></trkpt><trkpt lat="50.246990" lon="6.673310"><ele>378.90</ele><time>2011-05-30T10:29:06Z</time></trkpt><trkpt lat="50.246990" lon="6.673331"><ele>378.42</ele><time>2011-05-30T10:29:07Z</time></trkpt><trkpt lat="50.246990" lon="6.673351"><ele>378.42</ele><time>2011-05-30T10:29:08Z</time></trkpt><trkpt lat="50.246986" lon="6.673372"><ele>379.38</ele><time>2011-05-30T10:29:09Z</time></trkpt><trkpt lat="50.246986" lon="6.673392"><ele>379.38</ele><time>2011-05-30T10:29:10Z</time></trkpt><trkpt lat="50.246983" lon="6.673413"><ele>378.90</ele><time>2011-05-30T10:29:11Z</time></trkpt><trkpt lat="50.246979" lon="6.673431"><ele>379.38</ele><time>2011-05-30T10:29:12Z</time></trkpt><trkpt lat="50.246971" lon="6.673447"><ele>379.38</ele><time>2011-05-30T10:29:13Z</time></trkpt><trkpt lat="50.246872" lon="6.673647"><ele>380.34</ele><time>2011-05-30T10:29:25Z</time></trkpt><trkpt lat="50.246857" lon="6.673657"><ele>380.82</ele><time>2011-05-30T10:29:26Z</time></trkpt><trkpt lat="50.246845" lon="6.673668"><ele>380.34</ele><time>2011-05-30T10:29:27Z</time></trkpt><trkpt lat="50.246838" lon="6.673682"><ele>380.82</ele><time>2011-05-30T10:29:28Z</time></trkpt><trkpt lat="50.246830" lon="6.673699"><ele>380.82</ele><time>2011-05-30T10:29:29Z</time></trkpt><trkpt lat="50.246822" lon="6.673720"><ele>380.82</ele><time>2011-05-30T10:29:30Z</time></trkpt><trkpt lat="50.246819" lon="6.673738"><ele>381.30</ele><time>2011-05-30T10:29:31Z</time></trkpt><trkpt lat="50.246689" lon="6.674004"><ele>381.78</ele><time>2011-05-30T10:29:46Z</time></trkpt><trkpt lat="50.246525" lon="6.674313"><ele>382.26</ele><time>2011-05-30T10:30:03Z</time></trkpt><trkpt lat="50.246319" lon="6.674724"><ele>383.22</ele><time>2011-05-30T10:30:17Z</time></trkpt><trkpt lat="50.246017" lon="6.675298"><ele>384.18</ele><time>2011-05-30T10:30:35Z</time></trkpt><trkpt lat="50.245789" lon="6.675747"><ele>384.66</ele><time>2011-05-30T10:30:50Z</time></trkpt><trkpt lat="50.245544" lon="6.676239"><ele>386.11</ele><time>2011-05-30T10:31:09Z</time></trkpt><trkpt lat="50.245380" lon="6.676639"><ele>386.59</ele><time>2011-05-30T10:31:23Z</time></trkpt><trkpt lat="50.245220" lon="6.677255"><ele>385.63</ele><time>2011-05-30T10:31:36Z</time></trkpt><trkpt lat="50.244980" lon="6.678035"><ele>385.15</ele><time>2011-05-30T10:31:49Z</time></trkpt><trkpt lat="50.244839" lon="6.678922"><ele>385.15</ele><time>2011-05-30T10:32:03Z</time></trkpt><trkpt lat="50.244785" lon="6.680114"><ele>382.74</ele><time>2011-05-30T10:32:18Z</time></trkpt><trkpt lat="50.244781" lon="6.680206"><ele>383.22</ele><time>2011-05-30T10:32:19Z</time></trkpt><trkpt lat="50.244736" lon="6.681497"><ele>380.34</ele><time>2011-05-30T10:32:33Z</time></trkpt><trkpt lat="50.244698" lon="6.682569"><ele>380.34</ele><time>2011-05-30T10:32:45Z</time></trkpt><trkpt lat="50.244698" lon="6.682661"><ele>380.34</ele><time>2011-05-30T10:32:46Z</time></trkpt><trkpt lat="50.244698" lon="6.682749"><ele>380.34</ele><time>2011-05-30T10:32:47Z</time></trkpt><trkpt lat="50.244724" lon="6.684137"><ele>380.34</ele><time>2011-05-30T10:33:03Z</time></trkpt><trkpt lat="50.244709" lon="6.684392"><ele>380.34</ele><time>2011-05-30T10:33:06Z</time></trkpt><trkpt lat="50.244698" lon="6.684473"><ele>379.86</ele><time>2011-05-30T10:33:07Z</time></trkpt><trkpt lat="50.244576" lon="6.685070"><ele>379.86</ele><time>2011-05-30T10:33:15Z</time></trkpt><trkpt lat="50.244549" lon="6.685140"><ele>379.86</ele><time>2011-05-30T10:33:16Z</time></trkpt><trkpt lat="50.244480" lon="6.685281"><ele>380.34</ele><time>2011-05-30T10:33:18Z</time></trkpt><trkpt lat="50.244423" lon="6.685364"><ele>379.86</ele><time>2011-05-30T10:33:19Z</time></trkpt><trkpt lat="50.244366" lon="6.685439"><ele>380.34</ele><time>2011-05-30T10:33:20Z</time></trkpt><trkpt lat="50.244221" lon="6.685621"><ele>379.86</ele><time>2011-05-30T10:33:23Z</time></trkpt><trkpt lat="50.244175" lon="6.685679"><ele>379.86</ele><time>2011-05-30T10:33:24Z</time></trkpt><trkpt lat="50.244133" lon="6.685739"><ele>380.34</ele><time>2011-05-30T10:33:25Z</time></trkpt><trkpt lat="50.243942" lon="6.685936"><ele>380.34</ele><time>2011-05-30T10:33:30Z</time></trkpt><trkpt lat="50.243557" lon="6.686459"><ele>382.26</ele><time>2011-05-30T10:33:44Z</time></trkpt><trkpt lat="50.243210" lon="6.686793"><ele>383.22</ele><time>2011-05-30T10:33:57Z</time></trkpt><trkpt lat="50.242840" lon="6.687063"><ele>384.18</ele><time>2011-05-30T10:34:11Z</time></trkpt><trkpt lat="50.242477" lon="6.687183"><ele>385.15</ele><time>2011-05-30T10:34:25Z</time></trkpt><trkpt lat="50.242199" lon="6.687383"><ele>388.03</ele><time>2011-05-30T10:34:44Z</time></trkpt><trkpt lat="50.242157" lon="6.687480"><ele>388.51</ele><time>2011-05-30T10:34:59Z</time></trkpt><trkpt lat="50.242161" lon="6.687475"><ele>388.51</ele><time>2011-05-30T10:35:16Z</time></trkpt><trkpt lat="50.242165" lon="6.687468"><ele>387.55</ele><time>2011-05-30T10:35:53Z</time></trkpt><trkpt lat="50.242157" lon="6.687499"><ele>388.99</ele><time>2011-05-30T10:36:06Z</time></trkpt><trkpt lat="50.242153" lon="6.687544"><ele>388.99</ele><time>2011-05-30T10:36:09Z</time></trkpt><trkpt lat="50.242146" lon="6.687561"><ele>388.99</ele><time>2011-05-30T10:36:10Z</time></trkpt><trkpt lat="50.242138" lon="6.687578"><ele>388.99</ele><time>2011-05-30T10:36:11Z</time></trkpt><trkpt lat="50.241989" lon="6.687943"><ele>390.43</ele><time>2011-05-30T10:36:25Z</time></trkpt><trkpt lat="50.241837" lon="6.688228"><ele>391.87</ele><time>2011-05-30T10:36:40Z</time></trkpt><trkpt lat="50.241642" lon="6.688491"><ele>393.80</ele><time>2011-05-30T10:36:56Z</time></trkpt><trkpt lat="50.241436" lon="6.688736"><ele>395.24</ele><time>2011-05-30T10:37:13Z</time></trkpt><trkpt lat="50.241230" lon="6.688992"><ele>392.84</ele><time>2011-05-30T10:37:25Z</time></trkpt><trkpt lat="50.240723" lon="6.689491"><ele>392.36</ele><time>2011-05-30T10:37:38Z</time></trkpt><trkpt lat="50.240570" lon="6.689592"><ele>391.87</ele><time>2011-05-30T10:37:41Z</time></trkpt><trkpt lat="50.240517" lon="6.689614"><ele>391.87</ele><time>2011-05-30T10:37:42Z</time></trkpt><trkpt lat="50.240417" lon="6.689650"><ele>391.39</ele><time>2011-05-30T10:37:44Z</time></trkpt><trkpt lat="50.240368" lon="6.689664"><ele>391.39</ele><time>2011-05-30T10:37:45Z</time></trkpt><trkpt lat="50.240318" lon="6.689670"><ele>391.87</ele><time>2011-05-30T10:37:46Z</time></trkpt><trkpt lat="50.239864" lon="6.689644"><ele>392.84</ele><time>2011-05-30T10:37:57Z</time></trkpt><trkpt lat="50.239822" lon="6.689649"><ele>392.84</ele><time>2011-05-30T10:37:58Z</time></trkpt><trkpt lat="50.239777" lon="6.689648"><ele>392.36</ele><time>2011-05-30T10:37:59Z</time></trkpt><trkpt lat="50.239193" lon="6.689714"><ele>392.84</ele><time>2011-05-30T10:38:11Z</time></trkpt><trkpt lat="50.238819" lon="6.689765"><ele>392.84</ele><time>2011-05-30T10:38:21Z</time></trkpt><trkpt lat="50.238274" lon="6.689668"><ele>389.47</ele><time>2011-05-30T10:38:31Z</time></trkpt><trkpt lat="50.238068" lon="6.689562"><ele>388.03</ele><time>2011-05-30T10:38:34Z</time></trkpt><trkpt lat="50.237850" lon="6.689376"><ele>384.66</ele><time>2011-05-30T10:38:37Z</time></trkpt><trkpt lat="50.237679" lon="6.689230"><ele>383.70</ele><time>2011-05-30T10:38:39Z</time></trkpt><trkpt lat="50.237499" lon="6.689086"><ele>380.34</ele><time>2011-05-30T10:38:41Z</time></trkpt><trkpt lat="50.237118" lon="6.688784"><ele>375.53</ele><time>2011-05-30T10:38:45Z</time></trkpt><trkpt lat="50.237019" lon="6.688701"><ele>375.53</ele><time>2011-05-30T10:38:46Z</time></trkpt><trkpt lat="50.236702" lon="6.688435"><ele>371.69</ele><time>2011-05-30T10:38:49Z</time></trkpt><trkpt lat="50.236496" lon="6.688251"><ele>370.24</ele><time>2011-05-30T10:38:51Z</time></trkpt><trkpt lat="50.236198" lon="6.687946"><ele>366.88</ele><time>2011-05-30T10:38:54Z</time></trkpt><trkpt lat="50.235287" lon="6.687041"><ele>363.52</ele><time>2011-05-30T10:39:03Z</time></trkpt><trkpt lat="50.234486" lon="6.686575"><ele>364.48</ele><time>2011-05-30T10:39:12Z</time></trkpt><trkpt lat="50.233925" lon="6.686360"><ele>366.88</ele><time>2011-05-30T10:39:21Z</time></trkpt><trkpt lat="50.233635" lon="6.686242"><ele>369.28</ele><time>2011-05-30T10:39:33Z</time></trkpt><trkpt lat="50.233406" lon="6.686123"><ele>371.21</ele><time>2011-05-30T10:39:48Z</time></trkpt><trkpt lat="50.233170" lon="6.686029"><ele>372.65</ele><time>2011-05-30T10:40:03Z</time></trkpt><trkpt lat="50.232876" lon="6.686014"><ele>372.65</ele><time>2011-05-30T10:40:16Z</time></trkpt><trkpt lat="50.232491" lon="6.685901"><ele>374.09</ele><time>2011-05-30T10:40:33Z</time></trkpt><trkpt lat="50.232243" lon="6.685767"><ele>376.01</ele><time>2011-05-30T10:40:47Z</time></trkpt><trkpt lat="50.231968" lon="6.685630"><ele>377.45</ele><time>2011-05-30T10:41:02Z</time></trkpt><trkpt lat="50.231609" lon="6.685410"><ele>377.94</ele><time>2011-05-30T10:41:19Z</time></trkpt><trkpt lat="50.231201" lon="6.684898"><ele>376.49</ele><time>2011-05-30T10:41:36Z</time></trkpt><trkpt lat="50.230812" lon="6.684009"><ele>376.01</ele><time>2011-05-30T10:41:52Z</time></trkpt><trkpt lat="50.230564" lon="6.683377"><ele>373.61</ele><time>2011-05-30T10:42:01Z</time></trkpt><trkpt lat="50.230499" lon="6.683129"><ele>373.13</ele><time>2011-05-30T10:42:04Z</time></trkpt><trkpt lat="50.230183" lon="6.681979"><ele>369.28</ele><time>2011-05-30T10:42:16Z</time></trkpt><trkpt lat="50.229958" lon="6.681163"><ele>367.36</ele><time>2011-05-30T10:42:24Z</time></trkpt><trkpt lat="50.229504" lon="6.679868"><ele>364.00</ele><time>2011-05-30T10:42:37Z</time></trkpt><trkpt lat="50.229454" lon="6.679772"><ele>364.00</ele><time>2011-05-30T10:42:38Z</time></trkpt><trkpt lat="50.228588" lon="6.678530"><ele>361.11</ele><time>2011-05-30T10:42:53Z</time></trkpt><trkpt lat="50.227913" lon="6.678170"><ele>361.59</ele><time>2011-05-30T10:43:05Z</time></trkpt><trkpt lat="50.227192" lon="6.677961"><ele>362.07</ele><time>2011-05-30T10:43:20Z</time></trkpt><trkpt lat="50.227154" lon="6.677932"><ele>362.07</ele><time>2011-05-30T10:43:21Z</time></trkpt><trkpt lat="50.227119" lon="6.677901"><ele>362.55</ele><time>2011-05-30T10:43:22Z</time></trkpt><trkpt lat="50.226742" lon="6.677322"><ele>363.52</ele><time>2011-05-30T10:43:38Z</time></trkpt><trkpt lat="50.226460" lon="6.676956"><ele>364.96</ele><time>2011-05-30T10:43:53Z</time></trkpt><trkpt lat="50.226257" lon="6.676691"><ele>365.92</ele><time>2011-05-30T10:44:05Z</time></trkpt><trkpt lat="50.225998" lon="6.676455"><ele>366.88</ele><time>2011-05-30T10:44:19Z</time></trkpt><trkpt lat="50.225609" lon="6.676122"><ele>367.36</ele><time>2011-05-30T10:44:34Z</time></trkpt><trkpt lat="50.225292" lon="6.675825"><ele>368.32</ele><time>2011-05-30T10:44:47Z</time></trkpt><trkpt lat="50.224972" lon="6.675300"><ele>369.28</ele><time>2011-05-30T10:45:04Z</time></trkpt><trkpt lat="50.224724" lon="6.674625"><ele>370.24</ele><time>2011-05-30T10:45:22Z</time></trkpt><trkpt lat="50.224689" lon="6.674002"><ele>371.21</ele><time>2011-05-30T10:45:36Z</time></trkpt><trkpt lat="50.224709" lon="6.673341"><ele>371.21</ele><time>2011-05-30T10:45:50Z</time></trkpt><trkpt lat="50.224762" lon="6.672645"><ele>372.17</ele><time>2011-05-30T10:46:04Z</time></trkpt><trkpt lat="50.224792" lon="6.671893"><ele>372.65</ele><time>2011-05-30T10:46:21Z</time></trkpt><trkpt lat="50.224731" lon="6.671204"><ele>373.61</ele><time>2011-05-30T10:46:36Z</time></trkpt><trkpt lat="50.224678" lon="6.670299"><ele>374.57</ele><time>2011-05-30T10:46:57Z</time></trkpt><trkpt lat="50.224709" lon="6.669687"><ele>375.53</ele><time>2011-05-30T10:47:12Z</time></trkpt><trkpt lat="50.224762" lon="6.669201"><ele>376.97</ele><time>2011-05-30T10:47:26Z</time></trkpt><trkpt lat="50.224808" lon="6.668584"><ele>378.90</ele><time>2011-05-30T10:47:45Z</time></trkpt><trkpt lat="50.224854" lon="6.667923"><ele>379.86</ele><time>2011-05-30T10:48:00Z</time></trkpt><trkpt lat="50.224854" lon="6.667858"><ele>379.38</ele><time>2011-05-30T10:48:01Z</time></trkpt><trkpt lat="50.224854" lon="6.667786"><ele>379.38</ele><time>2011-05-30T10:48:02Z</time></trkpt><trkpt lat="50.224812" lon="6.666650"><ele>377.45</ele><time>2011-05-30T10:48:15Z</time></trkpt><trkpt lat="50.224777" lon="6.665794"><ele>376.97</ele><time>2011-05-30T10:48:24Z</time></trkpt><trkpt lat="50.224781" lon="6.665706"><ele>376.49</ele><time>2011-05-30T10:48:25Z</time></trkpt><trkpt lat="50.224773" lon="6.665319"><ele>376.97</ele><time>2011-05-30T10:48:30Z</time></trkpt><trkpt lat="50.224770" lon="6.665247"><ele>376.97</ele><time>2011-05-30T10:48:31Z</time></trkpt><trkpt lat="50.224766" lon="6.665175"><ele>376.97</ele><time>2011-05-30T10:48:32Z</time></trkpt><trkpt lat="50.224762" lon="6.664795"><ele>376.49</ele><time>2011-05-30T10:48:37Z</time></trkpt><trkpt lat="50.224773" lon="6.664272"><ele>374.57</ele><time>2011-05-30T10:48:43Z</time></trkpt><trkpt lat="50.224766" lon="6.664080"><ele>374.09</ele><time>2011-05-30T10:48:45Z</time></trkpt><trkpt lat="50.224747" lon="6.663883"><ele>373.13</ele><time>2011-05-30T10:48:47Z</time></trkpt><trkpt lat="50.224682" lon="6.663432"><ele>370.24</ele><time>2011-05-30T10:48:51Z</time></trkpt><trkpt lat="50.224670" lon="6.662510"><ele>367.36</ele><time>2011-05-30T10:48:58Z</time></trkpt><trkpt lat="50.224586" lon="6.661788"><ele>364.00</ele><time>2011-05-30T10:49:04Z</time></trkpt><trkpt lat="50.224560" lon="6.661671"><ele>364.00</ele><time>2011-05-30T10:49:05Z</time></trkpt><trkpt lat="50.224522" lon="6.661547"><ele>363.52</ele><time>2011-05-30T10:49:06Z</time></trkpt><trkpt lat="50.224480" lon="6.661420"><ele>363.52</ele><time>2011-05-30T10:49:07Z</time></trkpt><trkpt lat="50.224449" lon="6.661294"><ele>364.00</ele><time>2011-05-30T10:49:08Z</time></trkpt><trkpt lat="50.224438" lon="6.661167"><ele>364.00</ele><time>2011-05-30T10:49:09Z</time></trkpt><trkpt lat="50.224434" lon="6.661049"><ele>364.48</ele><time>2011-05-30T10:49:10Z</time></trkpt><trkpt lat="50.224430" lon="6.660660"><ele>365.92</ele><time>2011-05-30T10:49:14Z</time></trkpt><trkpt lat="50.224430" lon="6.660509"><ele>365.44</ele><time>2011-05-30T10:49:16Z</time></trkpt><trkpt lat="50.224377" lon="6.659347"><ele>365.92</ele><time>2011-05-30T10:49:32Z</time></trkpt><trkpt lat="50.224377" lon="6.659266"><ele>365.92</ele><time>2011-05-30T10:49:34Z</time></trkpt><trkpt lat="50.224373" lon="6.659255"><ele>366.40</ele><time>2011-05-30T10:49:35Z</time></trkpt><trkpt lat="50.224365" lon="6.659267"><ele>365.92</ele><time>2011-05-30T10:49:36Z</time></trkpt><trkpt lat="50.224361" lon="6.659275"><ele>366.40</ele><time>2011-05-30T10:49:37Z</time></trkpt><trkpt lat="50.224373" lon="6.659312"><ele>366.40</ele><time>2011-05-30T10:49:38Z</time></trkpt><trkpt lat="50.224380" lon="6.659343"><ele>365.92</ele><time>2011-05-30T10:49:39Z</time></trkpt><trkpt lat="50.224396" lon="6.659814"><ele>365.92</ele><time>2011-05-30T10:49:53Z</time></trkpt><trkpt lat="50.224422" lon="6.659978"><ele>365.44</ele><time>2011-05-30T10:50:02Z</time></trkpt><trkpt lat="50.224442" lon="6.660007"><ele>365.92</ele><time>2011-05-30T10:50:15Z</time></trkpt><trkpt lat="50.224438" lon="6.659995"><ele>365.92</ele><time>2011-05-30T10:50:35Z</time></trkpt><trkpt lat="50.224438" lon="6.659993"><ele>366.40</ele><time>2011-05-30T10:51:02Z</time></trkpt><trkpt lat="50.224438" lon="6.659993"><ele>365.92</ele><time>2011-05-30T10:51:29Z</time></trkpt><trkpt lat="50.224438" lon="6.659983"><ele>366.40</ele><time>2011-05-30T10:51:55Z</time></trkpt><trkpt lat="50.224438" lon="6.659985"><ele>366.40</ele><time>2011-05-30T10:52:28Z</time></trkpt><trkpt lat="50.224438" lon="6.659985"><ele>366.40</ele><time>2011-05-30T10:52:40Z</time></trkpt><trkpt lat="50.224438" lon="6.659985"><ele>365.92</ele><time>2011-05-30T10:52:48Z</time></trkpt><trkpt lat="50.224426" lon="6.659131"><ele>367.84</ele><time>2011-05-30T11:32:12Z</time></trkpt><trkpt lat="50.224396" lon="6.659050"><ele>367.84</ele><time>2011-05-30T11:32:14Z</time></trkpt><trkpt lat="50.224373" lon="6.658963"><ele>368.80</ele><time>2011-05-30T11:32:16Z</time></trkpt><trkpt lat="50.224266" lon="6.658833"><ele>371.69</ele><time>2011-05-30T11:32:25Z</time></trkpt><trkpt lat="50.223854" lon="6.658982"><ele>373.61</ele><time>2011-05-30T11:32:41Z</time></trkpt><trkpt lat="50.223476" lon="6.659105"><ele>371.21</ele><time>2011-05-30T11:32:53Z</time></trkpt><trkpt lat="50.223457" lon="6.659112"><ele>367.84</ele><time>2011-05-30T11:32:54Z</time></trkpt><trkpt lat="50.223438" lon="6.659120"><ele>371.21</ele><time>2011-05-30T11:32:55Z</time></trkpt><trkpt lat="50.223248" lon="6.659181"><ele>369.28</ele><time>2011-05-30T11:33:05Z</time></trkpt><trkpt lat="50.223167" lon="6.659204"><ele>369.28</ele><time>2011-05-30T11:33:07Z</time></trkpt><trkpt lat="50.223038" lon="6.659273"><ele>368.32</ele><time>2011-05-30T11:33:10Z</time></trkpt><trkpt lat="50.222992" lon="6.659315"><ele>368.32</ele><time>2011-05-30T11:33:11Z</time></trkpt><trkpt lat="50.222950" lon="6.659362"><ele>367.84</ele><time>2011-05-30T11:33:12Z</time></trkpt><trkpt lat="50.222874" lon="6.659453"><ele>367.36</ele><time>2011-05-30T11:33:14Z</time></trkpt><trkpt lat="50.222832" lon="6.659478"><ele>366.88</ele><time>2011-05-30T11:33:15Z</time></trkpt><trkpt lat="50.222794" lon="6.659484"><ele>367.36</ele><time>2011-05-30T11:33:16Z</time></trkpt><trkpt lat="50.222759" lon="6.659476"><ele>366.88</ele><time>2011-05-30T11:33:17Z</time></trkpt><trkpt lat="50.222729" lon="6.659462"><ele>366.40</ele><time>2011-05-30T11:33:18Z</time></trkpt><trkpt lat="50.222710" lon="6.659444"><ele>366.88</ele><time>2011-05-30T11:33:19Z</time></trkpt><trkpt lat="50.222694" lon="6.659415"><ele>366.88</ele><time>2011-05-30T11:33:20Z</time></trkpt><trkpt lat="50.222683" lon="6.659388"><ele>366.40</ele><time>2011-05-30T11:33:21Z</time></trkpt><trkpt lat="50.222622" lon="6.658929"><ele>364.96</ele><time>2011-05-30T11:33:31Z</time></trkpt><trkpt lat="50.222618" lon="6.658654"><ele>364.48</ele><time>2011-05-30T11:33:34Z</time></trkpt><trkpt lat="50.222664" lon="6.657886"><ele>364.48</ele><time>2011-05-30T11:33:42Z</time></trkpt><trkpt lat="50.222660" lon="6.657803"><ele>364.48</ele><time>2011-05-30T11:33:43Z</time></trkpt><trkpt lat="50.222652" lon="6.657724"><ele>364.48</ele><time>2011-05-30T11:33:44Z</time></trkpt><trkpt lat="50.222614" lon="6.657446"><ele>364.48</ele><time>2011-05-30T11:33:48Z</time></trkpt><trkpt lat="50.222607" lon="6.657380"><ele>364.96</ele><time>2011-05-30T11:33:49Z</time></trkpt><trkpt lat="50.222595" lon="6.657322"><ele>364.96</ele><time>2011-05-30T11:33:50Z</time></trkpt><trkpt lat="50.222584" lon="6.657268"><ele>364.96</ele><time>2011-05-30T11:33:51Z</time></trkpt><trkpt lat="50.222572" lon="6.657211"><ele>364.96</ele><time>2011-05-30T11:33:52Z</time></trkpt><trkpt lat="50.222481" lon="6.656766"><ele>365.92</ele><time>2011-05-30T11:34:04Z</time></trkpt><trkpt lat="50.222427" lon="6.656146"><ele>365.44</ele><time>2011-05-30T11:34:15Z</time></trkpt><trkpt lat="50.222404" lon="6.655938"><ele>365.44</ele><time>2011-05-30T11:34:18Z</time></trkpt><trkpt lat="50.222389" lon="6.655533"><ele>364.96</ele><time>2011-05-30T11:34:23Z</time></trkpt><trkpt lat="50.222416" lon="6.654254"><ele>364.00</ele><time>2011-05-30T11:34:38Z</time></trkpt><trkpt lat="50.222420" lon="6.653607"><ele>364.00</ele><time>2011-05-30T11:34:46Z</time></trkpt><trkpt lat="50.222282" lon="6.652740"><ele>364.96</ele><time>2011-05-30T11:35:00Z</time></trkpt><trkpt lat="50.222252" lon="6.652180"><ele>364.48</ele><time>2011-05-30T11:35:09Z</time></trkpt><trkpt lat="50.222218" lon="6.651956"><ele>364.00</ele><time>2011-05-30T11:35:13Z</time></trkpt><trkpt lat="50.222229" lon="6.651907"><ele>364.48</ele><time>2011-05-30T11:35:14Z</time></trkpt><trkpt lat="50.222309" lon="6.651525"><ele>364.00</ele><time>2011-05-30T11:35:22Z</time></trkpt><trkpt lat="50.222286" lon="6.651476"><ele>364.00</ele><time>2011-05-30T11:35:23Z</time></trkpt><trkpt lat="50.222256" lon="6.651431"><ele>364.48</ele><time>2011-05-30T11:35:24Z</time></trkpt><trkpt lat="50.222092" lon="6.651209"><ele>364.00</ele><time>2011-05-30T11:35:29Z</time></trkpt><trkpt lat="50.222065" lon="6.651164"><ele>364.00</ele><time>2011-05-30T11:35:30Z</time></trkpt><trkpt lat="50.222050" lon="6.651117"><ele>364.00</ele><time>2011-05-30T11:35:31Z</time></trkpt><trkpt lat="50.222034" lon="6.651068"><ele>364.00</ele><time>2011-05-30T11:35:32Z</time></trkpt><trkpt lat="50.222027" lon="6.651014"><ele>364.00</ele><time>2011-05-30T11:35:33Z</time></trkpt><trkpt lat="50.222023" lon="6.650961"><ele>363.52</ele><time>2011-05-30T11:35:34Z</time></trkpt><trkpt lat="50.222015" lon="6.650898"><ele>363.52</ele><time>2011-05-30T11:35:35Z</time></trkpt><trkpt lat="50.221939" lon="6.650092"><ele>364.00</ele><time>2011-05-30T11:35:48Z</time></trkpt><trkpt lat="50.221825" lon="6.649024"><ele>363.04</ele><time>2011-05-30T11:36:03Z</time></trkpt><trkpt lat="50.221718" lon="6.647922"><ele>361.59</ele><time>2011-05-30T11:36:19Z</time></trkpt><trkpt lat="50.221611" lon="6.647005"><ele>362.07</ele><time>2011-05-30T11:36:33Z</time></trkpt><trkpt lat="50.221550" lon="6.646047"><ele>361.11</ele><time>2011-05-30T11:36:45Z</time></trkpt><trkpt lat="50.221558" lon="6.645955"><ele>360.63</ele><time>2011-05-30T11:36:46Z</time></trkpt><trkpt lat="50.221577" lon="6.645881"><ele>360.63</ele><time>2011-05-30T11:36:47Z</time></trkpt><trkpt lat="50.221596" lon="6.645813"><ele>360.15</ele><time>2011-05-30T11:36:48Z</time></trkpt><trkpt lat="50.221645" lon="6.645729"><ele>360.63</ele><time>2011-05-30T11:36:50Z</time></trkpt><trkpt lat="50.221680" lon="6.645686"><ele>360.63</ele><time>2011-05-30T11:36:51Z</time></trkpt><trkpt lat="50.221710" lon="6.645627"><ele>361.11</ele><time>2011-05-30T11:36:52Z</time></trkpt><trkpt lat="50.221745" lon="6.645576"><ele>360.63</ele><time>2011-05-30T11:36:53Z</time></trkpt><trkpt lat="50.221771" lon="6.645521"><ele>361.11</ele><time>2011-05-30T11:36:54Z</time></trkpt><trkpt lat="50.221794" lon="6.645459"><ele>361.11</ele><time>2011-05-30T11:36:55Z</time></trkpt><trkpt lat="50.221813" lon="6.645397"><ele>361.11</ele><time>2011-05-30T11:36:56Z</time></trkpt><trkpt lat="50.222115" lon="6.644638"><ele>362.55</ele><time>2011-05-30T11:37:12Z</time></trkpt><trkpt lat="50.222355" lon="6.644142"><ele>363.04</ele><time>2011-05-30T11:37:25Z</time></trkpt><trkpt lat="50.222691" lon="6.643582"><ele>362.55</ele><time>2011-05-30T11:37:38Z</time></trkpt><trkpt lat="50.222969" lon="6.642893"><ele>362.07</ele><time>2011-05-30T11:37:50Z</time></trkpt><trkpt lat="50.223091" lon="6.641977"><ele>362.07</ele><time>2011-05-30T11:38:03Z</time></trkpt><trkpt lat="50.223316" lon="6.641220"><ele>363.04</ele><time>2011-05-30T11:38:17Z</time></trkpt><trkpt lat="50.223312" lon="6.640535"><ele>362.55</ele><time>2011-05-30T11:38:30Z</time></trkpt><trkpt lat="50.222897" lon="6.639765"><ele>362.07</ele><time>2011-05-30T11:38:43Z</time></trkpt><trkpt lat="50.222324" lon="6.639076"><ele>362.55</ele><time>2011-05-30T11:38:59Z</time></trkpt><trkpt lat="50.221664" lon="6.638621"><ele>361.59</ele><time>2011-05-30T11:39:15Z</time></trkpt><trkpt lat="50.221355" lon="6.638487"><ele>362.07</ele><time>2011-05-30T11:39:22Z</time></trkpt><trkpt lat="50.221169" lon="6.638455"><ele>362.55</ele><time>2011-05-30T11:39:26Z</time></trkpt><trkpt lat="50.221123" lon="6.638448"><ele>362.07</ele><time>2011-05-30T11:39:27Z</time></trkpt><trkpt lat="50.220238" lon="6.638442"><ele>361.59</ele><time>2011-05-30T11:39:46Z</time></trkpt><trkpt lat="50.219574" lon="6.638589"><ele>361.59</ele><time>2011-05-30T11:40:01Z</time></trkpt><trkpt lat="50.219185" lon="6.638693"><ele>363.04</ele><time>2011-05-30T11:40:15Z</time></trkpt><trkpt lat="50.218994" lon="6.638732"><ele>362.55</ele><time>2011-05-30T11:40:29Z</time></trkpt><trkpt lat="50.218948" lon="6.638784"><ele>362.07</ele><time>2011-05-30T11:40:44Z</time></trkpt><trkpt lat="50.218948" lon="6.638892"><ele>364.00</ele><time>2011-05-30T11:40:52Z</time></trkpt><trkpt lat="50.218998" lon="6.639163"><ele>365.44</ele><time>2011-05-30T11:41:10Z</time></trkpt><trkpt lat="50.219009" lon="6.639256"><ele>365.92</ele><time>2011-05-30T11:41:17Z</time></trkpt><trkpt lat="50.219082" lon="6.639489"><ele>366.40</ele><time>2011-05-30T11:41:33Z</time></trkpt><trkpt lat="50.219128" lon="6.639690"><ele>367.36</ele><time>2011-05-30T11:41:50Z</time></trkpt><trkpt lat="50.219067" lon="6.639723"><ele>367.84</ele><time>2011-05-30T11:41:57Z</time></trkpt><trkpt lat="50.219055" lon="6.639723"><ele>367.84</ele><time>2011-05-30T11:41:58Z</time></trkpt><trkpt lat="50.219044" lon="6.639726"><ele>367.84</ele><time>2011-05-30T11:41:59Z</time></trkpt><trkpt lat="50.219032" lon="6.639730"><ele>367.84</ele><time>2011-05-30T11:42:00Z</time></trkpt><trkpt lat="50.219006" lon="6.639789"><ele>368.32</ele><time>2011-05-30T11:42:08Z</time></trkpt><trkpt lat="50.219013" lon="6.639811"><ele>368.32</ele><time>2011-05-30T11:42:09Z</time></trkpt><trkpt lat="50.219017" lon="6.639834"><ele>367.84</ele><time>2011-05-30T11:42:10Z</time></trkpt><trkpt lat="50.219154" lon="6.640337"><ele>368.32</ele><time>2011-05-30T11:42:24Z</time></trkpt><trkpt lat="50.219345" lon="6.641055"><ele>369.28</ele><time>2011-05-30T11:42:41Z</time></trkpt><trkpt lat="50.219440" lon="6.641655"><ele>369.28</ele><time>2011-05-30T11:42:55Z</time></trkpt><trkpt lat="50.219311" lon="6.642505"><ele>368.80</ele><time>2011-05-30T11:43:10Z</time></trkpt><trkpt lat="50.219284" lon="6.642639"><ele>369.28</ele><time>2011-05-30T11:43:12Z</time></trkpt><trkpt lat="50.219269" lon="6.642706"><ele>369.28</ele><time>2011-05-30T11:43:13Z</time></trkpt><trkpt lat="50.219204" lon="6.643235"><ele>369.76</ele><time>2011-05-30T11:43:24Z</time></trkpt><trkpt lat="50.219185" lon="6.643256"><ele>370.24</ele><time>2011-05-30T11:43:25Z</time></trkpt><trkpt lat="50.219170" lon="6.643275"><ele>370.24</ele><time>2011-05-30T11:43:26Z</time></trkpt><trkpt lat="50.219151" lon="6.643289"><ele>369.76</ele><time>2011-05-30T11:43:27Z</time></trkpt><trkpt lat="50.219131" lon="6.643289"><ele>369.28</ele><time>2011-05-30T11:43:28Z</time></trkpt><trkpt lat="50.219105" lon="6.643278"><ele>368.80</ele><time>2011-05-30T11:43:29Z</time></trkpt><trkpt lat="50.219082" lon="6.643256"><ele>367.36</ele><time>2011-05-30T11:43:30Z</time></trkpt><trkpt lat="50.219055" lon="6.643221"><ele>367.84</ele><time>2011-05-30T11:43:31Z</time></trkpt><trkpt lat="50.219025" lon="6.643171"><ele>365.92</ele><time>2011-05-30T11:43:32Z</time></trkpt><trkpt lat="50.218979" lon="6.643105"><ele>364.96</ele><time>2011-05-30T11:43:33Z</time></trkpt><trkpt lat="50.218933" lon="6.643022"><ele>364.48</ele><time>2011-05-30T11:43:34Z</time></trkpt><trkpt lat="50.218872" lon="6.642931"><ele>363.04</ele><time>2011-05-30T11:43:35Z</time></trkpt><trkpt lat="50.218803" lon="6.642813"><ele>362.07</ele><time>2011-05-30T11:43:36Z</time></trkpt><trkpt lat="50.218750" lon="6.642705"><ele>362.07</ele><time>2011-05-30T11:43:37Z</time></trkpt><trkpt lat="50.218346" lon="6.641844"><ele>361.11</ele><time>2011-05-30T11:43:44Z</time></trkpt><trkpt lat="50.218285" lon="6.641774"><ele>361.59</ele><time>2011-05-30T11:43:45Z</time></trkpt><trkpt lat="50.218220" lon="6.641754"><ele>361.59</ele><time>2011-05-30T11:43:46Z</time></trkpt><trkpt lat="50.218159" lon="6.641764"><ele>361.59</ele><time>2011-05-30T11:43:47Z</time></trkpt><trkpt lat="50.218090" lon="6.641782"><ele>361.11</ele><time>2011-05-30T11:43:48Z</time></trkpt><trkpt lat="50.218025" lon="6.641792"><ele>360.63</ele><time>2011-05-30T11:43:49Z</time></trkpt><trkpt lat="50.217251" lon="6.641974"><ele>360.63</ele><time>2011-05-30T11:44:02Z</time></trkpt><trkpt lat="50.216469" lon="6.642139"><ele>359.67</ele><time>2011-05-30T11:44:16Z</time></trkpt><trkpt lat="50.215561" lon="6.642041"><ele>360.15</ele><time>2011-05-30T11:44:33Z</time></trkpt><trkpt lat="50.215469" lon="6.642005"><ele>360.15</ele><time>2011-05-30T11:44:35Z</time></trkpt><trkpt lat="50.214867" lon="6.641698"><ele>360.15</ele><time>2011-05-30T11:44:52Z</time></trkpt><trkpt lat="50.214710" lon="6.641550"><ele>360.15</ele><time>2011-05-30T11:44:57Z</time></trkpt><trkpt lat="50.214005" lon="6.640827"><ele>359.67</ele><time>2011-05-30T11:45:15Z</time></trkpt><trkpt lat="50.213707" lon="6.640383"><ele>359.19</ele><time>2011-05-30T11:45:23Z</time></trkpt><trkpt lat="50.213676" lon="6.640329"><ele>359.67</ele><time>2011-05-30T11:45:24Z</time></trkpt><trkpt lat="50.213440" lon="6.639870"><ele>359.19</ele><time>2011-05-30T11:45:32Z</time></trkpt><trkpt lat="50.213409" lon="6.639814"><ele>359.19</ele><time>2011-05-30T11:45:33Z</time></trkpt><trkpt lat="50.213196" lon="6.639255"><ele>359.19</ele><time>2011-05-30T11:45:42Z</time></trkpt><trkpt lat="50.212891" lon="6.638267"><ele>358.71</ele><time>2011-05-30T11:45:57Z</time></trkpt><trkpt lat="50.212509" lon="6.637053"><ele>358.23</ele><time>2011-05-30T11:46:15Z</time></trkpt><trkpt lat="50.212139" lon="6.636269"><ele>358.71</ele><time>2011-05-30T11:46:30Z</time></trkpt><trkpt lat="50.211586" lon="6.635550"><ele>358.23</ele><time>2011-05-30T11:46:45Z</time></trkpt><trkpt lat="50.210960" lon="6.635078"><ele>360.15</ele><time>2011-05-30T11:47:03Z</time></trkpt><trkpt lat="50.210381" lon="6.634930"><ele>360.15</ele><time>2011-05-30T11:47:21Z</time></trkpt><trkpt lat="50.209667" lon="6.634985"><ele>360.15</ele><time>2011-05-30T11:47:39Z</time></trkpt><trkpt lat="50.209118" lon="6.635174"><ele>359.19</ele><time>2011-05-30T11:47:51Z</time></trkpt><trkpt lat="50.208416" lon="6.635654"><ele>359.19</ele><time>2011-05-30T11:48:07Z</time></trkpt><trkpt lat="50.208370" lon="6.635686"><ele>358.71</ele><time>2011-05-30T11:48:08Z</time></trkpt><trkpt lat="50.208328" lon="6.635717"><ele>358.71</ele><time>2011-05-30T11:48:09Z</time></trkpt><trkpt lat="50.208000" lon="6.635946"><ele>360.15</ele><time>2011-05-30T11:48:20Z</time></trkpt><trkpt lat="50.207962" lon="6.635970"><ele>359.67</ele><time>2011-05-30T11:48:21Z</time></trkpt><trkpt lat="50.207878" lon="6.636020"><ele>358.71</ele><time>2011-05-30T11:48:23Z</time></trkpt><trkpt lat="50.207668" lon="6.636158"><ele>358.71</ele><time>2011-05-30T11:48:28Z</time></trkpt><trkpt lat="50.207233" lon="6.636428"><ele>358.71</ele><time>2011-05-30T11:48:39Z</time></trkpt><trkpt lat="50.207191" lon="6.636447"><ele>358.23</ele><time>2011-05-30T11:48:40Z</time></trkpt><trkpt lat="50.207146" lon="6.636476"><ele>358.71</ele><time>2011-05-30T11:48:41Z</time></trkpt><trkpt lat="50.207100" lon="6.636504"><ele>358.71</ele><time>2011-05-30T11:48:42Z</time></trkpt><trkpt lat="50.207054" lon="6.636530"><ele>358.71</ele><time>2011-05-30T11:48:43Z</time></trkpt><trkpt lat="50.206871" lon="6.636618"><ele>358.71</ele><time>2011-05-30T11:48:47Z</time></trkpt><trkpt lat="50.206837" lon="6.636649"><ele>358.71</ele><time>2011-05-30T11:48:48Z</time></trkpt><trkpt lat="50.206818" lon="6.636689"><ele>359.19</ele><time>2011-05-30T11:48:49Z</time></trkpt><trkpt lat="50.206821" lon="6.636727"><ele>359.67</ele><time>2011-05-30T11:48:50Z</time></trkpt><trkpt lat="50.206833" lon="6.636737"><ele>359.19</ele><time>2011-05-30T11:48:51Z</time></trkpt><trkpt lat="50.206844" lon="6.636742"><ele>359.67</ele><time>2011-05-30T11:48:52Z</time></trkpt><trkpt lat="50.206860" lon="6.636747"><ele>360.15</ele><time>2011-05-30T11:48:53Z</time></trkpt><trkpt lat="50.206871" lon="6.636754"><ele>360.15</ele><time>2011-05-30T11:48:54Z</time></trkpt><trkpt lat="50.206898" lon="6.636762"><ele>360.63</ele><time>2011-05-30T11:48:56Z</time></trkpt><trkpt lat="50.206917" lon="6.636761"><ele>360.63</ele><time>2011-05-30T11:48:57Z</time></trkpt><trkpt lat="50.206932" lon="6.636763"><ele>361.11</ele><time>2011-05-30T11:48:58Z</time></trkpt><trkpt lat="50.207119" lon="6.636731"><ele>363.52</ele><time>2011-05-30T11:49:12Z</time></trkpt><trkpt lat="50.207188" lon="6.636661"><ele>364.48</ele><time>2011-05-30T11:49:18Z</time></trkpt><trkpt lat="50.207169" lon="6.636366"><ele>365.44</ele><time>2011-05-30T11:49:33Z</time></trkpt><trkpt lat="50.207161" lon="6.636342"><ele>364.96</ele><time>2011-05-30T11:49:34Z</time></trkpt><trkpt lat="50.207157" lon="6.636319"><ele>364.96</ele><time>2011-05-30T11:49:35Z</time></trkpt><trkpt lat="50.207085" lon="6.636009"><ele>365.44</ele><time>2011-05-30T11:49:49Z</time></trkpt><trkpt lat="50.207077" lon="6.635639"><ele>368.32</ele><time>2011-05-30T11:50:06Z</time></trkpt><trkpt lat="50.207066" lon="6.635577"><ele>368.80</ele><time>2011-05-30T11:50:09Z</time></trkpt><trkpt lat="50.207058" lon="6.635554"><ele>369.28</ele><time>2011-05-30T11:50:10Z</time></trkpt><trkpt lat="50.207039" lon="6.635543"><ele>369.28</ele><time>2011-05-30T11:50:11Z</time></trkpt><trkpt lat="50.207024" lon="6.635532"><ele>369.76</ele><time>2011-05-30T11:50:12Z</time></trkpt><trkpt lat="50.207008" lon="6.635526"><ele>369.28</ele><time>2011-05-30T11:50:13Z</time></trkpt><trkpt lat="50.206993" lon="6.635521"><ele>369.76</ele><time>2011-05-30T11:50:14Z</time></trkpt><trkpt lat="50.206974" lon="6.635514"><ele>369.28</ele><time>2011-05-30T11:50:15Z</time></trkpt><trkpt lat="50.206711" lon="6.635546"><ele>369.76</ele><time>2011-05-30T11:50:30Z</time></trkpt><trkpt lat="50.206394" lon="6.635581"><ele>370.73</ele><time>2011-05-30T11:50:45Z</time></trkpt><trkpt lat="50.206066" lon="6.635469"><ele>371.69</ele><time>2011-05-30T11:51:00Z</time></trkpt><trkpt lat="50.205730" lon="6.635066"><ele>372.17</ele><time>2011-05-30T11:51:16Z</time></trkpt><trkpt lat="50.205307" lon="6.634653"><ele>372.65</ele><time>2011-05-30T11:51:31Z</time></trkpt><trkpt lat="50.204735" lon="6.634020"><ele>372.17</ele><time>2011-05-30T11:51:49Z</time></trkpt><trkpt lat="50.204041" lon="6.633307"><ele>370.73</ele><time>2011-05-30T11:52:07Z</time></trkpt><trkpt lat="50.203705" lon="6.632974"><ele>370.73</ele><time>2011-05-30T11:52:15Z</time></trkpt><trkpt lat="50.202904" lon="6.632302"><ele>369.76</ele><time>2011-05-30T11:52:33Z</time></trkpt><trkpt lat="50.202152" lon="6.631907"><ele>369.28</ele><time>2011-05-30T11:52:48Z</time></trkpt><trkpt lat="50.201996" lon="6.631856"><ele>368.80</ele><time>2011-05-30T11:52:51Z</time></trkpt><trkpt lat="50.201946" lon="6.631853"><ele>368.32</ele><time>2011-05-30T11:52:52Z</time></trkpt><trkpt lat="50.201893" lon="6.631866"><ele>368.32</ele><time>2011-05-30T11:52:53Z</time></trkpt><trkpt lat="50.201843" lon="6.631899"><ele>368.80</ele><time>2011-05-30T11:52:54Z</time></trkpt><trkpt lat="50.201805" lon="6.631952"><ele>368.32</ele><time>2011-05-30T11:52:55Z</time></trkpt><trkpt lat="50.201771" lon="6.632020"><ele>368.32</ele><time>2011-05-30T11:52:56Z</time></trkpt><trkpt lat="50.201729" lon="6.632071"><ele>367.84</ele><time>2011-05-30T11:52:57Z</time></trkpt><trkpt lat="50.201675" lon="6.632087"><ele>368.80</ele><time>2011-05-30T11:52:58Z</time></trkpt><trkpt lat="50.201626" lon="6.632069"><ele>368.32</ele><time>2011-05-30T11:52:59Z</time></trkpt><trkpt lat="50.201591" lon="6.632016"><ele>368.32</ele><time>2011-05-30T11:53:00Z</time></trkpt><trkpt lat="50.201572" lon="6.631947"><ele>368.80</ele><time>2011-05-30T11:53:01Z</time></trkpt><trkpt lat="50.201553" lon="6.631879"><ele>368.80</ele><time>2011-05-30T11:53:02Z</time></trkpt><trkpt lat="50.201519" lon="6.631833"><ele>368.32</ele><time>2011-05-30T11:53:03Z</time></trkpt><trkpt lat="50.201473" lon="6.631818"><ele>368.32</ele><time>2011-05-30T11:53:04Z</time></trkpt><trkpt lat="50.201424" lon="6.631817"><ele>368.32</ele><time>2011-05-30T11:53:05Z</time></trkpt><trkpt lat="50.201374" lon="6.631818"><ele>368.80</ele><time>2011-05-30T11:53:06Z</time></trkpt><trkpt lat="50.200855" lon="6.631932"><ele>367.84</ele><time>2011-05-30T11:53:16Z</time></trkpt><trkpt lat="50.200092" lon="6.632441"><ele>368.32</ele><time>2011-05-30T11:53:32Z</time></trkpt><trkpt lat="50.199558" lon="6.633161"><ele>367.84</ele><time>2011-05-30T11:53:46Z</time></trkpt><trkpt lat="50.199108" lon="6.634093"><ele>367.36</ele><time>2011-05-30T11:54:01Z</time></trkpt><trkpt lat="50.198723" lon="6.635010"><ele>367.84</ele><time>2011-05-30T11:54:17Z</time></trkpt><trkpt lat="50.198196" lon="6.635888"><ele>368.32</ele><time>2011-05-30T11:54:35Z</time></trkpt><trkpt lat="50.198029" lon="6.636101"><ele>367.36</ele><time>2011-05-30T11:54:40Z</time></trkpt><trkpt lat="50.197292" lon="6.636692"><ele>368.80</ele><time>2011-05-30T11:54:59Z</time></trkpt><trkpt lat="50.196892" lon="6.636848"><ele>368.32</ele><time>2011-05-30T11:55:08Z</time></trkpt><trkpt lat="50.196091" lon="6.636871"><ele>366.40</ele><time>2011-05-30T11:55:22Z</time></trkpt><trkpt lat="50.195454" lon="6.636643"><ele>363.04</ele><time>2011-05-30T11:55:31Z</time></trkpt><trkpt lat="50.194958" lon="6.636431"><ele>359.67</ele><time>2011-05-30T11:55:37Z</time></trkpt><trkpt lat="50.194405" lon="6.636205"><ele>356.31</ele><time>2011-05-30T11:55:43Z</time></trkpt><trkpt lat="50.194016" lon="6.636061"><ele>353.42</ele><time>2011-05-30T11:55:47Z</time></trkpt><trkpt lat="50.193180" lon="6.635782"><ele>350.06</ele><time>2011-05-30T11:55:56Z</time></trkpt><trkpt lat="50.192280" lon="6.635509"><ele>350.54</ele><time>2011-05-30T11:56:08Z</time></trkpt><trkpt lat="50.192215" lon="6.635514"><ele>350.06</ele><time>2011-05-30T11:56:09Z</time></trkpt><trkpt lat="50.192036" lon="6.635554"><ele>350.54</ele><time>2011-05-30T11:56:12Z</time></trkpt><trkpt lat="50.191982" lon="6.635581"><ele>350.54</ele><time>2011-05-30T11:56:13Z</time></trkpt><trkpt lat="50.191933" lon="6.635618"><ele>351.02</ele><time>2011-05-30T11:56:14Z</time></trkpt><trkpt lat="50.191887" lon="6.635664"><ele>351.02</ele><time>2011-05-30T11:56:15Z</time></trkpt><trkpt lat="50.191841" lon="6.635708"><ele>350.54</ele><time>2011-05-30T11:56:16Z</time></trkpt><trkpt lat="50.191334" lon="6.636223"><ele>352.46</ele><time>2011-05-30T11:56:30Z</time></trkpt><trkpt lat="50.191017" lon="6.636778"><ele>353.42</ele><time>2011-05-30T11:56:46Z</time></trkpt><trkpt lat="50.190639" lon="6.637491"><ele>353.42</ele><time>2011-05-30T11:57:02Z</time></trkpt><trkpt lat="50.190331" lon="6.638429"><ele>352.94</ele><time>2011-05-30T11:57:18Z</time></trkpt><trkpt lat="50.190086" lon="6.639013"><ele>352.46</ele><time>2011-05-30T11:57:27Z</time></trkpt><trkpt lat="50.189430" lon="6.639802"><ele>351.50</ele><time>2011-05-30T11:57:43Z</time></trkpt><trkpt lat="50.188828" lon="6.640193"><ele>351.50</ele><time>2011-05-30T11:57:57Z</time></trkpt><trkpt lat="50.188778" lon="6.640203"><ele>350.54</ele><time>2011-05-30T11:57:58Z</time></trkpt><trkpt lat="50.188725" lon="6.640202"><ele>350.54</ele><time>2011-05-30T11:57:59Z</time></trkpt><trkpt lat="50.188667" lon="6.640188"><ele>350.54</ele><time>2011-05-30T11:58:00Z</time></trkpt><trkpt lat="50.188610" lon="6.640159"><ele>349.58</ele><time>2011-05-30T11:58:01Z</time></trkpt><trkpt lat="50.188557" lon="6.640120"><ele>349.58</ele><time>2011-05-30T11:58:02Z</time></trkpt><trkpt lat="50.188507" lon="6.640069"><ele>350.06</ele><time>2011-05-30T11:58:03Z</time></trkpt><trkpt lat="50.188461" lon="6.640014"><ele>350.06</ele><time>2011-05-30T11:58:04Z</time></trkpt><trkpt lat="50.188416" lon="6.639968"><ele>350.06</ele><time>2011-05-30T11:58:05Z</time></trkpt><trkpt lat="50.188370" lon="6.639937"><ele>350.06</ele><time>2011-05-30T11:58:06Z</time></trkpt><trkpt lat="50.188324" lon="6.639914"><ele>350.06</ele><time>2011-05-30T11:58:07Z</time></trkpt><trkpt lat="50.188129" lon="6.639815"><ele>350.06</ele><time>2011-05-30T11:58:11Z</time></trkpt><trkpt lat="50.187531" lon="6.639105"><ele>348.62</ele><time>2011-05-30T11:58:26Z</time></trkpt><trkpt lat="50.186993" lon="6.638102"><ele>348.62</ele><time>2011-05-30T11:58:44Z</time></trkpt><trkpt lat="50.186832" lon="6.637850"><ele>349.10</ele><time>2011-05-30T11:58:49Z</time></trkpt><trkpt lat="50.186771" lon="6.637755"><ele>348.62</ele><time>2011-05-30T11:58:51Z</time></trkpt><trkpt lat="50.186104" lon="6.636865"><ele>350.06</ele><time>2011-05-30T11:59:13Z</time></trkpt><trkpt lat="50.185570" lon="6.636178"><ele>350.06</ele><time>2011-05-30T11:59:31Z</time></trkpt><trkpt lat="50.185535" lon="6.636147"><ele>349.58</ele><time>2011-05-30T11:59:32Z</time></trkpt><trkpt lat="50.185497" lon="6.636121"><ele>349.58</ele><time>2011-05-30T11:59:33Z</time></trkpt><trkpt lat="50.185452" lon="6.636100"><ele>348.62</ele><time>2011-05-30T11:59:34Z</time></trkpt><trkpt lat="50.185234" lon="6.635947"><ele>346.21</ele><time>2011-05-30T11:59:38Z</time></trkpt><trkpt lat="50.184624" lon="6.635098"><ele>346.21</ele><time>2011-05-30T11:59:51Z</time></trkpt><trkpt lat="50.183868" lon="6.634131"><ele>344.77</ele><time>2011-05-30T12:00:11Z</time></trkpt><trkpt lat="50.183151" lon="6.633231"><ele>344.77</ele><time>2011-05-30T12:00:30Z</time></trkpt><trkpt lat="50.182590" lon="6.632464"><ele>346.21</ele><time>2011-05-30T12:00:46Z</time></trkpt><trkpt lat="50.182270" lon="6.631991"><ele>346.69</ele><time>2011-05-30T12:01:01Z</time></trkpt><trkpt lat="50.181725" lon="6.631346"><ele>346.69</ele><time>2011-05-30T12:01:18Z</time></trkpt><trkpt lat="50.181057" lon="6.630621"><ele>345.73</ele><time>2011-05-30T12:01:35Z</time></trkpt><trkpt lat="50.180302" lon="6.629945"><ele>345.25</ele><time>2011-05-30T12:01:53Z</time></trkpt><trkpt lat="50.179928" lon="6.629535"><ele>344.29</ele><time>2011-05-30T12:02:07Z</time></trkpt><trkpt lat="50.179554" lon="6.629140"><ele>344.29</ele><time>2011-05-30T12:02:22Z</time></trkpt><trkpt lat="50.179119" lon="6.628292"><ele>344.77</ele><time>2011-05-30T12:02:40Z</time></trkpt><trkpt lat="50.178707" lon="6.627454"><ele>343.81</ele><time>2011-05-30T12:02:57Z</time></trkpt><trkpt lat="50.178230" lon="6.626816"><ele>344.29</ele><time>2011-05-30T12:03:14Z</time></trkpt><trkpt lat="50.177696" lon="6.626352"><ele>345.25</ele><time>2011-05-30T12:03:33Z</time></trkpt><trkpt lat="50.177082" lon="6.625925"><ele>345.25</ele><time>2011-05-30T12:03:52Z</time></trkpt><trkpt lat="50.176525" lon="6.625763"><ele>345.25</ele><time>2011-05-30T12:04:08Z</time></trkpt><trkpt lat="50.175941" lon="6.625452"><ele>346.69</ele><time>2011-05-30T12:04:27Z</time></trkpt><trkpt lat="50.175446" lon="6.625154"><ele>347.65</ele><time>2011-05-30T12:04:46Z</time></trkpt><trkpt lat="50.174938" lon="6.624647"><ele>345.73</ele><time>2011-05-30T12:05:01Z</time></trkpt><trkpt lat="50.174896" lon="6.624627"><ele>346.21</ele><time>2011-05-30T12:05:02Z</time></trkpt><trkpt lat="50.174763" lon="6.624617"><ele>345.25</ele><time>2011-05-30T12:05:05Z</time></trkpt><trkpt lat="50.174717" lon="6.624635"><ele>345.25</ele><time>2011-05-30T12:05:06Z</time></trkpt><trkpt lat="50.174675" lon="6.624657"><ele>344.77</ele><time>2011-05-30T12:05:07Z</time></trkpt><trkpt lat="50.174274" lon="6.624853"><ele>347.17</ele><time>2011-05-30T12:05:19Z</time></trkpt><trkpt lat="50.173832" lon="6.624720"><ele>347.17</ele><time>2011-05-30T12:05:32Z</time></trkpt><trkpt lat="50.173592" lon="6.624625"><ele>345.73</ele><time>2011-05-30T12:05:37Z</time></trkpt><trkpt lat="50.173542" lon="6.624584"><ele>345.25</ele><time>2011-05-30T12:05:38Z</time></trkpt><trkpt lat="50.172874" lon="6.623667"><ele>341.89</ele><time>2011-05-30T12:05:52Z</time></trkpt><trkpt lat="50.172169" lon="6.622844"><ele>339.96</ele><time>2011-05-30T12:06:06Z</time></trkpt><trkpt lat="50.171459" lon="6.622049"><ele>339.48</ele><time>2011-05-30T12:06:21Z</time></trkpt><trkpt lat="50.170959" lon="6.621310"><ele>340.44</ele><time>2011-05-30T12:06:35Z</time></trkpt><trkpt lat="50.170406" lon="6.620379"><ele>341.41</ele><time>2011-05-30T12:06:55Z</time></trkpt><trkpt lat="50.169975" lon="6.619677"><ele>341.89</ele><time>2011-05-30T12:07:11Z</time></trkpt><trkpt lat="50.169460" lon="6.618973"><ele>340.92</ele><time>2011-05-30T12:07:30Z</time></trkpt><trkpt lat="50.168972" lon="6.618136"><ele>341.89</ele><time>2011-05-30T12:07:49Z</time></trkpt><trkpt lat="50.168381" lon="6.617286"><ele>340.44</ele><time>2011-05-30T12:08:08Z</time></trkpt><trkpt lat="50.167839" lon="6.616573"><ele>339.48</ele><time>2011-05-30T12:08:23Z</time></trkpt><trkpt lat="50.167515" lon="6.616215"><ele>339.00</ele><time>2011-05-30T12:08:31Z</time></trkpt><trkpt lat="50.167477" lon="6.616164"><ele>338.52</ele><time>2011-05-30T12:08:32Z</time></trkpt><trkpt lat="50.167282" lon="6.615950"><ele>338.04</ele><time>2011-05-30T12:08:37Z</time></trkpt><trkpt lat="50.167248" lon="6.615909"><ele>338.04</ele><time>2011-05-30T12:08:38Z</time></trkpt><trkpt lat="50.167210" lon="6.615871"><ele>338.04</ele><time>2011-05-30T12:08:39Z</time></trkpt><trkpt lat="50.166924" lon="6.615586"><ele>337.56</ele><time>2011-05-30T12:08:46Z</time></trkpt><trkpt lat="50.166889" lon="6.615546"><ele>337.56</ele><time>2011-05-30T12:08:47Z</time></trkpt><trkpt lat="50.166851" lon="6.615511"><ele>337.56</ele><time>2011-05-30T12:08:48Z</time></trkpt><trkpt lat="50.166275" lon="6.615055"><ele>337.56</ele><time>2011-05-30T12:09:03Z</time></trkpt><trkpt lat="50.165623" lon="6.614551"><ele>337.56</ele><time>2011-05-30T12:09:19Z</time></trkpt><trkpt lat="50.164768" lon="6.614032"><ele>336.12</ele><time>2011-05-30T12:09:37Z</time></trkpt><trkpt lat="50.163822" lon="6.613550"><ele>336.60</ele><time>2011-05-30T12:09:57Z</time></trkpt><trkpt lat="50.162872" lon="6.613195"><ele>335.64</ele><time>2011-05-30T12:10:16Z</time></trkpt><trkpt lat="50.162693" lon="6.613137"><ele>335.16</ele><time>2011-05-30T12:10:20Z</time></trkpt><trkpt lat="50.162121" lon="6.613030"><ele>333.71</ele><time>2011-05-30T12:10:33Z</time></trkpt><trkpt lat="50.162045" lon="6.613030"><ele>333.23</ele><time>2011-05-30T12:10:41Z</time></trkpt><trkpt lat="50.162045" lon="6.613030"><ele>334.68</ele><time>2011-05-30T12:10:44Z</time></trkpt><trkpt lat="50.162033" lon="6.613032"><ele>333.23</ele><time>2011-05-30T12:11:12Z</time></trkpt><trkpt lat="50.161270" lon="6.612370"><ele>335.64</ele><time>2011-05-30T12:17:48Z</time></trkpt><trkpt lat="50.161240" lon="6.612360"><ele>335.16</ele><time>2011-05-30T12:17:49Z</time></trkpt><trkpt lat="50.160446" lon="6.612097"><ele>335.64</ele><time>2011-05-30T12:18:10Z</time></trkpt><trkpt lat="50.159618" lon="6.611939"><ele>335.16</ele><time>2011-05-30T12:18:29Z</time></trkpt><trkpt lat="50.158836" lon="6.612036"><ele>335.16</ele><time>2011-05-30T12:18:47Z</time></trkpt><trkpt lat="50.158203" lon="6.612454"><ele>336.12</ele><time>2011-05-30T12:19:03Z</time></trkpt><trkpt lat="50.157932" lon="6.612740"><ele>336.12</ele><time>2011-05-30T12:19:11Z</time></trkpt><trkpt lat="50.157482" lon="6.613246"><ele>336.12</ele><time>2011-05-30T12:19:25Z</time></trkpt><trkpt lat="50.157001" lon="6.613795"><ele>337.08</ele><time>2011-05-30T12:19:41Z</time></trkpt><trkpt lat="50.156578" lon="6.614295"><ele>337.56</ele><time>2011-05-30T12:19:55Z</time></trkpt><trkpt lat="50.156082" lon="6.614740"><ele>338.04</ele><time>2011-05-30T12:20:10Z</time></trkpt><trkpt lat="50.155609" lon="6.614962"><ele>337.08</ele><time>2011-05-30T12:20:23Z</time></trkpt><trkpt lat="50.155079" lon="6.614856"><ele>338.52</ele><time>2011-05-30T12:20:38Z</time></trkpt><trkpt lat="50.154545" lon="6.614535"><ele>338.04</ele><time>2011-05-30T12:20:55Z</time></trkpt><trkpt lat="50.154121" lon="6.614022"><ele>338.52</ele><time>2011-05-30T12:21:12Z</time></trkpt><trkpt lat="50.153725" lon="6.613184"><ele>338.04</ele><time>2011-05-30T12:21:31Z</time></trkpt><trkpt lat="50.153439" lon="6.612190"><ele>336.60</ele><time>2011-05-30T12:21:48Z</time></trkpt><trkpt lat="50.153286" lon="6.611742"><ele>332.75</ele><time>2011-05-30T12:21:53Z</time></trkpt><trkpt lat="50.153225" lon="6.611492"><ele>332.27</ele><time>2011-05-30T12:21:55Z</time></trkpt><trkpt lat="50.153202" lon="6.611358"><ele>331.79</ele><time>2011-05-30T12:21:56Z</time></trkpt><trkpt lat="50.153118" lon="6.610709"><ele>329.87</ele><time>2011-05-30T12:22:01Z</time></trkpt><trkpt lat="50.153004" lon="6.609283"><ele>329.39</ele><time>2011-05-30T12:22:14Z</time></trkpt><trkpt lat="50.153011" lon="6.609197"><ele>330.35</ele><time>2011-05-30T12:22:15Z</time></trkpt><trkpt lat="50.153019" lon="6.609123"><ele>330.35</ele><time>2011-05-30T12:22:16Z</time></trkpt><trkpt lat="50.153034" lon="6.609071"><ele>330.83</ele><time>2011-05-30T12:22:17Z</time></trkpt><trkpt lat="50.153049" lon="6.609048"><ele>330.83</ele><time>2011-05-30T12:22:18Z</time></trkpt><trkpt lat="50.153061" lon="6.609042"><ele>331.31</ele><time>2011-05-30T12:22:19Z</time></trkpt><trkpt lat="50.153072" lon="6.609033"><ele>330.83</ele><time>2011-05-30T12:22:20Z</time></trkpt><trkpt lat="50.153088" lon="6.609019"><ele>330.83</ele><time>2011-05-30T12:22:21Z</time></trkpt><trkpt lat="50.153107" lon="6.609007"><ele>331.31</ele><time>2011-05-30T12:22:22Z</time></trkpt><trkpt lat="50.153122" lon="6.609000"><ele>330.83</ele><time>2011-05-30T12:22:23Z</time></trkpt><trkpt lat="50.153141" lon="6.608996"><ele>330.35</ele><time>2011-05-30T12:22:24Z</time></trkpt><trkpt lat="50.153156" lon="6.608980"><ele>330.35</ele><time>2011-05-30T12:22:25Z</time></trkpt><trkpt lat="50.153164" lon="6.608959"><ele>330.35</ele><time>2011-05-30T12:22:26Z</time></trkpt><trkpt lat="50.153160" lon="6.608938"><ele>330.83</ele><time>2011-05-30T12:22:27Z</time></trkpt><trkpt lat="50.153152" lon="6.608916"><ele>330.83</ele><time>2011-05-30T12:22:29Z</time></trkpt><trkpt lat="50.153149" lon="6.608895"><ele>330.35</ele><time>2011-05-30T12:22:30Z</time></trkpt><trkpt lat="50.153187" lon="6.608199"><ele>330.35</ele><time>2011-05-30T12:22:44Z</time></trkpt><trkpt lat="50.153324" lon="6.607113"><ele>330.35</ele><time>2011-05-30T12:23:02Z</time></trkpt><trkpt lat="50.153381" lon="6.606324"><ele>330.35</ele><time>2011-05-30T12:23:16Z</time></trkpt><trkpt lat="50.153252" lon="6.605258"><ele>330.83</ele><time>2011-05-30T12:23:34Z</time></trkpt><trkpt lat="50.152973" lon="6.603891"><ele>327.95</ele><time>2011-05-30T12:23:52Z</time></trkpt><trkpt lat="50.152603" lon="6.603133"><ele>328.91</ele><time>2011-05-30T12:24:04Z</time></trkpt><trkpt lat="50.152523" lon="6.603040"><ele>328.91</ele><time>2011-05-30T12:24:06Z</time></trkpt><trkpt lat="50.152485" lon="6.602992"><ele>329.39</ele><time>2011-05-30T12:24:07Z</time></trkpt><trkpt lat="50.151711" lon="6.602164"><ele>328.43</ele><time>2011-05-30T12:24:28Z</time></trkpt><trkpt lat="50.150928" lon="6.601358"><ele>327.47</ele><time>2011-05-30T12:24:48Z</time></trkpt><trkpt lat="50.150467" lon="6.600996"><ele>327.47</ele><time>2011-05-30T12:24:59Z</time></trkpt><trkpt lat="50.150433" lon="6.600969"><ele>327.47</ele><time>2011-05-30T12:25:00Z</time></trkpt><trkpt lat="50.150394" lon="6.600948"><ele>327.47</ele><time>2011-05-30T12:25:01Z</time></trkpt><trkpt lat="50.150356" lon="6.600938"><ele>327.47</ele><time>2011-05-30T12:25:02Z</time></trkpt><trkpt lat="50.150322" lon="6.600943"><ele>328.43</ele><time>2011-05-30T12:25:03Z</time></trkpt><trkpt lat="50.150288" lon="6.600965"><ele>328.43</ele><time>2011-05-30T12:25:04Z</time></trkpt><trkpt lat="50.150265" lon="6.600995"><ele>327.95</ele><time>2011-05-30T12:25:05Z</time></trkpt><trkpt lat="50.150253" lon="6.601042"><ele>327.95</ele><time>2011-05-30T12:25:06Z</time></trkpt><trkpt lat="50.150246" lon="6.601095"><ele>328.43</ele><time>2011-05-30T12:25:07Z</time></trkpt><trkpt lat="50.150234" lon="6.601144"><ele>327.95</ele><time>2011-05-30T12:25:08Z</time></trkpt><trkpt lat="50.150223" lon="6.601195"><ele>327.95</ele><time>2011-05-30T12:25:09Z</time></trkpt><trkpt lat="50.150150" lon="6.601539"><ele>327.95</ele><time>2011-05-30T12:25:15Z</time></trkpt><trkpt lat="50.150082" lon="6.601833"><ele>326.99</ele><time>2011-05-30T12:25:21Z</time></trkpt><trkpt lat="50.150055" lon="6.601856"><ele>326.99</ele><time>2011-05-30T12:25:22Z</time></trkpt><trkpt lat="50.150024" lon="6.601854"><ele>327.47</ele><time>2011-05-30T12:25:23Z</time></trkpt><trkpt lat="50.149990" lon="6.601846"><ele>326.99</ele><time>2011-05-30T12:25:24Z</time></trkpt><trkpt lat="50.149956" lon="6.601834"><ele>326.99</ele><time>2011-05-30T12:25:25Z</time></trkpt><trkpt lat="50.149342" lon="6.601651"><ele>326.99</ele><time>2011-05-30T12:25:41Z</time></trkpt><trkpt lat="50.148540" lon="6.601713"><ele>326.99</ele><time>2011-05-30T12:26:01Z</time></trkpt><trkpt lat="50.147743" lon="6.602032"><ele>326.99</ele><time>2011-05-30T12:26:20Z</time></trkpt><trkpt lat="50.146988" lon="6.602350"><ele>327.95</ele><time>2011-05-30T12:26:38Z</time></trkpt><trkpt lat="50.146278" lon="6.602705"><ele>327.47</ele><time>2011-05-30T12:26:56Z</time></trkpt><trkpt lat="50.145813" lon="6.602903"><ele>328.91</ele><time>2011-05-30T12:27:10Z</time></trkpt><trkpt lat="50.145252" lon="6.603249"><ele>328.43</ele><time>2011-05-30T12:27:26Z</time></trkpt><trkpt lat="50.144440" lon="6.603678"><ele>326.50</ele><time>2011-05-30T12:27:44Z</time></trkpt><trkpt lat="50.143467" lon="6.604232"><ele>326.02</ele><time>2011-05-30T12:28:07Z</time></trkpt><trkpt lat="50.143101" lon="6.604430"><ele>326.02</ele><time>2011-05-30T12:28:16Z</time></trkpt><trkpt lat="50.142368" lon="6.604818"><ele>326.02</ele><time>2011-05-30T12:28:32Z</time></trkpt><trkpt lat="50.141602" lon="6.605241"><ele>326.02</ele><time>2011-05-30T12:28:49Z</time></trkpt><trkpt lat="50.140850" lon="6.605664"><ele>326.02</ele><time>2011-05-30T12:29:05Z</time></trkpt><trkpt lat="50.140053" lon="6.606122"><ele>326.02</ele><time>2011-05-30T12:29:22Z</time></trkpt><trkpt lat="50.139957" lon="6.606158"><ele>326.02</ele><time>2011-05-30T12:29:24Z</time></trkpt><trkpt lat="50.139210" lon="6.606240"><ele>325.54</ele><time>2011-05-30T12:29:40Z</time></trkpt><trkpt lat="50.138329" lon="6.606135"><ele>325.06</ele><time>2011-05-30T12:29:59Z</time></trkpt><trkpt lat="50.137676" lon="6.605880"><ele>324.10</ele><time>2011-05-30T12:30:14Z</time></trkpt><trkpt lat="50.137257" lon="6.605630"><ele>324.10</ele><time>2011-05-30T12:30:24Z</time></trkpt><trkpt lat="50.136562" lon="6.605177"><ele>322.66</ele><time>2011-05-30T12:30:39Z</time></trkpt><trkpt lat="50.135811" lon="6.604655"><ele>324.10</ele><time>2011-05-30T12:30:56Z</time></trkpt><trkpt lat="50.135471" lon="6.604437"><ele>323.14</ele><time>2011-05-30T12:31:04Z</time></trkpt><trkpt lat="50.134895" lon="6.604010"><ele>323.62</ele><time>2011-05-30T12:31:21Z</time></trkpt><trkpt lat="50.134323" lon="6.603607"><ele>323.14</ele><time>2011-05-30T12:31:37Z</time></trkpt><trkpt lat="50.133698" lon="6.603165"><ele>322.18</ele><time>2011-05-30T12:31:52Z</time></trkpt><trkpt lat="50.133110" lon="6.602763"><ele>321.70</ele><time>2011-05-30T12:32:07Z</time></trkpt><trkpt lat="50.132423" lon="6.602426"><ele>322.18</ele><time>2011-05-30T12:32:23Z</time></trkpt><trkpt lat="50.131691" lon="6.602123"><ele>322.18</ele><time>2011-05-30T12:32:40Z</time></trkpt><trkpt lat="50.130974" lon="6.601794"><ele>322.18</ele><time>2011-05-30T12:32:57Z</time></trkpt><trkpt lat="50.130222" lon="6.601461"><ele>321.22</ele><time>2011-05-30T12:33:15Z</time></trkpt><trkpt lat="50.129532" lon="6.601201"><ele>321.22</ele><time>2011-05-30T12:33:32Z</time></trkpt><trkpt lat="50.129166" lon="6.601338"><ele>322.66</ele><time>2011-05-30T12:33:44Z</time></trkpt><trkpt lat="50.128902" lon="6.601470"><ele>325.06</ele><time>2011-05-30T12:33:58Z</time></trkpt><trkpt lat="50.128529" lon="6.601573"><ele>324.10</ele><time>2011-05-30T12:34:13Z</time></trkpt><trkpt lat="50.127655" lon="6.601603"><ele>322.66</ele><time>2011-05-30T12:34:33Z</time></trkpt><trkpt lat="50.127567" lon="6.601574"><ele>322.18</ele><time>2011-05-30T12:34:35Z</time></trkpt><trkpt lat="50.127522" lon="6.601548"><ele>321.70</ele><time>2011-05-30T12:34:36Z</time></trkpt><trkpt lat="50.126926" lon="6.601046"><ele>319.78</ele><time>2011-05-30T12:34:48Z</time></trkpt><trkpt lat="50.126629" lon="6.600787"><ele>318.81</ele><time>2011-05-30T12:34:59Z</time></trkpt><trkpt lat="50.126400" lon="6.600695"><ele>318.33</ele><time>2011-05-30T12:35:12Z</time></trkpt><trkpt lat="50.126015" lon="6.600833"><ele>318.81</ele><time>2011-05-30T12:35:28Z</time></trkpt><trkpt lat="50.125614" lon="6.600877"><ele>317.85</ele><time>2011-05-30T12:35:41Z</time></trkpt><trkpt lat="50.125027" lon="6.600980"><ele>317.85</ele><time>2011-05-30T12:35:57Z</time></trkpt><trkpt lat="50.124374" lon="6.601171"><ele>317.37</ele><time>2011-05-30T12:36:15Z</time></trkpt><trkpt lat="50.123962" lon="6.601321"><ele>318.81</ele><time>2011-05-30T12:36:30Z</time></trkpt><trkpt lat="50.123554" lon="6.601433"><ele>319.78</ele><time>2011-05-30T12:36:45Z</time></trkpt><trkpt lat="50.123066" lon="6.601514"><ele>320.74</ele><time>2011-05-30T12:37:03Z</time></trkpt><trkpt lat="50.122520" lon="6.601605"><ele>319.78</ele><time>2011-05-30T12:37:21Z</time></trkpt><trkpt lat="50.122086" lon="6.601690"><ele>319.78</ele><time>2011-05-30T12:37:34Z</time></trkpt><trkpt lat="50.122040" lon="6.601676"><ele>319.78</ele><time>2011-05-30T12:37:35Z</time></trkpt><trkpt lat="50.121994" lon="6.601657"><ele>319.30</ele><time>2011-05-30T12:37:36Z</time></trkpt><trkpt lat="50.121944" lon="6.601626"><ele>319.30</ele><time>2011-05-30T12:37:37Z</time></trkpt><trkpt lat="50.121899" lon="6.601585"><ele>319.30</ele><time>2011-05-30T12:37:38Z</time></trkpt><trkpt lat="50.121853" lon="6.601537"><ele>318.81</ele><time>2011-05-30T12:37:39Z</time></trkpt><trkpt lat="50.121803" lon="6.601486"><ele>318.33</ele><time>2011-05-30T12:37:40Z</time></trkpt><trkpt lat="50.121227" lon="6.600682"><ele>317.37</ele><time>2011-05-30T12:37:55Z</time></trkpt><trkpt lat="50.120686" lon="6.599928"><ele>317.37</ele><time>2011-05-30T12:38:10Z</time></trkpt><trkpt lat="50.120647" lon="6.599894"><ele>317.37</ele><time>2011-05-30T12:38:11Z</time></trkpt><trkpt lat="50.120613" lon="6.599865"><ele>317.37</ele><time>2011-05-30T12:38:12Z</time></trkpt><trkpt lat="50.120575" lon="6.599838"><ele>317.37</ele><time>2011-05-30T12:38:13Z</time></trkpt><trkpt lat="50.120541" lon="6.599818"><ele>317.37</ele><time>2011-05-30T12:38:14Z</time></trkpt><trkpt lat="50.120071" lon="6.599682"><ele>315.93</ele><time>2011-05-30T12:38:27Z</time></trkpt><trkpt lat="50.119247" lon="6.599499"><ele>315.45</ele><time>2011-05-30T12:38:46Z</time></trkpt><trkpt lat="50.118519" lon="6.599371"><ele>316.41</ele><time>2011-05-30T12:39:03Z</time></trkpt><trkpt lat="50.117714" lon="6.599359"><ele>315.45</ele><time>2011-05-30T12:39:21Z</time></trkpt><trkpt lat="50.117668" lon="6.599349"><ele>315.45</ele><time>2011-05-30T12:39:22Z</time></trkpt><trkpt lat="50.117218" lon="6.599314"><ele>315.45</ele><time>2011-05-30T12:39:33Z</time></trkpt><trkpt lat="50.116875" lon="6.598777"><ele>314.01</ele><time>2011-05-30T12:39:46Z</time></trkpt><trkpt lat="50.116844" lon="6.598716"><ele>314.49</ele><time>2011-05-30T12:39:47Z</time></trkpt><trkpt lat="50.116806" lon="6.598674"><ele>314.01</ele><time>2011-05-30T12:39:48Z</time></trkpt><trkpt lat="50.116760" lon="6.598639"><ele>314.49</ele><time>2011-05-30T12:39:49Z</time></trkpt><trkpt lat="50.116707" lon="6.598619"><ele>314.49</ele><time>2011-05-30T12:39:50Z</time></trkpt><trkpt lat="50.116653" lon="6.598609"><ele>314.49</ele><time>2011-05-30T12:39:51Z</time></trkpt><trkpt lat="50.116604" lon="6.598609"><ele>314.97</ele><time>2011-05-30T12:39:52Z</time></trkpt><trkpt lat="50.116554" lon="6.598616"><ele>314.49</ele><time>2011-05-30T12:39:53Z</time></trkpt><trkpt lat="50.116505" lon="6.598623"><ele>314.01</ele><time>2011-05-30T12:39:54Z</time></trkpt><trkpt lat="50.115761" lon="6.598815"><ele>314.01</ele><time>2011-05-30T12:40:13Z</time></trkpt><trkpt lat="50.115131" lon="6.599423"><ele>314.49</ele><time>2011-05-30T12:40:32Z</time></trkpt><trkpt lat="50.114582" lon="6.600132"><ele>313.05</ele><time>2011-05-30T12:40:50Z</time></trkpt><trkpt lat="50.114552" lon="6.600171"><ele>312.57</ele><time>2011-05-30T12:40:51Z</time></trkpt><trkpt lat="50.114498" lon="6.600262"><ele>313.05</ele><time>2011-05-30T12:40:53Z</time></trkpt><trkpt lat="50.114040" lon="6.601197"><ele>313.53</ele><time>2011-05-30T12:41:11Z</time></trkpt><trkpt lat="50.113575" lon="6.601866"><ele>313.05</ele><time>2011-05-30T12:41:29Z</time></trkpt><trkpt lat="50.112984" lon="6.602556"><ele>314.01</ele><time>2011-05-30T12:41:49Z</time></trkpt><trkpt lat="50.112377" lon="6.603233"><ele>314.49</ele><time>2011-05-30T12:42:08Z</time></trkpt><trkpt lat="50.111801" lon="6.603849"><ele>313.53</ele><time>2011-05-30T12:42:27Z</time></trkpt><trkpt lat="50.111340" lon="6.604223"><ele>315.45</ele><time>2011-05-30T12:42:47Z</time></trkpt><trkpt lat="50.110897" lon="6.604457"><ele>315.93</ele><time>2011-05-30T12:43:05Z</time></trkpt><trkpt lat="50.110447" lon="6.604608"><ele>316.89</ele><time>2011-05-30T12:43:23Z</time></trkpt><trkpt lat="50.109879" lon="6.604649"><ele>316.89</ele><time>2011-05-30T12:43:43Z</time></trkpt><trkpt lat="50.109299" lon="6.604558"><ele>316.89</ele><time>2011-05-30T12:44:02Z</time></trkpt><trkpt lat="50.108627" lon="6.604349"><ele>316.89</ele><time>2011-05-30T12:44:22Z</time></trkpt><trkpt lat="50.107952" lon="6.604270"><ele>316.41</ele><time>2011-05-30T12:44:40Z</time></trkpt><trkpt lat="50.107193" lon="6.604650"><ele>315.93</ele><time>2011-05-30T12:44:58Z</time></trkpt><trkpt lat="50.106598" lon="6.605075"><ele>314.97</ele><time>2011-05-30T12:45:14Z</time></trkpt><trkpt lat="50.105804" lon="6.605297"><ele>313.05</ele><time>2011-05-30T12:45:31Z</time></trkpt><trkpt lat="50.104874" lon="6.605105"><ele>312.09</ele><time>2011-05-30T12:45:49Z</time></trkpt><trkpt lat="50.104473" lon="6.604878"><ele>311.60</ele><time>2011-05-30T12:45:58Z</time></trkpt><trkpt lat="50.104443" lon="6.604842"><ele>311.60</ele><time>2011-05-30T12:45:59Z</time></trkpt><trkpt lat="50.104420" lon="6.604817"><ele>311.60</ele><time>2011-05-30T12:46:00Z</time></trkpt><trkpt lat="50.104401" lon="6.604814"><ele>311.12</ele><time>2011-05-30T12:46:01Z</time></trkpt><trkpt lat="50.104401" lon="6.604871"><ele>312.09</ele><time>2011-05-30T12:46:04Z</time></trkpt><trkpt lat="50.104435" lon="6.604895"><ele>312.09</ele><time>2011-05-30T12:46:06Z</time></trkpt><trkpt lat="50.104465" lon="6.604952"><ele>311.60</ele><time>2011-05-30T12:46:22Z</time></trkpt><trkpt lat="50.104465" lon="6.604952"><ele>312.09</ele><time>2011-05-30T12:46:49Z</time></trkpt><trkpt lat="50.104465" lon="6.604952"><ele>313.05</ele><time>2011-05-30T12:47:20Z</time></trkpt><trkpt lat="50.104465" lon="6.604952"><ele>312.09</ele><time>2011-05-30T12:47:21Z</time></trkpt><trkpt lat="50.104465" lon="6.604956"><ele>308.24</ele><time>2011-05-30T12:47:41Z</time></trkpt><trkpt lat="50.104465" lon="6.604956"><ele>308.24</ele><time>2011-05-30T12:47:42Z</time></trkpt><trkpt lat="50.104465" lon="6.604956"><ele>312.57</ele><time>2011-05-30T12:47:47Z</time></trkpt><trkpt lat="50.104465" lon="6.604956"><ele>311.60</ele><time>2011-05-30T12:47:48Z</time></trkpt><trkpt lat="50.104465" lon="6.604961"><ele>312.09</ele><time>2011-05-30T12:48:14Z</time></trkpt><trkpt lat="50.104469" lon="6.605048"><ele>311.12</ele><time>2011-05-30T12:48:19Z</time></trkpt><trkpt lat="50.104374" lon="6.605089"><ele>312.57</ele><time>2011-05-30T12:48:23Z</time></trkpt><trkpt lat="50.104267" lon="6.605022"><ele>311.12</ele><time>2011-05-30T12:48:27Z</time></trkpt><trkpt lat="50.103645" lon="6.604356"><ele>310.64</ele><time>2011-05-30T12:48:45Z</time></trkpt><trkpt lat="50.103554" lon="6.604239"><ele>308.72</ele><time>2011-05-30T12:48:48Z</time></trkpt><trkpt lat="50.103455" lon="6.604102"><ele>306.32</ele><time>2011-05-30T12:48:51Z</time></trkpt><trkpt lat="50.103355" lon="6.603971"><ele>309.20</ele><time>2011-05-30T12:48:54Z</time></trkpt><trkpt lat="50.103321" lon="6.603924"><ele>308.72</ele><time>2011-05-30T12:48:55Z</time></trkpt><trkpt lat="50.103287" lon="6.603871"><ele>308.72</ele><time>2011-05-30T12:48:56Z</time></trkpt><trkpt lat="50.103252" lon="6.603817"><ele>309.20</ele><time>2011-05-30T12:48:57Z</time></trkpt><trkpt lat="50.102661" lon="6.602992"><ele>307.76</ele><time>2011-05-30T12:49:14Z</time></trkpt><trkpt lat="50.101955" lon="6.602050"><ele>307.28</ele><time>2011-05-30T12:49:34Z</time></trkpt><trkpt lat="50.101467" lon="6.601587"><ele>307.28</ele><time>2011-05-30T12:49:49Z</time></trkpt><trkpt lat="50.100979" lon="6.601229"><ele>308.24</ele><time>2011-05-30T12:50:07Z</time></trkpt><trkpt lat="50.100975" lon="6.601196"><ele>307.76</ele><time>2011-05-30T12:50:08Z</time></trkpt><trkpt lat="50.100979" lon="6.601157"><ele>307.76</ele><time>2011-05-30T12:50:09Z</time></trkpt><trkpt lat="50.100986" lon="6.601116"><ele>307.76</ele><time>2011-05-30T12:50:10Z</time></trkpt><trkpt lat="50.100979" lon="6.600806"><ele>307.76</ele><time>2011-05-30T12:50:21Z</time></trkpt><trkpt lat="50.100964" lon="6.600799"><ele>307.76</ele><time>2011-05-30T12:50:22Z</time></trkpt><trkpt lat="50.100368" lon="6.600538"><ele>308.24</ele><time>2011-05-30T12:50:36Z</time></trkpt><trkpt lat="50.099743" lon="6.600477"><ele>307.76</ele><time>2011-05-30T12:50:49Z</time></trkpt><trkpt lat="50.099594" lon="6.600529"><ele>308.24</ele><time>2011-05-30T12:50:52Z</time></trkpt><trkpt lat="50.099445" lon="6.600618"><ele>307.76</ele><time>2011-05-30T12:50:55Z</time></trkpt><trkpt lat="50.098808" lon="6.601202"><ele>307.28</ele><time>2011-05-30T12:51:09Z</time></trkpt><trkpt lat="50.098171" lon="6.601907"><ele>307.28</ele><time>2011-05-30T12:51:24Z</time></trkpt><trkpt lat="50.097858" lon="6.602237"><ele>307.28</ele><time>2011-05-30T12:51:32Z</time></trkpt><trkpt lat="50.097824" lon="6.602264"><ele>306.80</ele><time>2011-05-30T12:51:33Z</time></trkpt><trkpt lat="50.097679" lon="6.602362"><ele>306.80</ele><time>2011-05-30T12:51:37Z</time></trkpt><trkpt lat="50.097137" lon="6.602829"><ele>306.80</ele><time>2011-05-30T12:51:52Z</time></trkpt><trkpt lat="50.096603" lon="6.603183"><ele>307.76</ele><time>2011-05-30T12:52:10Z</time></trkpt><trkpt lat="50.096146" lon="6.603400"><ele>308.24</ele><time>2011-05-30T12:52:27Z</time></trkpt><trkpt lat="50.095673" lon="6.603506"><ele>307.76</ele><time>2011-05-30T12:52:43Z</time></trkpt><trkpt lat="50.095127" lon="6.603465"><ele>308.24</ele><time>2011-05-30T12:52:59Z</time></trkpt><trkpt lat="50.094479" lon="6.603294"><ele>308.72</ele><time>2011-05-30T12:53:18Z</time></trkpt><trkpt lat="50.093674" lon="6.603087"><ele>308.24</ele><time>2011-05-30T12:53:38Z</time></trkpt><trkpt lat="50.092762" lon="6.602886"><ele>306.32</ele><time>2011-05-30T12:53:56Z</time></trkpt><trkpt lat="50.092388" lon="6.602790"><ele>304.88</ele><time>2011-05-30T12:54:03Z</time></trkpt><trkpt lat="50.092285" lon="6.602781"><ele>304.88</ele><time>2011-05-30T12:54:05Z</time></trkpt><trkpt lat="50.091473" lon="6.602581"><ele>304.88</ele><time>2011-05-30T12:54:23Z</time></trkpt><trkpt lat="50.090729" lon="6.602353"><ele>303.43</ele><time>2011-05-30T12:54:39Z</time></trkpt><trkpt lat="50.090126" lon="6.602200"><ele>304.39</ele><time>2011-05-30T12:54:53Z</time></trkpt><trkpt lat="50.089355" lon="6.602198"><ele>303.91</ele><time>2011-05-30T12:55:10Z</time></trkpt><trkpt lat="50.088547" lon="6.602547"><ele>303.43</ele><time>2011-05-30T12:55:28Z</time></trkpt><trkpt lat="50.087872" lon="6.603126"><ele>303.91</ele><time>2011-05-30T12:55:46Z</time></trkpt><trkpt lat="50.087345" lon="6.603633"><ele>304.39</ele><time>2011-05-30T12:56:02Z</time></trkpt><trkpt lat="50.086807" lon="6.604027"><ele>304.39</ele><time>2011-05-30T12:56:19Z</time></trkpt><trkpt lat="50.086388" lon="6.604235"><ele>305.84</ele><time>2011-05-30T12:56:34Z</time></trkpt><trkpt lat="50.086079" lon="6.604176"><ele>307.76</ele><time>2011-05-30T12:56:48Z</time></trkpt><trkpt lat="50.085758" lon="6.604075"><ele>309.68</ele><time>2011-05-30T12:57:06Z</time></trkpt><trkpt lat="50.085583" lon="6.603960"><ele>310.64</ele><time>2011-05-30T12:57:17Z</time></trkpt><trkpt lat="50.085583" lon="6.603972"><ele>310.64</ele><time>2011-05-30T12:57:18Z</time></trkpt><trkpt lat="50.085567" lon="6.603976"><ele>310.64</ele><time>2011-05-30T12:57:19Z</time></trkpt><trkpt lat="50.085629" lon="6.604012"><ele>309.68</ele><time>2011-05-30T12:57:23Z</time></trkpt><trkpt lat="50.085659" lon="6.604027"><ele>309.68</ele><time>2011-05-30T12:57:24Z</time></trkpt><trkpt lat="50.085690" lon="6.604045"><ele>309.20</ele><time>2011-05-30T12:57:25Z</time></trkpt><trkpt lat="50.085957" lon="6.604258"><ele>305.84</ele><time>2011-05-30T12:57:34Z</time></trkpt><trkpt lat="50.086040" lon="6.604450"><ele>303.91</ele><time>2011-05-30T12:57:38Z</time></trkpt><trkpt lat="50.085915" lon="6.604615"><ele>304.39</ele><time>2011-05-30T12:57:46Z</time></trkpt><trkpt lat="50.085812" lon="6.604563"><ele>304.39</ele><time>2011-05-30T12:57:47Z</time></trkpt><trkpt lat="50.085732" lon="6.604533"><ele>304.88</ele><time>2011-05-30T12:57:48Z</time></trkpt><trkpt lat="50.085255" lon="6.604585"><ele>305.84</ele><time>2011-05-30T12:58:02Z</time></trkpt><trkpt lat="50.084648" lon="6.604577"><ele>304.88</ele><time>2011-05-30T12:58:17Z</time></trkpt><trkpt lat="50.084564" lon="6.604563"><ele>304.88</ele><time>2011-05-30T12:58:19Z</time></trkpt><trkpt lat="50.084522" lon="6.604550"><ele>304.39</ele><time>2011-05-30T12:58:20Z</time></trkpt><trkpt lat="50.084442" lon="6.604513"><ele>304.39</ele><time>2011-05-30T12:58:22Z</time></trkpt><trkpt lat="50.084026" lon="6.604234"><ele>304.39</ele><time>2011-05-30T12:58:34Z</time></trkpt><trkpt lat="50.083504" lon="6.603782"><ele>302.95</ele><time>2011-05-30T12:58:49Z</time></trkpt><trkpt lat="50.083298" lon="6.603573"><ele>302.95</ele><time>2011-05-30T12:58:56Z</time></trkpt><trkpt lat="50.082680" lon="6.603078"><ele>300.55</ele><time>2011-05-30T12:59:11Z</time></trkpt><trkpt lat="50.082020" lon="6.602443"><ele>300.55</ele><time>2011-05-30T12:59:27Z</time></trkpt><trkpt lat="50.081211" lon="6.601796"><ele>300.55</ele><time>2011-05-30T12:59:45Z</time></trkpt><trkpt lat="50.080643" lon="6.601580"><ele>301.03</ele><time>2011-05-30T13:00:00Z</time></trkpt><trkpt lat="50.080219" lon="6.601485"><ele>301.51</ele><time>2011-05-30T13:00:14Z</time></trkpt><trkpt lat="50.079735" lon="6.601582"><ele>300.55</ele><time>2011-05-30T13:00:27Z</time></trkpt><trkpt lat="50.078926" lon="6.601692"><ele>300.07</ele><time>2011-05-30T13:00:42Z</time></trkpt><trkpt lat="50.078732" lon="6.601739"><ele>300.55</ele><time>2011-05-30T13:00:46Z</time></trkpt><trkpt lat="50.078682" lon="6.601757"><ele>300.07</ele><time>2011-05-30T13:00:47Z</time></trkpt><trkpt lat="50.077961" lon="6.601949"><ele>300.55</ele><time>2011-05-30T13:01:02Z</time></trkpt><trkpt lat="50.077259" lon="6.602095"><ele>300.07</ele><time>2011-05-30T13:01:17Z</time></trkpt><trkpt lat="50.076481" lon="6.602147"><ele>300.07</ele><time>2011-05-30T13:01:33Z</time></trkpt><trkpt lat="50.075821" lon="6.602063"><ele>300.07</ele><time>2011-05-30T13:01:48Z</time></trkpt><trkpt lat="50.075279" lon="6.601983"><ele>301.03</ele><time>2011-05-30T13:02:02Z</time></trkpt><trkpt lat="50.075157" lon="6.601971"><ele>301.03</ele><time>2011-05-30T13:02:05Z</time></trkpt><trkpt lat="50.074547" lon="6.601842"><ele>300.07</ele><time>2011-05-30T13:02:21Z</time></trkpt><trkpt lat="50.074203" lon="6.601652"><ele>301.03</ele><time>2011-05-30T13:02:35Z</time></trkpt><trkpt lat="50.074039" lon="6.601675"><ele>301.99</ele><time>2011-05-30T13:02:48Z</time></trkpt><trkpt lat="50.074039" lon="6.601675"><ele>301.51</ele><time>2011-05-30T13:03:08Z</time></trkpt><trkpt lat="50.072609" lon="6.601936"><ele>301.51</ele><time>2011-05-30T13:13:39Z</time></trkpt><trkpt lat="50.072468" lon="6.601872"><ele>301.51</ele><time>2011-05-30T13:13:41Z</time></trkpt><trkpt lat="50.072086" lon="6.601562"><ele>303.43</ele><time>2011-05-30T13:13:54Z</time></trkpt><trkpt lat="50.071457" lon="6.601348"><ele>304.39</ele><time>2011-05-30T13:14:12Z</time></trkpt><trkpt lat="50.071114" lon="6.601240"><ele>305.36</ele><time>2011-05-30T13:14:28Z</time></trkpt><trkpt lat="50.070793" lon="6.601161"><ele>306.80</ele><time>2011-05-30T13:14:44Z</time></trkpt><trkpt lat="50.070766" lon="6.601147"><ele>306.80</ele><time>2011-05-30T13:14:45Z</time></trkpt><trkpt lat="50.070744" lon="6.601138"><ele>306.80</ele><time>2011-05-30T13:14:46Z</time></trkpt><trkpt lat="50.070721" lon="6.601127"><ele>307.28</ele><time>2011-05-30T13:14:47Z</time></trkpt><trkpt lat="50.070698" lon="6.601117"><ele>306.80</ele><time>2011-05-30T13:14:48Z</time></trkpt><trkpt lat="50.070675" lon="6.601106"><ele>307.28</ele><time>2011-05-30T13:14:49Z</time></trkpt><trkpt lat="50.070187" lon="6.600885"><ele>307.28</ele><time>2011-05-30T13:15:06Z</time></trkpt><trkpt lat="50.069965" lon="6.600791"><ele>305.84</ele><time>2011-05-30T13:15:13Z</time></trkpt><trkpt lat="50.069756" lon="6.600773"><ele>302.47</ele><time>2011-05-30T13:15:17Z</time></trkpt><trkpt lat="50.069695" lon="6.600774"><ele>302.47</ele><time>2011-05-30T13:15:18Z</time></trkpt><trkpt lat="50.069302" lon="6.600844"><ele>300.55</ele><time>2011-05-30T13:15:24Z</time></trkpt><trkpt lat="50.069233" lon="6.600835"><ele>300.55</ele><time>2011-05-30T13:15:25Z</time></trkpt><trkpt lat="50.068642" lon="6.600783"><ele>301.03</ele><time>2011-05-30T13:15:37Z</time></trkpt><trkpt lat="50.068325" lon="6.600747"><ele>302.47</ele><time>2011-05-30T13:15:49Z</time></trkpt><trkpt lat="50.067825" lon="6.600837"><ele>301.03</ele><time>2011-05-30T13:16:03Z</time></trkpt><trkpt lat="50.067776" lon="6.600848"><ele>301.03</ele><time>2011-05-30T13:16:04Z</time></trkpt><trkpt lat="50.067722" lon="6.600851"><ele>300.55</ele><time>2011-05-30T13:16:05Z</time></trkpt><trkpt lat="50.066914" lon="6.600605"><ele>299.59</ele><time>2011-05-30T13:16:21Z</time></trkpt><trkpt lat="50.066338" lon="6.600157"><ele>299.11</ele><time>2011-05-30T13:16:36Z</time></trkpt><trkpt lat="50.065784" lon="6.599679"><ele>299.59</ele><time>2011-05-30T13:16:53Z</time></trkpt><trkpt lat="50.065495" lon="6.599702"><ele>299.59</ele><time>2011-05-30T13:17:05Z</time></trkpt><trkpt lat="50.065178" lon="6.600083"><ele>301.03</ele><time>2011-05-30T13:17:20Z</time></trkpt><trkpt lat="50.064926" lon="6.600394"><ele>302.47</ele><time>2011-05-30T13:17:37Z</time></trkpt><trkpt lat="50.064762" lon="6.600694"><ele>304.39</ele><time>2011-05-30T13:17:54Z</time></trkpt><trkpt lat="50.064621" lon="6.600792"><ele>305.36</ele><time>2011-05-30T13:18:06Z</time></trkpt><trkpt lat="50.064411" lon="6.600649"><ele>308.24</ele><time>2011-05-30T13:18:23Z</time></trkpt><trkpt lat="50.064350" lon="6.600614"><ele>309.20</ele><time>2011-05-30T13:18:28Z</time></trkpt><trkpt lat="50.064342" lon="6.600596"><ele>309.20</ele><time>2011-05-30T13:18:29Z</time></trkpt><trkpt lat="50.064186" lon="6.600124"><ele>307.76</ele><time>2011-05-30T13:18:44Z</time></trkpt><trkpt lat="50.063911" lon="6.599874"><ele>307.76</ele><time>2011-05-30T13:18:54Z</time></trkpt><trkpt lat="50.063522" lon="6.599696"><ele>308.24</ele><time>2011-05-30T13:19:08Z</time></trkpt><trkpt lat="50.063297" lon="6.599609"><ele>309.20</ele><time>2011-05-30T13:19:18Z</time></trkpt><trkpt lat="50.062992" lon="6.599462"><ele>309.20</ele><time>2011-05-30T13:19:32Z</time></trkpt><trkpt lat="50.062901" lon="6.599417"><ele>311.12</ele><time>2011-05-30T13:19:37Z</time></trkpt><trkpt lat="50.062515" lon="6.599283"><ele>308.72</ele><time>2011-05-30T13:19:49Z</time></trkpt><trkpt lat="50.062420" lon="6.599260"><ele>307.76</ele><time>2011-05-30T13:19:51Z</time></trkpt><trkpt lat="50.061874" lon="6.599016"><ele>304.39</ele><time>2011-05-30T13:20:00Z</time></trkpt><trkpt lat="50.061790" lon="6.598998"><ele>304.39</ele><time>2011-05-30T13:20:01Z</time></trkpt><trkpt lat="50.061707" lon="6.598994"><ele>303.91</ele><time>2011-05-30T13:20:02Z</time></trkpt><trkpt lat="50.061455" lon="6.599006"><ele>302.47</ele><time>2011-05-30T13:20:05Z</time></trkpt><trkpt lat="50.061123" lon="6.598985"><ele>300.55</ele><time>2011-05-30T13:20:09Z</time></trkpt><trkpt lat="50.061050" lon="6.598947"><ele>301.03</ele><time>2011-05-30T13:20:10Z</time></trkpt><trkpt lat="50.060989" lon="6.598876"><ele>300.07</ele><time>2011-05-30T13:20:11Z</time></trkpt><trkpt lat="50.060890" lon="6.598712"><ele>300.55</ele><time>2011-05-30T13:20:13Z</time></trkpt><trkpt lat="50.060822" lon="6.598662"><ele>300.55</ele><time>2011-05-30T13:20:14Z</time></trkpt><trkpt lat="50.060753" lon="6.598631"><ele>299.11</ele><time>2011-05-30T13:20:15Z</time></trkpt><trkpt lat="50.060684" lon="6.598616"><ele>298.63</ele><time>2011-05-30T13:20:16Z</time></trkpt><trkpt lat="50.060619" lon="6.598618"><ele>299.59</ele><time>2011-05-30T13:20:17Z</time></trkpt><trkpt lat="50.060562" lon="6.598632"><ele>300.07</ele><time>2011-05-30T13:20:18Z</time></trkpt><trkpt lat="50.060513" lon="6.598658"><ele>300.55</ele><time>2011-05-30T13:20:19Z</time></trkpt><trkpt lat="50.060467" lon="6.598683"><ele>301.03</ele><time>2011-05-30T13:20:20Z</time></trkpt><trkpt lat="50.060429" lon="6.598711"><ele>301.51</ele><time>2011-05-30T13:20:21Z</time></trkpt><trkpt lat="50.060398" lon="6.598736"><ele>301.99</ele><time>2011-05-30T13:20:22Z</time></trkpt><trkpt lat="50.059998" lon="6.599043"><ele>303.43</ele><time>2011-05-30T13:20:37Z</time></trkpt><trkpt lat="50.059643" lon="6.599269"><ele>301.51</ele><time>2011-05-30T13:20:47Z</time></trkpt><trkpt lat="50.059570" lon="6.599325"><ele>301.03</ele><time>2011-05-30T13:20:49Z</time></trkpt><trkpt lat="50.059486" lon="6.599400"><ele>298.15</ele><time>2011-05-30T13:20:51Z</time></trkpt><trkpt lat="50.059296" lon="6.599535"><ele>296.70</ele><time>2011-05-30T13:20:54Z</time></trkpt><trkpt lat="50.058491" lon="6.599929"><ele>293.82</ele><time>2011-05-30T13:21:02Z</time></trkpt><trkpt lat="50.057713" lon="6.600378"><ele>293.82</ele><time>2011-05-30T13:21:13Z</time></trkpt><trkpt lat="50.057503" lon="6.600576"><ele>293.34</ele><time>2011-05-30T13:21:17Z</time></trkpt><trkpt lat="50.057453" lon="6.600641"><ele>292.86</ele><time>2011-05-30T13:21:18Z</time></trkpt><trkpt lat="50.057415" lon="6.600709"><ele>293.34</ele><time>2011-05-30T13:21:19Z</time></trkpt><trkpt lat="50.057381" lon="6.600776"><ele>293.34</ele><time>2011-05-30T13:21:20Z</time></trkpt><trkpt lat="50.057350" lon="6.600838"><ele>292.86</ele><time>2011-05-30T13:21:21Z</time></trkpt><trkpt lat="50.057301" lon="6.600962"><ele>292.86</ele><time>2011-05-30T13:21:23Z</time></trkpt><trkpt lat="50.057266" lon="6.601089"><ele>292.86</ele><time>2011-05-30T13:21:25Z</time></trkpt><trkpt lat="50.057247" lon="6.601154"><ele>292.86</ele><time>2011-05-30T13:21:26Z</time></trkpt><trkpt lat="50.057228" lon="6.601218"><ele>293.34</ele><time>2011-05-30T13:21:27Z</time></trkpt><trkpt lat="50.057194" lon="6.601393"><ele>291.90</ele><time>2011-05-30T13:21:30Z</time></trkpt><trkpt lat="50.056911" lon="6.601995"><ele>292.38</ele><time>2011-05-30T13:21:43Z</time></trkpt><trkpt lat="50.056717" lon="6.602328"><ele>292.86</ele><time>2011-05-30T13:21:53Z</time></trkpt><trkpt lat="50.056328" lon="6.602564"><ele>292.86</ele><time>2011-05-30T13:22:05Z</time></trkpt><trkpt lat="50.056271" lon="6.602579"><ele>293.34</ele><time>2011-05-30T13:22:07Z</time></trkpt><trkpt lat="50.056244" lon="6.602593"><ele>292.86</ele><time>2011-05-30T13:22:08Z</time></trkpt><trkpt lat="50.056217" lon="6.602602"><ele>293.34</ele><time>2011-05-30T13:22:09Z</time></trkpt><trkpt lat="50.056190" lon="6.602610"><ele>293.34</ele><time>2011-05-30T13:22:10Z</time></trkpt><trkpt lat="50.056164" lon="6.602620"><ele>293.34</ele><time>2011-05-30T13:22:11Z</time></trkpt><trkpt lat="50.055851" lon="6.602534"><ele>293.82</ele><time>2011-05-30T13:22:19Z</time></trkpt><trkpt lat="50.055798" lon="6.602503"><ele>293.82</ele><time>2011-05-30T13:22:20Z</time></trkpt><trkpt lat="50.055614" lon="6.602385"><ele>293.82</ele><time>2011-05-30T13:22:24Z</time></trkpt><trkpt lat="50.055283" lon="6.602080"><ele>293.82</ele><time>2011-05-30T13:22:32Z</time></trkpt><trkpt lat="50.055241" lon="6.602048"><ele>293.82</ele><time>2011-05-30T13:22:33Z</time></trkpt><trkpt lat="50.055126" lon="6.601957"><ele>293.82</ele><time>2011-05-30T13:22:36Z</time></trkpt><trkpt lat="50.055023" lon="6.601837"><ele>293.34</ele><time>2011-05-30T13:22:39Z</time></trkpt><trkpt lat="50.054813" lon="6.601662"><ele>292.86</ele><time>2011-05-30T13:22:44Z</time></trkpt><trkpt lat="50.054615" lon="6.601456"><ele>292.86</ele><time>2011-05-30T13:22:49Z</time></trkpt><trkpt lat="50.054337" lon="6.601166"><ele>292.86</ele><time>2011-05-30T13:22:56Z</time></trkpt><trkpt lat="50.054287" lon="6.601122"><ele>292.86</ele><time>2011-05-30T13:22:57Z</time></trkpt><trkpt lat="50.054211" lon="6.601032"><ele>292.86</ele><time>2011-05-30T13:22:59Z</time></trkpt><trkpt lat="50.054184" lon="6.600977"><ele>292.86</ele><time>2011-05-30T13:23:00Z</time></trkpt><trkpt lat="50.054150" lon="6.600929"><ele>292.38</ele><time>2011-05-30T13:23:01Z</time></trkpt><trkpt lat="50.054047" lon="6.600800"><ele>291.90</ele><time>2011-05-30T13:23:04Z</time></trkpt><trkpt lat="50.053650" lon="6.600276"><ele>291.90</ele><time>2011-05-30T13:23:14Z</time></trkpt><trkpt lat="50.053185" lon="6.599688"><ele>291.90</ele><time>2011-05-30T13:23:26Z</time></trkpt><trkpt lat="50.053017" lon="6.599409"><ele>291.90</ele><time>2011-05-30T13:23:32Z</time></trkpt><trkpt lat="50.052979" lon="6.599368"><ele>291.90</ele><time>2011-05-30T13:23:33Z</time></trkpt><trkpt lat="50.052944" lon="6.599329"><ele>291.90</ele><time>2011-05-30T13:23:34Z</time></trkpt><trkpt lat="50.052906" lon="6.599283"><ele>291.90</ele><time>2011-05-30T13:23:35Z</time></trkpt><trkpt lat="50.052872" lon="6.599228"><ele>291.90</ele><time>2011-05-30T13:23:36Z</time></trkpt><trkpt lat="50.052795" lon="6.599133"><ele>291.42</ele><time>2011-05-30T13:23:38Z</time></trkpt><trkpt lat="50.052757" lon="6.599085"><ele>291.42</ele><time>2011-05-30T13:23:39Z</time></trkpt><trkpt lat="50.052437" lon="6.598738"><ele>292.86</ele><time>2011-05-30T13:23:50Z</time></trkpt><trkpt lat="50.052128" lon="6.598737"><ele>293.82</ele><time>2011-05-30T13:24:01Z</time></trkpt><trkpt lat="50.051769" lon="6.598881"><ele>293.34</ele><time>2011-05-30T13:24:12Z</time></trkpt><trkpt lat="50.051361" lon="6.599115"><ele>293.82</ele><time>2011-05-30T13:24:23Z</time></trkpt><trkpt lat="50.050869" lon="6.599565"><ele>294.30</ele><time>2011-05-30T13:24:37Z</time></trkpt><trkpt lat="50.050365" lon="6.600158"><ele>294.30</ele><time>2011-05-30T13:24:53Z</time></trkpt><trkpt lat="50.049881" lon="6.600935"><ele>292.86</ele><time>2011-05-30T13:25:08Z</time></trkpt><trkpt lat="50.049835" lon="6.601046"><ele>292.86</ele><time>2011-05-30T13:25:10Z</time></trkpt><trkpt lat="50.049637" lon="6.601677"><ele>291.42</ele><time>2011-05-30T13:25:22Z</time></trkpt><trkpt lat="50.049614" lon="6.602028"><ele>288.05</ele><time>2011-05-30T13:25:32Z</time></trkpt><trkpt lat="50.049637" lon="6.601726"><ele>289.49</ele><time>2011-05-30T13:25:36Z</time></trkpt><trkpt lat="50.049557" lon="6.601525"><ele>289.97</ele><time>2011-05-30T13:25:38Z</time></trkpt><trkpt lat="50.049541" lon="6.601229"><ele>290.94</ele><time>2011-05-30T13:25:42Z</time></trkpt><trkpt lat="50.049561" lon="6.601265"><ele>291.42</ele><time>2011-05-30T13:25:44Z</time></trkpt><trkpt lat="50.049557" lon="6.601304"><ele>291.90</ele><time>2011-05-30T13:25:46Z</time></trkpt><trkpt lat="50.049259" lon="6.601661"><ele>291.90</ele><time>2011-05-30T13:26:00Z</time></trkpt><trkpt lat="50.048775" lon="6.602024"><ele>290.94</ele><time>2011-05-30T13:26:15Z</time></trkpt><trkpt lat="50.046906" lon="6.602556"><ele>289.49</ele><time>2011-05-30T13:26:54Z</time></trkpt><trkpt lat="50.046848" lon="6.602499"><ele>289.49</ele><time>2011-05-30T13:26:56Z</time></trkpt><trkpt lat="50.046764" lon="6.602481"><ele>289.01</ele><time>2011-05-30T13:26:58Z</time></trkpt><trkpt lat="50.046715" lon="6.602460"><ele>289.01</ele><time>2011-05-30T13:26:59Z</time></trkpt><trkpt lat="50.046684" lon="6.602429"><ele>288.53</ele><time>2011-05-30T13:27:00Z</time></trkpt><trkpt lat="50.045876" lon="6.602020"><ele>287.09</ele><time>2011-05-30T13:27:14Z</time></trkpt><trkpt lat="50.045162" lon="6.601742"><ele>287.57</ele><time>2011-05-30T13:27:26Z</time></trkpt><trkpt lat="50.044903" lon="6.601667"><ele>287.57</ele><time>2011-05-30T13:27:31Z</time></trkpt><trkpt lat="50.044861" lon="6.601651"><ele>288.05</ele><time>2011-05-30T13:27:32Z</time></trkpt><trkpt lat="50.044289" lon="6.601561"><ele>286.61</ele><time>2011-05-30T13:27:46Z</time></trkpt><trkpt lat="50.043652" lon="6.601296"><ele>287.09</ele><time>2011-05-30T13:28:00Z</time></trkpt><trkpt lat="50.043064" lon="6.600871"><ele>286.61</ele><time>2011-05-30T13:28:13Z</time></trkpt><trkpt lat="50.042801" lon="6.600595"><ele>287.09</ele><time>2011-05-30T13:28:24Z</time></trkpt><trkpt lat="50.042774" lon="6.600560"><ele>286.61</ele><time>2011-05-30T13:28:28Z</time></trkpt><trkpt lat="50.042767" lon="6.600538"><ele>286.61</ele><time>2011-05-30T13:28:29Z</time></trkpt><trkpt lat="50.042763" lon="6.600507"><ele>286.61</ele><time>2011-05-30T13:28:30Z</time></trkpt><trkpt lat="50.042747" lon="6.600474"><ele>286.61</ele><time>2011-05-30T13:28:31Z</time></trkpt><trkpt lat="50.042725" lon="6.600448"><ele>286.61</ele><time>2011-05-30T13:28:32Z</time></trkpt><trkpt lat="50.042698" lon="6.600420"><ele>286.61</ele><time>2011-05-30T13:28:33Z</time></trkpt><trkpt lat="50.042679" lon="6.600387"><ele>287.09</ele><time>2011-05-30T13:28:34Z</time></trkpt><trkpt lat="50.042656" lon="6.600352"><ele>286.61</ele><time>2011-05-30T13:28:35Z</time></trkpt><trkpt lat="50.042500" lon="6.600005"><ele>287.09</ele><time>2011-05-30T13:28:45Z</time></trkpt><trkpt lat="50.042274" lon="6.599436"><ele>285.65</ele><time>2011-05-30T13:28:58Z</time></trkpt><trkpt lat="50.042137" lon="6.599053"><ele>286.13</ele><time>2011-05-30T13:29:09Z</time></trkpt><trkpt lat="50.041996" lon="6.598189"><ele>286.13</ele><time>2011-05-30T13:29:25Z</time></trkpt><trkpt lat="50.041977" lon="6.597641"><ele>286.13</ele><time>2011-05-30T13:29:38Z</time></trkpt><trkpt lat="50.042000" lon="6.597619"><ele>286.13</ele><time>2011-05-30T13:29:39Z</time></trkpt><trkpt lat="50.042191" lon="6.597074"><ele>285.65</ele><time>2011-05-30T13:29:52Z</time></trkpt><trkpt lat="50.042068" lon="6.596384"><ele>285.65</ele><time>2011-05-30T13:30:06Z</time></trkpt><trkpt lat="50.041924" lon="6.595333"><ele>286.13</ele><time>2011-05-30T13:30:23Z</time></trkpt><trkpt lat="50.041714" lon="6.594381"><ele>285.17</ele><time>2011-05-30T13:30:40Z</time></trkpt><trkpt lat="50.041676" lon="6.594131"><ele>285.65</ele><time>2011-05-30T13:30:48Z</time></trkpt><trkpt lat="50.041668" lon="6.594115"><ele>285.17</ele><time>2011-05-30T13:30:53Z</time></trkpt><trkpt lat="50.041653" lon="6.594095"><ele>284.69</ele><time>2011-05-30T13:30:54Z</time></trkpt><trkpt lat="50.041630" lon="6.594097"><ele>285.17</ele><time>2011-05-30T13:30:55Z</time></trkpt><trkpt lat="50.041611" lon="6.594116"><ele>285.17</ele><time>2011-05-30T13:30:56Z</time></trkpt><trkpt lat="50.041595" lon="6.594142"><ele>285.17</ele><time>2011-05-30T13:30:57Z</time></trkpt><trkpt lat="50.041584" lon="6.594175"><ele>285.17</ele><time>2011-05-30T13:30:58Z</time></trkpt><trkpt lat="50.041565" lon="6.594208"><ele>285.17</ele><time>2011-05-30T13:30:59Z</time></trkpt><trkpt lat="50.041542" lon="6.594248"><ele>284.69</ele><time>2011-05-30T13:31:00Z</time></trkpt><trkpt lat="50.041340" lon="6.594467"><ele>283.25</ele><time>2011-05-30T13:31:14Z</time></trkpt><trkpt lat="50.041332" lon="6.594398"><ele>283.25</ele><time>2011-05-30T13:31:18Z</time></trkpt><trkpt lat="50.041325" lon="6.594369"><ele>282.77</ele><time>2011-05-30T13:31:19Z</time></trkpt><trkpt lat="50.041309" lon="6.594296"><ele>283.25</ele><time>2011-05-30T13:31:20Z</time></trkpt><trkpt lat="50.041069" lon="6.593494"><ele>281.80</ele><time>2011-05-30T13:31:33Z</time></trkpt><trkpt lat="50.040775" lon="6.592665"><ele>282.77</ele><time>2011-05-30T13:31:48Z</time></trkpt><trkpt lat="50.040432" lon="6.592061"><ele>283.73</ele><time>2011-05-30T13:32:03Z</time></trkpt><trkpt lat="50.040279" lon="6.591885"><ele>283.73</ele><time>2011-05-30T13:32:13Z</time></trkpt><trkpt lat="50.040215" lon="6.591846"><ele>285.65</ele><time>2011-05-30T13:32:17Z</time></trkpt><trkpt lat="50.040028" lon="6.591686"><ele>287.57</ele><time>2011-05-30T13:32:31Z</time></trkpt><trkpt lat="50.039978" lon="6.591617"><ele>288.05</ele><time>2011-05-30T13:32:40Z</time></trkpt><trkpt lat="50.039845" lon="6.591496"><ele>290.46</ele><time>2011-05-30T13:32:57Z</time></trkpt><trkpt lat="50.039707" lon="6.591488"><ele>292.38</ele><time>2011-05-30T13:33:16Z</time></trkpt><trkpt lat="50.039665" lon="6.591467"><ele>293.34</ele><time>2011-05-30T13:33:21Z</time></trkpt><trkpt lat="50.039528" lon="6.591421"><ele>294.30</ele><time>2011-05-30T13:33:36Z</time></trkpt><trkpt lat="50.039379" lon="6.591417"><ele>296.22</ele><time>2011-05-30T13:33:53Z</time></trkpt><trkpt lat="50.039253" lon="6.591456"><ele>297.67</ele><time>2011-05-30T13:34:09Z</time></trkpt><trkpt lat="50.039116" lon="6.591463"><ele>298.63</ele><time>2011-05-30T13:34:24Z</time></trkpt><trkpt lat="50.038979" lon="6.591426"><ele>297.67</ele><time>2011-05-30T13:34:37Z</time></trkpt><trkpt lat="50.038860" lon="6.591351"><ele>295.74</ele><time>2011-05-30T13:34:43Z</time></trkpt><trkpt lat="50.038784" lon="6.591311"><ele>294.30</ele><time>2011-05-30T13:34:46Z</time></trkpt><trkpt lat="50.038589" lon="6.591200"><ele>290.94</ele><time>2011-05-30T13:34:53Z</time></trkpt><trkpt lat="50.038414" lon="6.591164"><ele>288.05</ele><time>2011-05-30T13:34:58Z</time></trkpt><trkpt lat="50.038166" lon="6.591125"><ele>284.69</ele><time>2011-05-30T13:35:07Z</time></trkpt><trkpt lat="50.038120" lon="6.591136"><ele>283.73</ele><time>2011-05-30T13:35:09Z</time></trkpt><trkpt lat="50.037754" lon="6.591173"><ele>280.84</ele><time>2011-05-30T13:35:25Z</time></trkpt><trkpt lat="50.037418" lon="6.591342"><ele>279.88</ele><time>2011-05-30T13:35:41Z</time></trkpt><trkpt lat="50.037144" lon="6.591631"><ele>280.36</ele><time>2011-05-30T13:35:58Z</time></trkpt><trkpt lat="50.036896" lon="6.591948"><ele>279.88</ele><time>2011-05-30T13:36:12Z</time></trkpt><trkpt lat="50.036724" lon="6.592107"><ele>279.88</ele><time>2011-05-30T13:36:24Z</time></trkpt><trkpt lat="50.036697" lon="6.592079"><ele>279.40</ele><time>2011-05-30T13:36:39Z</time></trkpt><trkpt lat="50.036697" lon="6.592079"><ele>279.88</ele><time>2011-05-30T13:37:02Z</time></trkpt><trkpt lat="50.036697" lon="6.592089"><ele>278.92</ele><time>2011-05-30T13:37:11Z</time></trkpt><trkpt lat="50.036880" lon="6.592150"><ele>288.05</ele><time>2011-05-30T15:24:26Z</time></trkpt><trkpt lat="50.036869" lon="6.592167"><ele>287.57</ele><time>2011-05-30T15:24:27Z</time></trkpt><trkpt lat="50.036854" lon="6.592277"><ele>284.69</ele><time>2011-05-30T15:24:35Z</time></trkpt><trkpt lat="50.036854" lon="6.592263"><ele>281.80</ele><time>2011-05-30T15:24:40Z</time></trkpt><trkpt lat="50.036839" lon="6.592159"><ele>278.44</ele><time>2011-05-30T15:24:51Z</time></trkpt><trkpt lat="50.036831" lon="6.592168"><ele>277.48</ele><time>2011-05-30T15:24:55Z</time></trkpt><trkpt lat="50.036777" lon="6.592144"><ele>274.59</ele><time>2011-05-30T15:25:05Z</time></trkpt><trkpt lat="50.036781" lon="6.592152"><ele>276.04</ele><time>2011-05-30T15:25:11Z</time></trkpt><trkpt lat="50.036865" lon="6.592193"><ele>275.56</ele><time>2011-05-30T15:25:40Z</time></trkpt><trkpt lat="50.036816" lon="6.592139"><ele>277.00</ele><time>2011-05-30T15:26:12Z</time></trkpt><trkpt lat="50.036816" lon="6.592139"><ele>276.04</ele><time>2011-05-30T15:26:45Z</time></trkpt></trkseg></trk></gpx>